<?xml version="1.0" encoding="UTF-8" standalone="no" ?>
<gpx xmlns="http://www.topografix.com/GPX/1/1" xmlns:xsi="http://www.w3.org/2001/XMLSchema-instance" xsi:schemaLocation="http://www.topografix.com/GPX/1/1 http://www.topografix.com/GPX/1/1/gpx.xsd" version="1.1" creator="VisuGPX - https://www.visugpx.com">
  <metadata>
    <name>01/01/24 VTTAE Gruissan long</name>
    <desc><![CDATA[Trace variée pour découvrir tout à la fois points de vue sur les étangs, singles en forêt et des descentes techniques (dont 2 classées noires, à repérer avant en cas de doutes)]]></desc>
  </metadata>
  <trk>
    <name><![CDATA[01/01/24]]></name>
    <extensions>
      <line xmlns="http://www.topografix.com/GPX/gpx_style/0/2">
        <color>0000FF</color>
        <width>4</width>
      </line>
    </extensions>
    <trkseg>
      <trkpt lat="43.11362" lon="3.09985">
        <ele>14.9</ele>
        <time>2024-01-01T12:40:42Z</time>
        <extensions>
          <visugpx:TrkExtension xmlns:visugpx="https://www.visugpx.com/editgpx/">
            <visugpx:node>1</visugpx:node>
            </visugpx:TrkExtension>
        </extensions>
      </trkpt>
      <trkpt lat="43.11342" lon="3.09911">
        <ele>12.1</ele>
        <time>2024-01-01T12:40:54Z</time>
      </trkpt>
      <trkpt lat="43.11355" lon="3.09872">
        <ele>11</ele>
        <time>2024-01-01T12:41:00Z</time>
      </trkpt>
      <trkpt lat="43.11383" lon="3.09851">
        <ele>6.5</ele>
        <time>2024-01-01T12:41:06Z</time>
      </trkpt>
      <trkpt lat="43.11391" lon="3.09837">
        <ele>4.3</ele>
        <time>2024-01-01T12:41:08Z</time>
      </trkpt>
      <trkpt lat="43.11396" lon="3.09799">
        <ele>2.8</ele>
        <time>2024-01-01T12:41:12Z</time>
      </trkpt>
      <trkpt lat="43.11395" lon="3.09769">
        <ele>2.7</ele>
        <time>2024-01-01T12:41:16Z</time>
      </trkpt>
      <trkpt lat="43.11385" lon="3.09714">
        <ele>2.6</ele>
        <time>2024-01-01T12:41:24Z</time>
      </trkpt>
      <trkpt lat="43.11383" lon="3.09657">
        <ele>2.9</ele>
        <time>2024-01-01T12:41:32Z</time>
      </trkpt>
      <trkpt lat="43.11387" lon="3.09597">
        <ele>1.9</ele>
        <time>2024-01-01T12:41:40Z</time>
      </trkpt>
      <trkpt lat="43.11383" lon="3.09538">
        <ele>4.6</ele>
        <time>2024-01-01T12:41:48Z</time>
      </trkpt>
      <trkpt lat="43.11374" lon="3.0948">
        <ele>-4</ele>
        <time>2024-01-01T12:41:56Z</time>
      </trkpt>
      <trkpt lat="43.11358" lon="3.09429">
        <ele>-3.8</ele>
        <time>2024-01-01T12:42:04Z</time>
      </trkpt>
      <trkpt lat="43.11359" lon="3.09401">
        <ele>-3.8</ele>
        <time>2024-01-01T12:42:08Z</time>
      </trkpt>
      <trkpt lat="43.11369" lon="3.09376">
        <ele>-4</ele>
        <time>2024-01-01T12:42:12Z</time>
      </trkpt>
      <trkpt lat="43.11399" lon="3.09337">
        <ele>-4</ele>
        <time>2024-01-01T12:42:20Z</time>
      </trkpt>
      <trkpt lat="43.11412" lon="3.09314">
        <ele>-4.1</ele>
        <time>2024-01-01T12:42:24Z</time>
      </trkpt>
      <trkpt lat="43.11435" lon="3.09305">
        <ele>-4.3</ele>
        <time>2024-01-01T12:42:30Z</time>
      </trkpt>
      <trkpt lat="43.11436" lon="3.09273">
        <ele>-4.3</ele>
        <time>2024-01-01T12:42:36Z</time>
      </trkpt>
      <trkpt lat="43.11443" lon="3.09248">
        <ele>-4.1</ele>
        <time>2024-01-01T12:42:40Z</time>
      </trkpt>
      <trkpt lat="43.11437" lon="3.09224">
        <ele>-4.1</ele>
        <time>2024-01-01T12:42:44Z</time>
      </trkpt>
      <trkpt lat="43.1144" lon="3.09215">
        <ele>-4.6</ele>
        <time>2024-01-01T12:42:46Z</time>
      </trkpt>
      <trkpt lat="43.11459" lon="3.09204">
        <ele>-4.6</ele>
        <time>2024-01-01T12:42:50Z</time>
      </trkpt>
      <trkpt lat="43.1149" lon="3.09166">
        <ele>-4</ele>
        <time>2024-01-01T12:42:58Z</time>
      </trkpt>
      <trkpt lat="43.11596" lon="3.08994">
        <ele>-3.6</ele>
        <time>2024-01-01T12:43:30Z</time>
      </trkpt>
      <trkpt lat="43.11645" lon="3.08907">
        <ele>-3.8</ele>
        <time>2024-01-01T12:43:46Z</time>
      </trkpt>
      <trkpt lat="43.11648" lon="3.08879">
        <ele>-4</ele>
        <time>2024-01-01T12:43:50Z</time>
      </trkpt>
      <trkpt lat="43.11646" lon="3.08851">
        <ele>-4</ele>
        <time>2024-01-01T12:43:54Z</time>
      </trkpt>
      <trkpt lat="43.11653" lon="3.08826">
        <ele>-3.6</ele>
        <time>2024-01-01T12:43:58Z</time>
      </trkpt>
      <trkpt lat="43.11665" lon="3.08804">
        <ele>-3.8</ele>
        <time>2024-01-01T12:44:02Z</time>
      </trkpt>
      <trkpt lat="43.1168" lon="3.08748">
        <ele>-4.1</ele>
        <time>2024-01-01T12:44:10Z</time>
      </trkpt>
      <trkpt lat="43.11688" lon="3.08525">
        <ele>-3.8</ele>
        <time>2024-01-01T12:44:42Z</time>
      </trkpt>
      <trkpt lat="43.11702" lon="3.08474">
        <ele>-3.1</ele>
        <time>2024-01-01T12:44:50Z</time>
      </trkpt>
      <trkpt lat="43.11736" lon="3.08404">
        <ele>-4.3</ele>
        <time>2024-01-01T12:45:02Z</time>
      </trkpt>
      <trkpt lat="43.11744" lon="3.08376">
        <ele>-4.3</ele>
        <time>2024-01-01T12:45:06Z</time>
      </trkpt>
      <trkpt lat="43.11744" lon="3.08292">
        <ele>-4.6</ele>
        <time>2024-01-01T12:45:18Z</time>
      </trkpt>
      <trkpt lat="43.11735" lon="3.08266">
        <ele>-4.6</ele>
        <time>2024-01-01T12:45:22Z</time>
      </trkpt>
      <trkpt lat="43.11716" lon="3.08099">
        <ele>-3.3</ele>
        <time>2024-01-01T12:45:46Z</time>
      </trkpt>
      <trkpt lat="43.1172" lon="3.08048">
        <ele>-3.8</ele>
        <time>2024-01-01T12:45:54Z</time>
      </trkpt>
      <trkpt lat="43.11709" lon="3.08">
        <ele>-3</ele>
        <time>2024-01-01T12:46:02Z</time>
      </trkpt>
      <trkpt lat="43.11692" lon="3.07954">
        <ele>-3.6</ele>
        <time>2024-01-01T12:46:10Z</time>
      </trkpt>
      <trkpt lat="43.11687" lon="3.07929">
        <ele>-4</ele>
        <time>2024-01-01T12:46:14Z</time>
      </trkpt>
      <trkpt lat="43.11676" lon="3.07907">
        <ele>-3.8</ele>
        <time>2024-01-01T12:46:18Z</time>
      </trkpt>
      <trkpt lat="43.1167" lon="3.07883">
        <ele>-3.3</ele>
        <time>2024-01-01T12:46:22Z</time>
      </trkpt>
      <trkpt lat="43.11671" lon="3.07827">
        <ele>-3.6</ele>
        <time>2024-01-01T12:46:30Z</time>
      </trkpt>
      <trkpt lat="43.11653" lon="3.07717">
        <ele>-2.8</ele>
        <time>2024-01-01T12:46:46Z</time>
      </trkpt>
      <trkpt lat="43.11655" lon="3.07662">
        <ele>-3</ele>
        <time>2024-01-01T12:46:54Z</time>
      </trkpt>
      <trkpt lat="43.11651" lon="3.07609">
        <ele>-3.1</ele>
        <time>2024-01-01T12:47:02Z</time>
      </trkpt>
      <trkpt lat="43.11653" lon="3.07596">
        <ele>-3</ele>
        <time>2024-01-01T12:47:04Z</time>
      </trkpt>
      <trkpt lat="43.11678" lon="3.07567">
        <ele>-3.6</ele>
        <time>2024-01-01T12:47:12Z</time>
      </trkpt>
      <trkpt lat="43.11685" lon="3.07544">
        <ele>-3.6</ele>
        <time>2024-01-01T12:47:16Z</time>
      </trkpt>
      <trkpt lat="43.11697" lon="3.07528">
        <ele>-3.6</ele>
        <time>2024-01-01T12:47:20Z</time>
      </trkpt>
      <trkpt lat="43.11778" lon="3.07492">
        <ele>-3.1</ele>
        <time>2024-01-01T12:47:40Z</time>
      </trkpt>
      <trkpt lat="43.11817" lon="3.0745">
        <ele>-2.1</ele>
        <time>2024-01-01T12:47:52Z</time>
      </trkpt>
      <trkpt lat="43.11826" lon="3.07431">
        <ele>-2</ele>
        <time>2024-01-01T12:47:56Z</time>
      </trkpt>
      <trkpt lat="43.11831" lon="3.07409">
        <ele>-1.8</ele>
        <time>2024-01-01T12:48:00Z</time>
      </trkpt>
      <trkpt lat="43.11878" lon="3.0736">
        <ele>-0.6</ele>
        <time>2024-01-01T12:48:16Z</time>
      </trkpt>
      <trkpt lat="43.11899" lon="3.07343">
        <ele>1.1</ele>
        <time>2024-01-01T12:48:24Z</time>
      </trkpt>
      <trkpt lat="43.1196" lon="3.07321">
        <ele>7.3</ele>
        <time>2024-01-01T12:48:48Z</time>
      </trkpt>
      <trkpt lat="43.11979" lon="3.07305">
        <ele>9</ele>
        <time>2024-01-01T12:48:56Z</time>
      </trkpt>
      <trkpt lat="43.11982" lon="3.07292">
        <ele>10.6</ele>
        <time>2024-01-01T12:49:00Z</time>
      </trkpt>
      <trkpt lat="43.11992" lon="3.07289">
        <ele>11.6</ele>
        <time>2024-01-01T12:49:04Z</time>
      </trkpt>
      <trkpt lat="43.12007" lon="3.07265">
        <ele>12.7</ele>
        <time>2024-01-01T12:49:12Z</time>
      </trkpt>
      <trkpt lat="43.12028" lon="3.07213">
        <ele>18.6</ele>
        <time>2024-01-01T12:49:28Z</time>
      </trkpt>
      <trkpt lat="43.12028" lon="3.07199">
        <ele>20.2</ele>
        <time>2024-01-01T12:49:32Z</time>
      </trkpt>
      <trkpt lat="43.12032" lon="3.07194">
        <ele>21</ele>
        <time>2024-01-01T12:49:34Z</time>
      </trkpt>
      <trkpt lat="43.12065" lon="3.07217">
        <ele>23.6</ele>
        <time>2024-01-01T12:49:46Z</time>
      </trkpt>
      <trkpt lat="43.12077" lon="3.07217">
        <ele>24.6</ele>
        <time>2024-01-01T12:49:50Z</time>
      </trkpt>
      <trkpt lat="43.12154" lon="3.07155">
        <ele>29.7</ele>
        <time>2024-01-01T12:50:18Z</time>
      </trkpt>
      <trkpt lat="43.12169" lon="3.0712">
        <ele>31</ele>
        <time>2024-01-01T12:50:26Z</time>
      </trkpt>
      <trkpt lat="43.12177" lon="3.0708">
        <ele>31.7</ele>
        <time>2024-01-01T12:50:34Z</time>
      </trkpt>
      <trkpt lat="43.12185" lon="3.07062">
        <ele>32</ele>
        <time>2024-01-01T12:50:38Z</time>
      </trkpt>
      <trkpt lat="43.12211" lon="3.07037">
        <ele>33.2</ele>
        <time>2024-01-01T12:50:46Z</time>
      </trkpt>
      <trkpt lat="43.12227" lon="3.07036">
        <ele>33.6</ele>
        <time>2024-01-01T12:50:50Z</time>
      </trkpt>
      <trkpt lat="43.12252" lon="3.0702">
        <ele>34.6</ele>
        <time>2024-01-01T12:50:58Z</time>
      </trkpt>
      <trkpt lat="43.12283" lon="3.07008">
        <ele>34.7</ele>
        <time>2024-01-01T12:51:06Z</time>
      </trkpt>
      <trkpt lat="43.12329" lon="3.06948">
        <ele>34.2</ele>
        <time>2024-01-01T12:51:22Z</time>
      </trkpt>
      <trkpt lat="43.12333" lon="3.06937">
        <ele>33.6</ele>
        <time>2024-01-01T12:51:24Z</time>
      </trkpt>
      <trkpt lat="43.12331" lon="3.06926">
        <ele>33</ele>
        <time>2024-01-01T12:51:26Z</time>
      </trkpt>
      <trkpt lat="43.12305" lon="3.06908">
        <ele>34</ele>
        <time>2024-01-01T12:51:34Z</time>
      </trkpt>
      <trkpt lat="43.12291" lon="3.06851">
        <ele>35.7</ele>
        <time>2024-01-01T12:51:46Z</time>
      </trkpt>
      <trkpt lat="43.1228" lon="3.06838">
        <ele>36</ele>
        <time>2024-01-01T12:51:50Z</time>
      </trkpt>
      <trkpt lat="43.12272" lon="3.06818">
        <ele>36.3</ele>
        <time>2024-01-01T12:51:54Z</time>
      </trkpt>
      <trkpt lat="43.12267" lon="3.06791">
        <ele>36.2</ele>
        <time>2024-01-01T12:51:58Z</time>
      </trkpt>
      <trkpt lat="43.12256" lon="3.06766">
        <ele>35.3</ele>
        <time>2024-01-01T12:52:02Z</time>
      </trkpt>
      <trkpt lat="43.12199" lon="3.06688">
        <ele>36.2</ele>
        <time>2024-01-01T12:52:18Z</time>
      </trkpt>
      <trkpt lat="43.1212" lon="3.06692">
        <ele>37.3</ele>
        <time>2024-01-01T12:52:34Z</time>
      </trkpt>
      <trkpt lat="43.12098" lon="3.06689">
        <ele>37.2</ele>
        <time>2024-01-01T12:52:38Z</time>
      </trkpt>
      <trkpt lat="43.12076" lon="3.0668">
        <ele>37.6</ele>
        <time>2024-01-01T12:52:42Z</time>
      </trkpt>
      <trkpt lat="43.12046" lon="3.06658">
        <ele>39.7</ele>
        <time>2024-01-01T12:52:50Z</time>
      </trkpt>
      <trkpt lat="43.1202" lon="3.06645">
        <ele>39.7</ele>
        <time>2024-01-01T12:52:58Z</time>
      </trkpt>
      <trkpt lat="43.11984" lon="3.06619">
        <ele>38.7</ele>
        <time>2024-01-01T12:53:06Z</time>
      </trkpt>
      <trkpt lat="43.11944" lon="3.06606">
        <ele>36.6</ele>
        <time>2024-01-01T12:53:14Z</time>
      </trkpt>
      <trkpt lat="43.11931" lon="3.06592">
        <ele>35.7</ele>
        <time>2024-01-01T12:53:18Z</time>
      </trkpt>
      <trkpt lat="43.11928" lon="3.06567">
        <ele>35.6</ele>
        <time>2024-01-01T12:53:22Z</time>
      </trkpt>
      <trkpt lat="43.11935" lon="3.06531">
        <ele>37.6</ele>
        <time>2024-01-01T12:53:30Z</time>
      </trkpt>
      <trkpt lat="43.11972" lon="3.06453">
        <ele>43</ele>
        <time>2024-01-01T12:53:50Z</time>
      </trkpt>
      <trkpt lat="43.1199" lon="3.06351">
        <ele>44.3</ele>
        <time>2024-01-01T12:54:14Z</time>
      </trkpt>
      <trkpt lat="43.11992" lon="3.06299">
        <ele>42.7</ele>
        <time>2024-01-01T12:54:26Z</time>
      </trkpt>
      <trkpt lat="43.11965" lon="3.0626">
        <ele>43.2</ele>
        <time>2024-01-01T12:54:36Z</time>
      </trkpt>
      <trkpt lat="43.1192" lon="3.06269">
        <ele>47.7</ele>
        <time>2024-01-01T12:54:48Z</time>
      </trkpt>
      <trkpt lat="43.1192" lon="3.06332">
        <ele>51.6</ele>
        <time>2024-01-01T12:55:04Z</time>
      </trkpt>
      <trkpt lat="43.11913" lon="3.06422">
        <ele>53.6</ele>
        <time>2024-01-01T12:55:20Z</time>
      </trkpt>
      <trkpt lat="43.11916" lon="3.0647">
        <ele>53</ele>
        <time>2024-01-01T12:55:28Z</time>
      </trkpt>
      <trkpt lat="43.11908" lon="3.06485">
        <ele>52.2</ele>
        <time>2024-01-01T12:55:32Z</time>
      </trkpt>
      <trkpt lat="43.11902" lon="3.0648">
        <ele>51.7</ele>
        <time>2024-01-01T12:55:36Z</time>
      </trkpt>
      <trkpt lat="43.11892" lon="3.06418">
        <ele>53</ele>
        <time>2024-01-01T12:55:52Z</time>
      </trkpt>
      <trkpt lat="43.11845" lon="3.06246">
        <ele>54.6</ele>
        <time>2024-01-01T12:56:24Z</time>
      </trkpt>
      <trkpt lat="43.11841" lon="3.06219">
        <ele>54.6</ele>
        <time>2024-01-01T12:56:28Z</time>
      </trkpt>
      <trkpt lat="43.11843" lon="3.06189">
        <ele>54.3</ele>
        <time>2024-01-01T12:56:32Z</time>
      </trkpt>
      <trkpt lat="43.11823" lon="3.06107">
        <ele>54</ele>
        <time>2024-01-01T12:56:44Z</time>
      </trkpt>
      <trkpt lat="43.11825" lon="3.06079">
        <ele>53.6</ele>
        <time>2024-01-01T12:56:48Z</time>
      </trkpt>
      <trkpt lat="43.11815" lon="3.06026">
        <ele>52</ele>
        <time>2024-01-01T12:56:56Z</time>
      </trkpt>
      <trkpt lat="43.11811" lon="3.0602">
        <ele>51.3</ele>
        <time>2024-01-01T12:56:58Z</time>
      </trkpt>
      <trkpt lat="43.11769" lon="3.06005">
        <ele>45.7</ele>
        <time>2024-01-01T12:57:08Z</time>
      </trkpt>
      <trkpt lat="43.11733" lon="3.05984">
        <ele>35.6</ele>
        <time>2024-01-01T12:57:18Z</time>
      </trkpt>
      <trkpt lat="43.11696" lon="3.06011">
        <ele>26</ele>
        <time>2024-01-01T12:57:26Z</time>
      </trkpt>
      <trkpt lat="43.11667" lon="3.06021">
        <ele>21</ele>
        <time>2024-01-01T12:57:30Z</time>
      </trkpt>
      <trkpt lat="43.1163" lon="3.0606">
        <ele>12.2</ele>
        <time>2024-01-01T12:57:36Z</time>
      </trkpt>
      <trkpt lat="43.116" lon="3.06073">
        <ele>8.1</ele>
        <time>2024-01-01T12:57:40Z</time>
      </trkpt>
      <trkpt lat="43.11549" lon="3.06105">
        <ele>1.1</ele>
        <time>2024-01-01T12:57:48Z</time>
      </trkpt>
      <trkpt lat="43.11538" lon="3.06104">
        <ele>0.1</ele>
        <time>2024-01-01T12:57:50Z</time>
      </trkpt>
      <trkpt lat="43.11494" lon="3.06052">
        <ele>-2.1</ele>
        <time>2024-01-01T12:58:02Z</time>
      </trkpt>
      <trkpt lat="43.11488" lon="3.06029">
        <ele>-2.8</ele>
        <time>2024-01-01T12:58:06Z</time>
      </trkpt>
      <trkpt lat="43.11496" lon="3.05968">
        <ele>-1.8</ele>
        <time>2024-01-01T12:58:14Z</time>
      </trkpt>
      <trkpt lat="43.11488" lon="3.0595">
        <ele>-2.3</ele>
        <time>2024-01-01T12:58:18Z</time>
      </trkpt>
      <trkpt lat="43.11488" lon="3.05931">
        <ele>-3</ele>
        <time>2024-01-01T12:58:22Z</time>
      </trkpt>
      <trkpt lat="43.11504" lon="3.05878">
        <ele>-2.6</ele>
        <time>2024-01-01T12:58:30Z</time>
      </trkpt>
      <trkpt lat="43.11515" lon="3.05855">
        <ele>-2.3</ele>
        <time>2024-01-01T12:58:34Z</time>
      </trkpt>
      <trkpt lat="43.11544" lon="3.05821">
        <ele>-2.1</ele>
        <time>2024-01-01T12:58:42Z</time>
      </trkpt>
      <trkpt lat="43.11579" lon="3.05793">
        <ele>-3.1</ele>
        <time>2024-01-01T12:58:50Z</time>
      </trkpt>
      <trkpt lat="43.11674" lon="3.05739">
        <ele>-4</ele>
        <time>2024-01-01T12:59:10Z</time>
      </trkpt>
      <trkpt lat="43.11734" lon="3.05659">
        <ele>-3</ele>
        <time>2024-01-01T12:59:26Z</time>
      </trkpt>
      <trkpt lat="43.11844" lon="3.05493">
        <ele>-3</ele>
        <time>2024-01-01T12:59:58Z</time>
      </trkpt>
      <trkpt lat="43.11895" lon="3.05407">
        <ele>-3</ele>
        <time>2024-01-01T13:00:14Z</time>
      </trkpt>
      <trkpt lat="43.1195" lon="3.05324">
        <ele>-3.3</ele>
        <time>2024-01-01T13:00:30Z</time>
      </trkpt>
      <trkpt lat="43.11981" lon="3.05289">
        <ele>-3</ele>
        <time>2024-01-01T13:00:38Z</time>
      </trkpt>
      <trkpt lat="43.12034" lon="3.05172">
        <ele>-2.8</ele>
        <time>2024-01-01T13:00:58Z</time>
      </trkpt>
      <trkpt lat="43.12048" lon="3.05101">
        <ele>-3.6</ele>
        <time>2024-01-01T13:01:08Z</time>
      </trkpt>
      <trkpt lat="43.12071" lon="3.05081">
        <ele>-4</ele>
        <time>2024-01-01T13:01:14Z</time>
      </trkpt>
      <trkpt lat="43.12079" lon="3.05081">
        <ele>-4.1</ele>
        <time>2024-01-01T13:01:16Z</time>
      </trkpt>
      <trkpt lat="43.12095" lon="3.05094">
        <ele>-3.6</ele>
        <time>2024-01-01T13:01:20Z</time>
      </trkpt>
      <trkpt lat="43.12113" lon="3.05098">
        <ele>-2.8</ele>
        <time>2024-01-01T13:01:24Z</time>
      </trkpt>
      <trkpt lat="43.12144" lon="3.05095">
        <ele>-1.8</ele>
        <time>2024-01-01T13:01:32Z</time>
      </trkpt>
      <trkpt lat="43.12174" lon="3.05105">
        <ele>-0.6</ele>
        <time>2024-01-01T13:01:40Z</time>
      </trkpt>
      <trkpt lat="43.12189" lon="3.05116">
        <ele>0.6</ele>
        <time>2024-01-01T13:01:44Z</time>
      </trkpt>
      <trkpt lat="43.122" lon="3.05133">
        <ele>1.6</ele>
        <time>2024-01-01T13:01:48Z</time>
      </trkpt>
      <trkpt lat="43.12212" lon="3.05173">
        <ele>3.8</ele>
        <time>2024-01-01T13:01:56Z</time>
      </trkpt>
      <trkpt lat="43.12233" lon="3.05302">
        <ele>10</ele>
        <time>2024-01-01T13:02:20Z</time>
      </trkpt>
      <trkpt lat="43.12186" lon="3.05325">
        <ele>17.3</ele>
        <time>2024-01-01T13:02:36Z</time>
      </trkpt>
      <trkpt lat="43.12176" lon="3.05334">
        <ele>19.2</ele>
        <time>2024-01-01T13:02:40Z</time>
      </trkpt>
      <trkpt lat="43.12153" lon="3.05342">
        <ele>21.6</ele>
        <time>2024-01-01T13:02:48Z</time>
      </trkpt>
      <trkpt lat="43.12083" lon="3.05349">
        <ele>24</ele>
        <time>2024-01-01T13:03:08Z</time>
      </trkpt>
      <trkpt lat="43.1201" lon="3.05415">
        <ele>22.6</ele>
        <time>2024-01-01T13:03:28Z</time>
      </trkpt>
      <trkpt lat="43.11993" lon="3.05562">
        <ele>25.3</ele>
        <time>2024-01-01T13:03:52Z</time>
      </trkpt>
      <trkpt lat="43.11995" lon="3.05732">
        <ele>29</ele>
        <time>2024-01-01T13:04:20Z</time>
      </trkpt>
      <trkpt lat="43.12008" lon="3.05761">
        <ele>31.7</ele>
        <time>2024-01-01T13:04:28Z</time>
      </trkpt>
      <trkpt lat="43.12003" lon="3.05772">
        <ele>33</ele>
        <time>2024-01-01T13:04:32Z</time>
      </trkpt>
      <trkpt lat="43.11959" lon="3.05798">
        <ele>36</ele>
        <time>2024-01-01T13:04:48Z</time>
      </trkpt>
      <trkpt lat="43.11917" lon="3.05831">
        <ele>41.3</ele>
        <time>2024-01-01T13:05:04Z</time>
      </trkpt>
      <trkpt lat="43.11895" lon="3.05843">
        <ele>43.3</ele>
        <time>2024-01-01T13:05:12Z</time>
      </trkpt>
      <trkpt lat="43.11864" lon="3.05873">
        <ele>44.6</ele>
        <time>2024-01-01T13:05:24Z</time>
      </trkpt>
      <trkpt lat="43.11857" lon="3.0589">
        <ele>45</ele>
        <time>2024-01-01T13:05:28Z</time>
      </trkpt>
      <trkpt lat="43.11857" lon="3.05907">
        <ele>45</ele>
        <time>2024-01-01T13:05:32Z</time>
      </trkpt>
      <trkpt lat="43.11834" lon="3.05958">
        <ele>46.6</ele>
        <time>2024-01-01T13:05:44Z</time>
      </trkpt>
      <trkpt lat="43.11832" lon="3.05989">
        <ele>49.3</ele>
        <time>2024-01-01T13:05:52Z</time>
      </trkpt>
      <trkpt lat="43.11816" lon="3.06009">
        <ele>51.3</ele>
        <time>2024-01-01T13:06:00Z</time>
      </trkpt>
      <trkpt lat="43.11823" lon="3.0608">
        <ele>54.2</ele>
        <time>2024-01-01T13:06:20Z</time>
      </trkpt>
      <trkpt lat="43.11819" lon="3.06098">
        <ele>54.6</ele>
        <time>2024-01-01T13:06:24Z</time>
      </trkpt>
      <trkpt lat="43.11837" lon="3.06182">
        <ele>55.6</ele>
        <time>2024-01-01T13:06:40Z</time>
      </trkpt>
      <trkpt lat="43.11842" lon="3.06192">
        <ele>55.3</ele>
        <time>2024-01-01T13:06:42Z</time>
      </trkpt>
      <trkpt lat="43.11842" lon="3.0623">
        <ele>55.3</ele>
        <time>2024-01-01T13:06:50Z</time>
      </trkpt>
      <trkpt lat="43.11835" lon="3.06247">
        <ele>53.6</ele>
        <time>2024-01-01T13:06:58Z</time>
      </trkpt>
      <trkpt lat="43.11812" lon="3.06189">
        <ele>47</ele>
        <time>2024-01-01T13:07:14Z</time>
      </trkpt>
      <trkpt lat="43.11797" lon="3.06184">
        <ele>41.7</ele>
        <time>2024-01-01T13:07:20Z</time>
      </trkpt>
      <trkpt lat="43.11791" lon="3.06225">
        <ele>37</ele>
        <time>2024-01-01T13:07:28Z</time>
      </trkpt>
      <trkpt lat="43.11772" lon="3.06268">
        <ele>29.7</ele>
        <time>2024-01-01T13:07:36Z</time>
      </trkpt>
      <trkpt lat="43.11763" lon="3.06271">
        <ele>27.7</ele>
        <time>2024-01-01T13:07:38Z</time>
      </trkpt>
      <trkpt lat="43.11755" lon="3.06263">
        <ele>25.7</ele>
        <time>2024-01-01T13:07:40Z</time>
      </trkpt>
      <trkpt lat="43.11749" lon="3.06161">
        <ele>24.2</ele>
        <time>2024-01-01T13:07:56Z</time>
      </trkpt>
      <trkpt lat="43.1173" lon="3.06126">
        <ele>21.6</ele>
        <time>2024-01-01T13:08:04Z</time>
      </trkpt>
      <trkpt lat="43.11724" lon="3.0613">
        <ele>21</ele>
        <time>2024-01-01T13:08:06Z</time>
      </trkpt>
      <trkpt lat="43.11716" lon="3.06158">
        <ele>18.3</ele>
        <time>2024-01-01T13:08:10Z</time>
      </trkpt>
      <trkpt lat="43.11711" lon="3.06163">
        <ele>16.7</ele>
        <time>2024-01-01T13:08:12Z</time>
      </trkpt>
      <trkpt lat="43.1169" lon="3.06159">
        <ele>13</ele>
        <time>2024-01-01T13:08:16Z</time>
      </trkpt>
      <trkpt lat="43.11681" lon="3.06163">
        <ele>11.3</ele>
        <time>2024-01-01T13:08:18Z</time>
      </trkpt>
      <trkpt lat="43.11667" lon="3.06181">
        <ele>9</ele>
        <time>2024-01-01T13:08:22Z</time>
      </trkpt>
      <trkpt lat="43.11655" lon="3.06237">
        <ele>6.1</ele>
        <time>2024-01-01T13:08:30Z</time>
      </trkpt>
      <trkpt lat="43.11642" lon="3.06252">
        <ele>4.1</ele>
        <time>2024-01-01T13:08:34Z</time>
      </trkpt>
      <trkpt lat="43.11643" lon="3.06287">
        <ele>3</ele>
        <time>2024-01-01T13:08:42Z</time>
      </trkpt>
      <trkpt lat="43.11662" lon="3.06368">
        <ele>10</ele>
        <time>2024-01-01T13:08:58Z</time>
      </trkpt>
      <trkpt lat="43.1171" lon="3.06459">
        <ele>15.3</ele>
        <time>2024-01-01T13:09:18Z</time>
      </trkpt>
      <trkpt lat="43.11713" lon="3.06477">
        <ele>17</ele>
        <time>2024-01-01T13:09:22Z</time>
      </trkpt>
      <trkpt lat="43.11682" lon="3.06567">
        <ele>24.3</ele>
        <time>2024-01-01T13:09:46Z</time>
      </trkpt>
      <trkpt lat="43.11651" lon="3.06595">
        <ele>28.7</ele>
        <time>2024-01-01T13:09:58Z</time>
      </trkpt>
      <trkpt lat="43.11588" lon="3.06593">
        <ele>28.2</ele>
        <time>2024-01-01T13:10:14Z</time>
      </trkpt>
      <trkpt lat="43.11575" lon="3.06579">
        <ele>30</ele>
        <time>2024-01-01T13:10:18Z</time>
      </trkpt>
      <trkpt lat="43.11577" lon="3.06551">
        <ele>32.3</ele>
        <time>2024-01-01T13:10:26Z</time>
      </trkpt>
      <trkpt lat="43.11562" lon="3.06517">
        <ele>29.2</ele>
        <time>2024-01-01T13:10:34Z</time>
      </trkpt>
      <trkpt lat="43.11549" lon="3.06504">
        <ele>25.6</ele>
        <time>2024-01-01T13:10:38Z</time>
      </trkpt>
      <trkpt lat="43.11534" lon="3.06504">
        <ele>23.7</ele>
        <time>2024-01-01T13:10:42Z</time>
      </trkpt>
      <trkpt lat="43.11528" lon="3.06499">
        <ele>22.7</ele>
        <time>2024-01-01T13:10:44Z</time>
      </trkpt>
      <trkpt lat="43.11518" lon="3.06475">
        <ele>18.7</ele>
        <time>2024-01-01T13:10:48Z</time>
      </trkpt>
      <trkpt lat="43.11508" lon="3.06466">
        <ele>17</ele>
        <time>2024-01-01T13:10:50Z</time>
      </trkpt>
      <trkpt lat="43.11504" lon="3.06455">
        <ele>15</ele>
        <time>2024-01-01T13:10:52Z</time>
      </trkpt>
      <trkpt lat="43.11503" lon="3.06423">
        <ele>10.1</ele>
        <time>2024-01-01T13:10:56Z</time>
      </trkpt>
      <trkpt lat="43.11483" lon="3.06412">
        <ele>6.6</ele>
        <time>2024-01-01T13:11:00Z</time>
      </trkpt>
      <trkpt lat="43.11477" lon="3.06404">
        <ele>3.8</ele>
        <time>2024-01-01T13:11:04Z</time>
      </trkpt>
      <trkpt lat="43.11454" lon="3.06404">
        <ele>0.3</ele>
        <time>2024-01-01T13:11:12Z</time>
      </trkpt>
      <trkpt lat="43.11448" lon="3.06397">
        <ele>-0.6</ele>
        <time>2024-01-01T13:11:14Z</time>
      </trkpt>
      <trkpt lat="43.11474" lon="3.06338">
        <ele>-1.6</ele>
        <time>2024-01-01T13:11:26Z</time>
      </trkpt>
      <trkpt lat="43.11492" lon="3.06346">
        <ele>-0.6</ele>
        <time>2024-01-01T13:11:32Z</time>
      </trkpt>
      <trkpt lat="43.11503" lon="3.0634">
        <ele>0.1</ele>
        <time>2024-01-01T13:11:36Z</time>
      </trkpt>
      <trkpt lat="43.1151" lon="3.06328">
        <ele>1.1</ele>
        <time>2024-01-01T13:11:40Z</time>
      </trkpt>
      <trkpt lat="43.11518" lon="3.06324">
        <ele>2</ele>
        <time>2024-01-01T13:11:44Z</time>
      </trkpt>
      <trkpt lat="43.11565" lon="3.06329">
        <ele>5</ele>
        <time>2024-01-01T13:12:00Z</time>
      </trkpt>
      <trkpt lat="43.11623" lon="3.06326">
        <ele>7.3</ele>
        <time>2024-01-01T13:12:16Z</time>
      </trkpt>
      <trkpt lat="43.11647" lon="3.06341">
        <ele>8.1</ele>
        <time>2024-01-01T13:12:24Z</time>
      </trkpt>
      <trkpt lat="43.1171" lon="3.06452">
        <ele>15</ele>
        <time>2024-01-01T13:12:56Z</time>
      </trkpt>
      <trkpt lat="43.11715" lon="3.06466">
        <ele>16.2</ele>
        <time>2024-01-01T13:13:00Z</time>
      </trkpt>
      <trkpt lat="43.11662" lon="3.06647">
        <ele>17.6</ele>
        <time>2024-01-01T13:13:44Z</time>
      </trkpt>
      <trkpt lat="43.11664" lon="3.06667">
        <ele>15.7</ele>
        <time>2024-01-01T13:13:48Z</time>
      </trkpt>
      <trkpt lat="43.11651" lon="3.0669">
        <ele>15.2</ele>
        <time>2024-01-01T13:14:00Z</time>
      </trkpt>
      <trkpt lat="43.11641" lon="3.06692">
        <ele>15.6</ele>
        <time>2024-01-01T13:14:04Z</time>
      </trkpt>
      <trkpt lat="43.11638" lon="3.06708">
        <ele>14.2</ele>
        <time>2024-01-01T13:14:08Z</time>
      </trkpt>
      <trkpt lat="43.11603" lon="3.06751">
        <ele>10.8</ele>
        <time>2024-01-01T13:14:20Z</time>
      </trkpt>
      <trkpt lat="43.11595" lon="3.06791">
        <ele>8.1</ele>
        <time>2024-01-01T13:14:26Z</time>
      </trkpt>
      <trkpt lat="43.11548" lon="3.06858">
        <ele>5.6</ele>
        <time>2024-01-01T13:14:36Z</time>
      </trkpt>
      <trkpt lat="43.11539" lon="3.06904">
        <ele>4.6</ele>
        <time>2024-01-01T13:14:42Z</time>
      </trkpt>
      <trkpt lat="43.11528" lon="3.06924">
        <ele>4</ele>
        <time>2024-01-01T13:14:46Z</time>
      </trkpt>
      <trkpt lat="43.1152" lon="3.06949">
        <ele>4.3</ele>
        <time>2024-01-01T13:14:50Z</time>
      </trkpt>
      <trkpt lat="43.11451" lon="3.07049">
        <ele>-0.6</ele>
        <time>2024-01-01T13:15:06Z</time>
      </trkpt>
      <trkpt lat="43.11457" lon="3.07063">
        <ele>-2.3</ele>
        <time>2024-01-01T13:15:10Z</time>
      </trkpt>
      <trkpt lat="43.11519" lon="3.07113">
        <ele>-2.8</ele>
        <time>2024-01-01T13:15:26Z</time>
      </trkpt>
      <trkpt lat="43.11614" lon="3.07161">
        <ele>-2.6</ele>
        <time>2024-01-01T13:15:46Z</time>
      </trkpt>
      <trkpt lat="43.1163" lon="3.07177">
        <ele>-2.6</ele>
        <time>2024-01-01T13:15:50Z</time>
      </trkpt>
      <trkpt lat="43.11664" lon="3.07253">
        <ele>-3</ele>
        <time>2024-01-01T13:16:02Z</time>
      </trkpt>
      <trkpt lat="43.11678" lon="3.07338">
        <ele>-3.3</ele>
        <time>2024-01-01T13:16:14Z</time>
      </trkpt>
      <trkpt lat="43.11669" lon="3.07401">
        <ele>-3.3</ele>
        <time>2024-01-01T13:16:22Z</time>
      </trkpt>
      <trkpt lat="43.11667" lon="3.07479">
        <ele>-3.6</ele>
        <time>2024-01-01T13:16:34Z</time>
      </trkpt>
      <trkpt lat="43.11659" lon="3.07542">
        <ele>-3</ele>
        <time>2024-01-01T13:16:46Z</time>
      </trkpt>
      <trkpt lat="43.11663" lon="3.0755">
        <ele>-2.6</ele>
        <time>2024-01-01T13:16:48Z</time>
      </trkpt>
      <trkpt lat="43.11671" lon="3.0755">
        <ele>-2.3</ele>
        <time>2024-01-01T13:16:50Z</time>
      </trkpt>
      <trkpt lat="43.11708" lon="3.07525">
        <ele>-1.6</ele>
        <time>2024-01-01T13:16:58Z</time>
      </trkpt>
      <trkpt lat="43.11747" lon="3.07509">
        <ele>-1</ele>
        <time>2024-01-01T13:17:06Z</time>
      </trkpt>
      <trkpt lat="43.11783" lon="3.07489">
        <ele>-1.1</ele>
        <time>2024-01-01T13:17:14Z</time>
      </trkpt>
      <trkpt lat="43.11845" lon="3.07424">
        <ele>4.8</ele>
        <time>2024-01-01T13:17:30Z</time>
      </trkpt>
      <trkpt lat="43.1186" lon="3.07418">
        <ele>0.3</ele>
        <time>2024-01-01T13:17:34Z</time>
      </trkpt>
      <trkpt lat="43.11922" lon="3.07423">
        <ele>0.8</ele>
        <time>2024-01-01T13:17:50Z</time>
      </trkpt>
      <trkpt lat="43.11992" lon="3.07409">
        <ele>2.3</ele>
        <time>2024-01-01T13:18:10Z</time>
      </trkpt>
      <trkpt lat="43.12045" lon="3.07434">
        <ele>4.6</ele>
        <time>2024-01-01T13:18:26Z</time>
      </trkpt>
      <trkpt lat="43.12057" lon="3.07436">
        <ele>5.1</ele>
        <time>2024-01-01T13:18:30Z</time>
      </trkpt>
      <trkpt lat="43.12068" lon="3.07401">
        <ele>4.8</ele>
        <time>2024-01-01T13:18:38Z</time>
      </trkpt>
      <trkpt lat="43.12074" lon="3.07394">
        <ele>5</ele>
        <time>2024-01-01T13:18:40Z</time>
      </trkpt>
      <trkpt lat="43.12089" lon="3.07391">
        <ele>5.8</ele>
        <time>2024-01-01T13:18:44Z</time>
      </trkpt>
      <trkpt lat="43.12101" lon="3.07397">
        <ele>6.8</ele>
        <time>2024-01-01T13:18:48Z</time>
      </trkpt>
      <trkpt lat="43.12121" lon="3.0742">
        <ele>8.6</ele>
        <time>2024-01-01T13:18:56Z</time>
      </trkpt>
      <trkpt lat="43.12134" lon="3.07425">
        <ele>9.3</ele>
        <time>2024-01-01T13:19:00Z</time>
      </trkpt>
      <trkpt lat="43.12155" lon="3.07416">
        <ele>10.8</ele>
        <time>2024-01-01T13:19:08Z</time>
      </trkpt>
      <trkpt lat="43.12205" lon="3.07449">
        <ele>12.2</ele>
        <time>2024-01-01T13:24:56Z</time>
      </trkpt>
      <trkpt lat="43.12215" lon="3.07469">
        <ele>12</ele>
        <time>2024-01-01T13:25:00Z</time>
      </trkpt>
      <trkpt lat="43.12254" lon="3.07519">
        <ele>13</ele>
        <time>2024-01-01T13:25:12Z</time>
      </trkpt>
      <trkpt lat="43.12265" lon="3.07523">
        <ele>14.3</ele>
        <time>2024-01-01T13:25:16Z</time>
      </trkpt>
      <trkpt lat="43.12314" lon="3.07502">
        <ele>18</ele>
        <time>2024-01-01T13:25:32Z</time>
      </trkpt>
      <trkpt lat="43.12326" lon="3.07499">
        <ele>22.7</ele>
      </trkpt>
      <trkpt lat="43.1233" lon="3.07519">
        <ele>23.5</ele>
      </trkpt>
      <trkpt lat="43.1235" lon="3.07521">
        <ele>19.3</ele>
        <time>2024-01-01T13:25:44Z</time>
      </trkpt>
      <trkpt lat="43.12402" lon="3.07526">
        <ele>26.2</ele>
        <time>2024-01-01T13:26:00Z</time>
      </trkpt>
      <trkpt lat="43.12432" lon="3.07522">
        <ele>26.4</ele>
        <time>2024-01-01T13:26:08Z</time>
      </trkpt>
      <trkpt lat="43.12445" lon="3.07512">
        <ele>25.9</ele>
        <time>2024-01-01T13:26:12Z</time>
      </trkpt>
      <trkpt lat="43.12454" lon="3.07504">
        <ele>26.4</ele>
        <time>2024-01-01T13:26:16Z</time>
      </trkpt>
      <trkpt lat="43.12462" lon="3.07488">
        <ele>28.2</ele>
        <time>2024-01-01T13:26:20Z</time>
      </trkpt>
      <trkpt lat="43.12466" lon="3.07472">
        <ele>29.9</ele>
        <time>2024-01-01T13:26:24Z</time>
      </trkpt>
      <trkpt lat="43.12472" lon="3.07455">
        <ele>30.4</ele>
        <time>2024-01-01T13:26:28Z</time>
      </trkpt>
      <trkpt lat="43.12487" lon="3.07441">
        <ele>31.6</ele>
        <time>2024-01-01T13:26:32Z</time>
      </trkpt>
      <trkpt lat="43.12543" lon="3.07422">
        <ele>38.4</ele>
        <time>2024-01-01T13:26:48Z</time>
      </trkpt>
      <trkpt lat="43.12602" lon="3.07448">
        <ele>33.3</ele>
        <time>2024-01-01T13:27:04Z</time>
      </trkpt>
      <trkpt lat="43.12668" lon="3.07474">
        <ele>35.7</ele>
        <time>2024-01-01T13:27:20Z</time>
      </trkpt>
      <trkpt lat="43.12716" lon="3.07524">
        <ele>39.6</ele>
        <time>2024-01-01T13:27:36Z</time>
      </trkpt>
      <trkpt lat="43.1281" lon="3.07594">
        <ele>47.3</ele>
        <time>2024-01-01T13:28:08Z</time>
      </trkpt>
      <trkpt lat="43.12817" lon="3.07642">
        <ele>52</ele>
        <time>2024-01-01T13:28:24Z</time>
      </trkpt>
      <trkpt lat="43.12844" lon="3.07664">
        <ele>59.2</ele>
        <time>2024-01-01T13:28:40Z</time>
      </trkpt>
      <trkpt lat="43.12898" lon="3.07697">
        <ele>78.1</ele>
        <time>2024-01-01T13:29:08Z</time>
      </trkpt>
      <trkpt lat="43.12899" lon="3.07759">
        <ele>88.8</ele>
        <time>2024-01-01T13:29:32Z</time>
      </trkpt>
      <trkpt lat="43.12912" lon="3.07808">
        <ele>94.4</ele>
        <time>2024-01-01T13:29:48Z</time>
      </trkpt>
      <trkpt lat="43.12909" lon="3.07878">
        <ele>96.3</ele>
        <time>2024-01-01T13:30:12Z</time>
      </trkpt>
      <trkpt lat="43.1291" lon="3.0793">
        <ele>99</ele>
        <time>2024-01-01T13:30:24Z</time>
      </trkpt>
      <trkpt lat="43.129" lon="3.07933">
        <ele>99</ele>
      </trkpt>
      <trkpt lat="43.12901" lon="3.07949">
        <ele>97.2</ele>
        <time>2024-01-01T13:30:30Z</time>
      </trkpt>
      <trkpt lat="43.12903" lon="3.07971">
        <ele>97</ele>
        <time>2024-01-01T13:30:34Z</time>
      </trkpt>
      <trkpt lat="43.12899" lon="3.07995">
        <ele>98.4</ele>
        <time>2024-01-01T13:30:38Z</time>
      </trkpt>
      <trkpt lat="43.12899" lon="3.08028">
        <ele>97.7</ele>
        <time>2024-01-01T13:30:42Z</time>
      </trkpt>
      <trkpt lat="43.12906" lon="3.08064">
        <ele>96.8</ele>
        <time>2024-01-01T13:30:50Z</time>
      </trkpt>
      <trkpt lat="43.12906" lon="3.08084">
        <ele>94.2</ele>
        <time>2024-01-01T13:30:54Z</time>
      </trkpt>
      <trkpt lat="43.12913" lon="3.08111">
        <ele>93.3</ele>
        <time>2024-01-01T13:31:00Z</time>
      </trkpt>
      <trkpt lat="43.12912" lon="3.08127">
        <ele>92.6</ele>
        <time>2024-01-01T13:31:04Z</time>
      </trkpt>
      <trkpt lat="43.12927" lon="3.08164">
        <ele>91.7</ele>
        <time>2024-01-01T13:31:10Z</time>
      </trkpt>
      <trkpt lat="43.12927" lon="3.08188">
        <ele>90.3</ele>
        <time>2024-01-01T13:31:14Z</time>
      </trkpt>
      <trkpt lat="43.12944" lon="3.08215">
        <ele>88.6</ele>
        <time>2024-01-01T13:31:22Z</time>
      </trkpt>
      <trkpt lat="43.12959" lon="3.08222">
        <ele>88</ele>
        <time>2024-01-01T13:31:26Z</time>
      </trkpt>
      <trkpt lat="43.12996" lon="3.08258">
        <ele>88.6</ele>
        <time>2024-01-01T13:31:38Z</time>
      </trkpt>
      <trkpt lat="43.1302" lon="3.08253">
        <ele>88.3</ele>
        <time>2024-01-01T13:31:44Z</time>
      </trkpt>
      <trkpt lat="43.13051" lon="3.08271">
        <ele>88.2</ele>
        <time>2024-01-01T13:31:52Z</time>
      </trkpt>
      <trkpt lat="43.13051" lon="3.08322">
        <ele>89.3</ele>
        <time>2024-01-01T13:32:02Z</time>
      </trkpt>
      <trkpt lat="43.13015" lon="3.08385">
        <ele>93.3</ele>
        <time>2024-01-01T13:32:18Z</time>
      </trkpt>
      <trkpt lat="43.12994" lon="3.08432">
        <ele>97</ele>
        <time>2024-01-01T13:32:30Z</time>
      </trkpt>
      <trkpt lat="43.12983" lon="3.08438">
        <ele>98.2</ele>
        <time>2024-01-01T13:32:34Z</time>
      </trkpt>
      <trkpt lat="43.12953" lon="3.08468">
        <ele>104.7</ele>
        <time>2024-01-01T13:32:50Z</time>
      </trkpt>
      <trkpt lat="43.12928" lon="3.0852">
        <ele>112.2</ele>
        <time>2024-01-01T13:33:10Z</time>
      </trkpt>
      <trkpt lat="43.12862" lon="3.08525">
        <ele>121</ele>
        <time>2024-01-01T13:33:38Z</time>
      </trkpt>
      <trkpt lat="43.12823" lon="3.0854">
        <ele>123.2</ele>
        <time>2024-01-01T13:33:54Z</time>
      </trkpt>
      <trkpt lat="43.12802" lon="3.0854">
        <ele>123.7</ele>
        <time>2024-01-01T13:34:02Z</time>
      </trkpt>
      <trkpt lat="43.12761" lon="3.08526">
        <ele>124.2</ele>
        <time>2024-01-01T13:34:18Z</time>
      </trkpt>
      <trkpt lat="43.1273" lon="3.0851">
        <ele>122.2</ele>
        <time>2024-01-01T13:38:34Z</time>
      </trkpt>
      <trkpt lat="43.12733" lon="3.08506">
        <ele>122.6</ele>
        <time>2024-01-01T13:38:42Z</time>
      </trkpt>
      <trkpt lat="43.12752" lon="3.08532">
        <ele>122</ele>
        <time>2024-01-01T13:38:58Z</time>
      </trkpt>
      <trkpt lat="43.12756" lon="3.08577">
        <ele>117.4</ele>
        <time>2024-01-01T13:39:06Z</time>
      </trkpt>
      <trkpt lat="43.12781" lon="3.0862">
        <ele>119.7</ele>
        <time>2024-01-01T13:39:18Z</time>
      </trkpt>
      <trkpt lat="43.12796" lon="3.08631">
        <ele>119.6</ele>
        <time>2024-01-01T13:39:22Z</time>
      </trkpt>
      <trkpt lat="43.12828" lon="3.08639">
        <ele>119.6</ele>
        <time>2024-01-01T13:39:30Z</time>
      </trkpt>
      <trkpt lat="43.12845" lon="3.08648">
        <ele>119.6</ele>
        <time>2024-01-01T13:39:34Z</time>
      </trkpt>
      <trkpt lat="43.12878" lon="3.0865">
        <ele>119</ele>
        <time>2024-01-01T13:39:42Z</time>
      </trkpt>
      <trkpt lat="43.12923" lon="3.08664">
        <ele>115.3</ele>
        <time>2024-01-01T13:39:50Z</time>
      </trkpt>
      <trkpt lat="43.12947" lon="3.08677">
        <ele>111</ele>
        <time>2024-01-01T13:39:54Z</time>
      </trkpt>
      <trkpt lat="43.12974" lon="3.08685">
        <ele>106.6</ele>
        <time>2024-01-01T13:39:58Z</time>
      </trkpt>
      <trkpt lat="43.12995" lon="3.08701">
        <ele>101.3</ele>
      </trkpt>
      <trkpt lat="43.13003" lon="3.0872">
        <ele>100</ele>
      </trkpt>
      <trkpt lat="43.13018" lon="3.08718">
        <ele>99.2</ele>
        <time>2024-01-01T13:40:06Z</time>
      </trkpt>
      <trkpt lat="43.13026" lon="3.08714">
        <ele>98</ele>
        <time>2024-01-01T13:40:08Z</time>
      </trkpt>
      <trkpt lat="43.13031" lon="3.08697">
        <ele>98.1</ele>
      </trkpt>
      <trkpt lat="43.13045" lon="3.0868">
        <ele>96.2</ele>
        <time>2024-01-01T13:40:14Z</time>
      </trkpt>
      <trkpt lat="43.13063" lon="3.08666">
        <ele>96.2</ele>
      </trkpt>
      <trkpt lat="43.13071" lon="3.08668">
        <ele>95.1</ele>
        <time>2024-01-01T13:40:18Z</time>
      </trkpt>
      <trkpt lat="43.13091" lon="3.0867">
        <ele>92.2</ele>
        <time>2024-01-01T13:40:22Z</time>
      </trkpt>
      <trkpt lat="43.13112" lon="3.08686">
        <ele>91.1</ele>
      </trkpt>
      <trkpt lat="43.13135" lon="3.08694">
        <ele>85.2</ele>
        <time>2024-01-01T13:40:30Z</time>
      </trkpt>
      <trkpt lat="43.13152" lon="3.08691">
        <ele>81.2</ele>
        <time>2024-01-01T13:40:34Z</time>
      </trkpt>
      <trkpt lat="43.13182" lon="3.08694">
        <ele>80.1</ele>
        <time>2024-01-01T13:40:40Z</time>
      </trkpt>
      <trkpt lat="43.13191" lon="3.08706">
        <ele>80.3</ele>
      </trkpt>
      <trkpt lat="43.13199" lon="3.08713">
        <ele>76.6</ele>
        <time>2024-01-01T13:40:44Z</time>
      </trkpt>
      <trkpt lat="43.13206" lon="3.08724">
        <ele>77.5</ele>
      </trkpt>
      <trkpt lat="43.13205" lon="3.08737">
        <ele>77.9</ele>
        <time>2024-01-01T13:40:52Z</time>
      </trkpt>
      <trkpt lat="43.13206" lon="3.08756">
        <ele>77.9</ele>
        <time>2024-01-01T13:40:54Z</time>
      </trkpt>
      <trkpt lat="43.13211" lon="3.08765">
        <ele>77.3</ele>
        <time>2024-01-01T13:40:56Z</time>
      </trkpt>
      <trkpt lat="43.13208" lon="3.08782">
        <ele>77.3</ele>
        <time>2024-01-01T13:41:00Z</time>
      </trkpt>
      <trkpt lat="43.13217" lon="3.088">
        <ele>75.6</ele>
        <time>2024-01-01T13:41:04Z</time>
      </trkpt>
      <trkpt lat="43.13217" lon="3.08827">
        <ele>75.3</ele>
      </trkpt>
      <trkpt lat="43.13222" lon="3.08853">
        <ele>72.7</ele>
        <time>2024-01-01T13:41:12Z</time>
      </trkpt>
      <trkpt lat="43.13227" lon="3.08878">
        <ele>72.3</ele>
        <time>2024-01-01T13:41:20Z</time>
      </trkpt>
      <trkpt lat="43.13228" lon="3.08893">
        <ele>71.7</ele>
      </trkpt>
      <trkpt lat="43.13237" lon="3.08924">
        <ele>70.2</ele>
      </trkpt>
      <trkpt lat="43.13235" lon="3.08955">
        <ele>69.5</ele>
      </trkpt>
      <trkpt lat="43.13239" lon="3.08966">
        <ele>66.3</ele>
        <time>2024-01-01T13:41:28Z</time>
      </trkpt>
      <trkpt lat="43.13245" lon="3.09002">
        <ele>63.8</ele>
      </trkpt>
      <trkpt lat="43.13252" lon="3.09009">
        <ele>60</ele>
        <time>2024-01-01T13:41:36Z</time>
      </trkpt>
      <trkpt lat="43.13274" lon="3.09058">
        <ele>51.6</ele>
        <time>2024-01-01T13:41:44Z</time>
      </trkpt>
      <trkpt lat="43.13277" lon="3.09141">
        <ele>55.2</ele>
        <time>2024-01-01T13:42:00Z</time>
      </trkpt>
      <trkpt lat="43.13276" lon="3.0916">
        <ele>51.3</ele>
        <time>2024-01-01T13:42:04Z</time>
      </trkpt>
      <trkpt lat="43.13295" lon="3.09229">
        <ele>55</ele>
        <time>2024-01-01T13:42:20Z</time>
      </trkpt>
      <trkpt lat="43.13291" lon="3.09256">
        <ele>56.2</ele>
        <time>2024-01-01T13:42:28Z</time>
      </trkpt>
      <trkpt lat="43.13295" lon="3.09289">
        <ele>57.7</ele>
        <time>2024-01-01T13:42:36Z</time>
      </trkpt>
      <trkpt lat="43.13291" lon="3.09327">
        <ele>59.2</ele>
        <time>2024-01-01T13:42:44Z</time>
      </trkpt>
      <trkpt lat="43.13297" lon="3.09379">
        <ele>69.2</ele>
        <time>2024-01-01T13:42:56Z</time>
      </trkpt>
      <trkpt lat="43.13283" lon="3.0939">
        <ele>69.9</ele>
      </trkpt>
      <trkpt lat="43.13281" lon="3.09395">
        <ele>70.3</ele>
      </trkpt>
      <trkpt lat="43.13283" lon="3.09412">
        <ele>71.3</ele>
        <time>2024-01-01T13:43:04Z</time>
      </trkpt>
      <trkpt lat="43.13281" lon="3.09421">
        <ele>67.6</ele>
        <time>2024-01-01T13:43:12Z</time>
      </trkpt>
      <trkpt lat="43.13277" lon="3.0943">
        <ele>73.2</ele>
      </trkpt>
      <trkpt lat="43.13271" lon="3.09436">
        <ele>72.2</ele>
        <time>2024-01-01T13:43:44Z</time>
      </trkpt>
      <trkpt lat="43.1326" lon="3.0944">
        <ele>78</ele>
        <time>2024-01-01T13:43:56Z</time>
      </trkpt>
      <trkpt lat="43.13233" lon="3.09448">
        <ele>86.3</ele>
        <time>2024-01-01T13:44:04Z</time>
      </trkpt>
      <trkpt lat="43.13207" lon="3.09458">
        <ele>91.3</ele>
        <time>2024-01-01T13:44:20Z</time>
      </trkpt>
      <trkpt lat="43.13179" lon="3.09469">
        <ele>92.1</ele>
        <time>2024-01-01T13:44:36Z</time>
      </trkpt>
      <trkpt lat="43.13163" lon="3.09482">
        <ele>91.5</ele>
        <time>2024-01-01T13:44:40Z</time>
      </trkpt>
      <trkpt lat="43.13127" lon="3.09495">
        <ele>89.7</ele>
        <time>2024-01-01T13:44:56Z</time>
      </trkpt>
      <trkpt lat="43.13121" lon="3.09498">
        <ele>89.4</ele>
      </trkpt>
      <trkpt lat="43.13117" lon="3.095">
        <ele>89.2</ele>
        <time>2024-01-01T13:45:24Z</time>
      </trkpt>
      <trkpt lat="43.13113" lon="3.09502">
        <ele>89</ele>
        <time>2024-01-01T13:45:28Z</time>
      </trkpt>
      <trkpt lat="43.1311" lon="3.09503">
        <ele>88.8</ele>
        <time>2024-01-01T13:46:00Z</time>
      </trkpt>
      <trkpt lat="43.13106" lon="3.09505">
        <ele>88.6</ele>
        <time>2024-01-01T13:46:04Z</time>
      </trkpt>
      <trkpt lat="43.13103" lon="3.09507">
        <ele>88.5</ele>
        <time>2024-01-01T13:46:08Z</time>
      </trkpt>
      <trkpt lat="43.13097" lon="3.09509">
        <ele>88.2</ele>
        <time>2024-01-01T13:46:12Z</time>
      </trkpt>
      <trkpt lat="43.13094" lon="3.0951">
        <ele>88</ele>
        <time>2024-01-01T13:46:16Z</time>
      </trkpt>
      <trkpt lat="43.13091" lon="3.09511">
        <ele>87.9</ele>
      </trkpt>
      <trkpt lat="43.13093" lon="3.09511">
        <ele>87.9</ele>
      </trkpt>
      <trkpt lat="43.1309" lon="3.09512">
        <ele>87.8</ele>
      </trkpt>
      <trkpt lat="43.13088" lon="3.09513">
        <ele>87.7</ele>
      </trkpt>
      <trkpt lat="43.13087" lon="3.09513">
        <ele>87.6</ele>
      </trkpt>
      <trkpt lat="43.13088" lon="3.09513">
        <ele>87.7</ele>
        <time>2024-01-01T13:46:24Z</time>
      </trkpt>
      <trkpt lat="43.13083" lon="3.09515">
        <ele>87.5</ele>
      </trkpt>
      <trkpt lat="43.13081" lon="3.09516">
        <ele>87.4</ele>
        <time>2024-01-01T13:46:40Z</time>
      </trkpt>
      <trkpt lat="43.1308" lon="3.09517">
        <ele>87.4</ele>
      </trkpt>
      <trkpt lat="43.13078" lon="3.09517">
        <ele>87.4</ele>
        <time>2024-01-01T13:46:42Z</time>
      </trkpt>
      <trkpt lat="43.13076" lon="3.09518">
        <ele>87.3</ele>
        <time>2024-01-01T13:46:44Z</time>
      </trkpt>
      <trkpt lat="43.13074" lon="3.09519">
        <ele>87.3</ele>
        <time>2024-01-01T13:47:04Z</time>
      </trkpt>
      <trkpt lat="43.13072" lon="3.09537">
        <ele>86.7</ele>
        <time>2024-01-01T13:47:08Z</time>
      </trkpt>
      <trkpt lat="43.13068" lon="3.0956">
        <ele>82.7</ele>
        <time>2024-01-01T13:47:20Z</time>
      </trkpt>
      <trkpt lat="43.13087" lon="3.09581">
        <ele>82.7</ele>
        <time>2024-01-01T13:47:32Z</time>
      </trkpt>
      <trkpt lat="43.13105" lon="3.09588">
        <ele>83</ele>
        <time>2024-01-01T13:47:48Z</time>
      </trkpt>
      <trkpt lat="43.13119" lon="3.09578">
        <ele>84</ele>
        <time>2024-01-01T13:47:56Z</time>
      </trkpt>
      <trkpt lat="43.13143" lon="3.09601">
        <ele>85.2</ele>
        <time>2024-01-01T13:48:08Z</time>
      </trkpt>
      <trkpt lat="43.1316" lon="3.09601">
        <ele>86</ele>
        <time>2024-01-01T13:48:16Z</time>
      </trkpt>
      <trkpt lat="43.13171" lon="3.09632">
        <ele>86.3</ele>
        <time>2024-01-01T13:48:24Z</time>
      </trkpt>
      <trkpt lat="43.13178" lon="3.09671">
        <ele>86.3</ele>
        <time>2024-01-01T13:48:36Z</time>
      </trkpt>
      <trkpt lat="43.13186" lon="3.09679">
        <ele>86.6</ele>
        <time>2024-01-01T13:48:40Z</time>
      </trkpt>
      <trkpt lat="43.13195" lon="3.09679">
        <ele>86.7</ele>
        <time>2024-01-01T13:48:44Z</time>
      </trkpt>
      <trkpt lat="43.13204" lon="3.09686">
        <ele>87</ele>
        <time>2024-01-01T13:48:48Z</time>
      </trkpt>
      <trkpt lat="43.13206" lon="3.09721">
        <ele>86.6</ele>
        <time>2024-01-01T13:48:56Z</time>
      </trkpt>
      <trkpt lat="43.1319" lon="3.09748">
        <ele>82.7</ele>
        <time>2024-01-01T13:49:28Z</time>
      </trkpt>
      <trkpt lat="43.13196" lon="3.09744">
        <ele>87.5</ele>
      </trkpt>
      <trkpt lat="43.13199" lon="3.09747">
        <ele>87.7</ele>
        <time>2024-01-01T13:50:16Z</time>
      </trkpt>
      <trkpt lat="43.13216" lon="3.09762">
        <ele>88.6</ele>
      </trkpt>
      <trkpt lat="43.13234" lon="3.09787">
        <ele>85.6</ele>
        <time>2024-01-01T13:50:40Z</time>
      </trkpt>
      <trkpt lat="43.13241" lon="3.09801">
        <ele>88.5</ele>
        <time>2024-01-01T13:50:52Z</time>
      </trkpt>
      <trkpt lat="43.13258" lon="3.09795">
        <ele>90.1</ele>
      </trkpt>
      <trkpt lat="43.13276" lon="3.09831">
        <ele>84.3</ele>
        <time>2024-01-01T13:51:00Z</time>
      </trkpt>
      <trkpt lat="43.13292" lon="3.09853">
        <ele>84.8</ele>
      </trkpt>
      <trkpt lat="43.13311" lon="3.09867">
        <ele>83.7</ele>
        <time>2024-01-01T13:51:16Z</time>
      </trkpt>
      <trkpt lat="43.13338" lon="3.09888">
        <ele>82.3</ele>
        <time>2024-01-01T13:53:24Z</time>
      </trkpt>
      <trkpt lat="43.13336" lon="3.09886">
        <ele>84.9</ele>
      </trkpt>
      <trkpt lat="43.13332" lon="3.09884">
        <ele>84.8</ele>
      </trkpt>
      <trkpt lat="43.13337" lon="3.09888">
        <ele>84.8</ele>
        <time>2024-01-01T13:54:28Z</time>
      </trkpt>
      <trkpt lat="43.13339" lon="3.09889">
        <ele>83.3</ele>
        <time>2024-01-01T13:55:00Z</time>
      </trkpt>
      <trkpt lat="43.13351" lon="3.09883">
        <ele>85.6</ele>
        <time>2024-01-01T13:55:28Z</time>
      </trkpt>
      <trkpt lat="43.13348" lon="3.09851">
        <ele>87.7</ele>
        <time>2024-01-01T13:55:40Z</time>
      </trkpt>
      <trkpt lat="43.13356" lon="3.09836">
        <ele>89</ele>
        <time>2024-01-01T13:55:48Z</time>
      </trkpt>
      <trkpt lat="43.13363" lon="3.09837">
        <ele>89.2</ele>
        <time>2024-01-01T13:55:52Z</time>
      </trkpt>
      <trkpt lat="43.13371" lon="3.09831">
        <ele>89.2</ele>
        <time>2024-01-01T13:55:56Z</time>
      </trkpt>
      <trkpt lat="43.13374" lon="3.09822">
        <ele>89.2</ele>
        <time>2024-01-01T13:56:00Z</time>
      </trkpt>
      <trkpt lat="43.13385" lon="3.09811">
        <ele>89.3</ele>
        <time>2024-01-01T13:56:06Z</time>
      </trkpt>
      <trkpt lat="43.1337" lon="3.09789">
        <ele>89.2</ele>
        <time>2024-01-01T13:56:30Z</time>
      </trkpt>
      <trkpt lat="43.13354" lon="3.09778">
        <ele>89.6</ele>
        <time>2024-01-01T13:56:46Z</time>
      </trkpt>
      <trkpt lat="43.13355" lon="3.0976">
        <ele>89</ele>
        <time>2024-01-01T13:56:54Z</time>
      </trkpt>
      <trkpt lat="43.13334" lon="3.09742">
        <ele>89.2</ele>
        <time>2024-01-01T13:57:02Z</time>
      </trkpt>
      <trkpt lat="43.13326" lon="3.09713">
        <ele>89</ele>
        <time>2024-01-01T13:57:10Z</time>
      </trkpt>
      <trkpt lat="43.13318" lon="3.09708">
        <ele>89.2</ele>
        <time>2024-01-01T13:57:14Z</time>
      </trkpt>
      <trkpt lat="43.13314" lon="3.09697">
        <ele>89</ele>
        <time>2024-01-01T13:57:22Z</time>
      </trkpt>
      <trkpt lat="43.13315" lon="3.09691">
        <ele>92.2</ele>
      </trkpt>
      <trkpt lat="43.13316" lon="3.09687">
        <ele>91.9</ele>
        <time>2024-01-01T13:57:38Z</time>
      </trkpt>
      <trkpt lat="43.13318" lon="3.09682">
        <ele>91.4</ele>
        <time>2024-01-01T13:57:46Z</time>
      </trkpt>
      <trkpt lat="43.13317" lon="3.09668">
        <ele>90.8</ele>
      </trkpt>
      <trkpt lat="43.13311" lon="3.09642">
        <ele>87</ele>
        <time>2024-01-01T13:57:58Z</time>
      </trkpt>
      <trkpt lat="43.13303" lon="3.09633">
        <ele>87.2</ele>
        <time>2024-01-01T13:58:02Z</time>
      </trkpt>
      <trkpt lat="43.13291" lon="3.09623">
        <ele>91.5</ele>
      </trkpt>
      <trkpt lat="43.13276" lon="3.09612">
        <ele>92.1</ele>
        <time>2024-01-01T13:58:14Z</time>
      </trkpt>
      <trkpt lat="43.13245" lon="3.09608">
        <ele>89</ele>
        <time>2024-01-01T13:58:22Z</time>
      </trkpt>
      <trkpt lat="43.13237" lon="3.09587">
        <ele>91.6</ele>
      </trkpt>
      <trkpt lat="43.13237" lon="3.09569">
        <ele>91.2</ele>
        <time>2024-01-01T13:58:30Z</time>
      </trkpt>
      <trkpt lat="43.1324" lon="3.09551">
        <ele>90.6</ele>
        <time>2024-01-01T13:58:32Z</time>
      </trkpt>
      <trkpt lat="43.13258" lon="3.09546">
        <ele>86.7</ele>
        <time>2024-01-01T13:58:36Z</time>
      </trkpt>
      <trkpt lat="43.13261" lon="3.0953">
        <ele>87.2</ele>
        <time>2024-01-01T13:58:40Z</time>
      </trkpt>
      <trkpt lat="43.13267" lon="3.0951">
        <ele>81</ele>
        <time>2024-01-01T13:58:44Z</time>
      </trkpt>
      <trkpt lat="43.13277" lon="3.09434">
        <ele>73.4</ele>
      </trkpt>
      <trkpt lat="43.13285" lon="3.09415">
        <ele>71.4</ele>
        <time>2024-01-01T13:59:00Z</time>
      </trkpt>
      <trkpt lat="43.13298" lon="3.09411">
        <ele>66.2</ele>
        <time>2024-01-01T13:59:04Z</time>
      </trkpt>
      <trkpt lat="43.13324" lon="3.09401">
        <ele>67.8</ele>
      </trkpt>
      <trkpt lat="43.13325" lon="3.09404">
        <ele>64</ele>
        <time>2024-01-01T13:59:10Z</time>
      </trkpt>
      <trkpt lat="43.13342" lon="3.09434">
        <ele>62.2</ele>
        <time>2024-01-01T13:59:18Z</time>
      </trkpt>
      <trkpt lat="43.13406" lon="3.09597">
        <ele>55.6</ele>
        <time>2024-01-01T13:59:46Z</time>
      </trkpt>
      <trkpt lat="43.13432" lon="3.09624">
        <ele>51.6</ele>
        <time>2024-01-01T13:59:58Z</time>
      </trkpt>
      <trkpt lat="43.13461" lon="3.09611">
        <ele>49.7</ele>
        <time>2024-01-01T14:00:06Z</time>
      </trkpt>
      <trkpt lat="43.13491" lon="3.09621">
        <ele>51.2</ele>
        <time>2024-01-01T14:00:18Z</time>
      </trkpt>
      <trkpt lat="43.13516" lon="3.09687">
        <ele>48</ele>
        <time>2024-01-01T14:00:32Z</time>
      </trkpt>
      <trkpt lat="43.13521" lon="3.09748">
        <ele>52.7</ele>
        <time>2024-01-01T14:00:44Z</time>
      </trkpt>
      <trkpt lat="43.1352" lon="3.09771">
        <ele>51.4</ele>
        <time>2024-01-01T14:00:46Z</time>
      </trkpt>
      <trkpt lat="43.13533" lon="3.09803">
        <ele>48.5</ele>
        <time>2024-01-01T14:00:50Z</time>
      </trkpt>
      <trkpt lat="43.13547" lon="3.09838">
        <ele>42</ele>
        <time>2024-01-01T14:00:54Z</time>
      </trkpt>
      <trkpt lat="43.13578" lon="3.09897">
        <ele>47.6</ele>
        <time>2024-01-01T14:01:02Z</time>
      </trkpt>
      <trkpt lat="43.13603" lon="3.09946">
        <ele>40.6</ele>
        <time>2024-01-01T14:01:10Z</time>
      </trkpt>
      <trkpt lat="43.13607" lon="3.09974">
        <ele>40.7</ele>
        <time>2024-01-01T14:01:14Z</time>
      </trkpt>
      <trkpt lat="43.13606" lon="3.10006">
        <ele>40.3</ele>
        <time>2024-01-01T14:01:18Z</time>
      </trkpt>
      <trkpt lat="43.13586" lon="3.10077">
        <ele>39.3</ele>
        <time>2024-01-01T14:01:30Z</time>
      </trkpt>
      <trkpt lat="43.13575" lon="3.10118">
        <ele>43.5</ele>
        <time>2024-01-01T14:01:38Z</time>
      </trkpt>
      <trkpt lat="43.13578" lon="3.10165">
        <ele>42.9</ele>
      </trkpt>
      <trkpt lat="43.13564" lon="3.10181">
        <ele>39</ele>
      </trkpt>
      <trkpt lat="43.13566" lon="3.10192">
        <ele>38.6</ele>
        <time>2024-01-01T14:01:50Z</time>
      </trkpt>
      <trkpt lat="43.13568" lon="3.10204">
        <ele>38.4</ele>
        <time>2024-01-01T14:01:54Z</time>
      </trkpt>
      <trkpt lat="43.13569" lon="3.10255">
        <ele>31.2</ele>
        <time>2024-01-01T14:02:04Z</time>
      </trkpt>
      <trkpt lat="43.13553" lon="3.10272">
        <ele>29.7</ele>
        <time>2024-01-01T14:02:08Z</time>
      </trkpt>
      <trkpt lat="43.13532" lon="3.10278">
        <ele>28.7</ele>
        <time>2024-01-01T14:02:12Z</time>
      </trkpt>
      <trkpt lat="43.13508" lon="3.10273">
        <ele>30.3</ele>
        <time>2024-01-01T14:02:18Z</time>
      </trkpt>
      <trkpt lat="43.13479" lon="3.10294">
        <ele>30</ele>
        <time>2024-01-01T14:02:26Z</time>
      </trkpt>
      <trkpt lat="43.1343" lon="3.10292">
        <ele>27.7</ele>
        <time>2024-01-01T14:02:38Z</time>
      </trkpt>
      <trkpt lat="43.13423" lon="3.10285">
        <ele>27.6</ele>
        <time>2024-01-01T14:02:40Z</time>
      </trkpt>
      <trkpt lat="43.13412" lon="3.10284">
        <ele>27.3</ele>
        <time>2024-01-01T14:02:42Z</time>
      </trkpt>
      <trkpt lat="43.13376" lon="3.10309">
        <ele>25.3</ele>
        <time>2024-01-01T14:02:50Z</time>
      </trkpt>
      <trkpt lat="43.1336" lon="3.10309">
        <ele>24.7</ele>
        <time>2024-01-01T14:02:54Z</time>
      </trkpt>
      <trkpt lat="43.13345" lon="3.10316">
        <ele>24.6</ele>
        <time>2024-01-01T14:02:58Z</time>
      </trkpt>
      <trkpt lat="43.13338" lon="3.10313">
        <ele>25.7</ele>
        <time>2024-01-01T14:03:02Z</time>
      </trkpt>
      <trkpt lat="43.13321" lon="3.10319">
        <ele>25.7</ele>
        <time>2024-01-01T14:03:08Z</time>
      </trkpt>
      <trkpt lat="43.13309" lon="3.1031">
        <ele>25.7</ele>
        <time>2024-01-01T14:03:12Z</time>
      </trkpt>
      <trkpt lat="43.13298" lon="3.10317">
        <ele>25</ele>
        <time>2024-01-01T14:03:16Z</time>
      </trkpt>
      <trkpt lat="43.13292" lon="3.10332">
        <ele>23.3</ele>
        <time>2024-01-01T14:03:20Z</time>
      </trkpt>
      <trkpt lat="43.13294" lon="3.10354">
        <ele>22</ele>
        <time>2024-01-01T14:03:52Z</time>
      </trkpt>
      <trkpt lat="43.13299" lon="3.10361">
        <ele>23.7</ele>
        <time>2024-01-01T14:04:24Z</time>
      </trkpt>
      <trkpt lat="43.1331" lon="3.1036">
        <ele>25.6</ele>
        <time>2024-01-01T14:04:40Z</time>
      </trkpt>
      <trkpt lat="43.13331" lon="3.10376">
        <ele>28.7</ele>
        <time>2024-01-01T14:04:52Z</time>
      </trkpt>
      <trkpt lat="43.13349" lon="3.10367">
        <ele>30.6</ele>
        <time>2024-01-01T14:05:00Z</time>
      </trkpt>
      <trkpt lat="43.13362" lon="3.10365">
        <ele>30.7</ele>
        <time>2024-01-01T14:05:04Z</time>
      </trkpt>
      <trkpt lat="43.13376" lon="3.10352">
        <ele>30.7</ele>
        <time>2024-01-01T14:05:08Z</time>
      </trkpt>
      <trkpt lat="43.13417" lon="3.10345">
        <ele>32.3</ele>
        <time>2024-01-01T14:05:20Z</time>
      </trkpt>
      <trkpt lat="43.13422" lon="3.10361">
        <ele>33.6</ele>
        <time>2024-01-01T14:05:28Z</time>
      </trkpt>
      <trkpt lat="43.13432" lon="3.10364">
        <ele>34.3</ele>
        <time>2024-01-01T14:05:32Z</time>
      </trkpt>
      <trkpt lat="43.13445" lon="3.10362">
        <ele>35.2</ele>
        <time>2024-01-01T14:05:36Z</time>
      </trkpt>
      <trkpt lat="43.13456" lon="3.10354">
        <ele>35.3</ele>
        <time>2024-01-01T14:05:40Z</time>
      </trkpt>
      <trkpt lat="43.13466" lon="3.10363">
        <ele>36.2</ele>
        <time>2024-01-01T14:05:44Z</time>
      </trkpt>
      <trkpt lat="43.1348" lon="3.10398">
        <ele>37.7</ele>
        <time>2024-01-01T14:05:52Z</time>
      </trkpt>
      <trkpt lat="43.13512" lon="3.10446">
        <ele>40</ele>
        <time>2024-01-01T14:06:04Z</time>
      </trkpt>
      <trkpt lat="43.13519" lon="3.10485">
        <ele>41.6</ele>
        <time>2024-01-01T14:06:12Z</time>
      </trkpt>
      <trkpt lat="43.13542" lon="3.10509">
        <ele>43.6</ele>
        <time>2024-01-01T14:06:20Z</time>
      </trkpt>
      <trkpt lat="43.13539" lon="3.10555">
        <ele>45.6</ele>
        <time>2024-01-01T14:06:32Z</time>
      </trkpt>
      <trkpt lat="43.13524" lon="3.10572">
        <ele>44.6</ele>
        <time>2024-01-01T14:06:40Z</time>
      </trkpt>
      <trkpt lat="43.13522" lon="3.10579">
        <ele>44.2</ele>
        <time>2024-01-01T14:06:44Z</time>
      </trkpt>
      <trkpt lat="43.13486" lon="3.10597">
        <ele>46</ele>
      </trkpt>
      <trkpt lat="43.13479" lon="3.10603">
        <ele>42.3</ele>
        <time>2024-01-01T14:07:00Z</time>
      </trkpt>
      <trkpt lat="43.13457" lon="3.10611">
        <ele>43.9</ele>
      </trkpt>
      <trkpt lat="43.13448" lon="3.10604">
        <ele>39.7</ele>
        <time>2024-01-01T14:07:08Z</time>
      </trkpt>
      <trkpt lat="43.13438" lon="3.10638">
        <ele>38.6</ele>
        <time>2024-01-01T14:07:16Z</time>
      </trkpt>
      <trkpt lat="43.13442" lon="3.10655">
        <ele>37.3</ele>
        <time>2024-01-01T14:07:22Z</time>
      </trkpt>
      <trkpt lat="43.13431" lon="3.10653">
        <ele>35.7</ele>
        <time>2024-01-01T14:07:26Z</time>
      </trkpt>
      <trkpt lat="43.1344" lon="3.10667">
        <ele>35.2</ele>
        <time>2024-01-01T14:07:30Z</time>
      </trkpt>
      <trkpt lat="43.13474" lon="3.10684">
        <ele>36.6</ele>
        <time>2024-01-01T14:07:38Z</time>
      </trkpt>
      <trkpt lat="43.13485" lon="3.10697">
        <ele>37.6</ele>
        <time>2024-01-01T14:07:42Z</time>
      </trkpt>
      <trkpt lat="43.13487" lon="3.10708">
        <ele>38</ele>
        <time>2024-01-01T14:07:44Z</time>
      </trkpt>
      <trkpt lat="43.13477" lon="3.10757">
        <ele>38.7</ele>
        <time>2024-01-01T14:07:52Z</time>
      </trkpt>
      <trkpt lat="43.13465" lon="3.10775">
        <ele>42.4</ele>
      </trkpt>
      <trkpt lat="43.13465" lon="3.10786">
        <ele>39</ele>
        <time>2024-01-01T14:07:58Z</time>
      </trkpt>
      <trkpt lat="43.13469" lon="3.10802">
        <ele>45</ele>
        <time>2024-01-01T14:08:02Z</time>
      </trkpt>
      <trkpt lat="43.13465" lon="3.10879">
        <ele>43.3</ele>
        <time>2024-01-01T14:08:18Z</time>
      </trkpt>
      <trkpt lat="43.13456" lon="3.10911">
        <ele>48.5</ele>
        <time>2024-01-01T14:08:26Z</time>
      </trkpt>
      <trkpt lat="43.1345" lon="3.10927">
        <ele>44</ele>
        <time>2024-01-01T14:08:28Z</time>
      </trkpt>
      <trkpt lat="43.1345" lon="3.10944">
        <ele>45</ele>
        <time>2024-01-01T14:08:32Z</time>
      </trkpt>
      <trkpt lat="43.13443" lon="3.10955">
        <ele>49.7</ele>
        <time>2024-01-01T14:08:36Z</time>
      </trkpt>
      <trkpt lat="43.13411" lon="3.10974">
        <ele>51.3</ele>
      </trkpt>
      <trkpt lat="43.13388" lon="3.10974">
        <ele>51.3</ele>
        <time>2024-01-01T14:08:52Z</time>
      </trkpt>
      <trkpt lat="43.1335" lon="3.10969">
        <ele>52.5</ele>
        <time>2024-01-01T14:09:04Z</time>
      </trkpt>
      <trkpt lat="43.13331" lon="3.10966">
        <ele>55.8</ele>
        <time>2024-01-01T14:09:08Z</time>
      </trkpt>
      <trkpt lat="43.13321" lon="3.10966">
        <ele>59</ele>
      </trkpt>
      <trkpt lat="43.13321" lon="3.1098">
        <ele>53.7</ele>
        <time>2024-01-01T14:09:12Z</time>
      </trkpt>
      <trkpt lat="43.13298" lon="3.10995">
        <ele>58.7</ele>
        <time>2024-01-01T14:09:24Z</time>
      </trkpt>
      <trkpt lat="43.133" lon="3.11003">
        <ele>58.6</ele>
        <time>2024-01-01T14:09:28Z</time>
      </trkpt>
      <trkpt lat="43.13345" lon="3.11057">
        <ele>62</ele>
        <time>2024-01-01T14:09:48Z</time>
      </trkpt>
      <trkpt lat="43.13352" lon="3.11098">
        <ele>63.2</ele>
        <time>2024-01-01T14:10:00Z</time>
      </trkpt>
      <trkpt lat="43.13364" lon="3.11117">
        <ele>63</ele>
        <time>2024-01-01T14:10:06Z</time>
      </trkpt>
      <trkpt lat="43.13389" lon="3.11109">
        <ele>63.6</ele>
        <time>2024-01-01T14:10:14Z</time>
      </trkpt>
      <trkpt lat="43.13482" lon="3.11115">
        <ele>66.2</ele>
        <time>2024-01-01T14:10:42Z</time>
      </trkpt>
      <trkpt lat="43.13532" lon="3.11069">
        <ele>68</ele>
        <time>2024-01-01T14:10:58Z</time>
      </trkpt>
      <trkpt lat="43.13557" lon="3.11038">
        <ele>68.3</ele>
        <time>2024-01-01T14:11:06Z</time>
      </trkpt>
      <trkpt lat="43.13566" lon="3.11019">
        <ele>69</ele>
        <time>2024-01-01T14:11:10Z</time>
      </trkpt>
      <trkpt lat="43.13564" lon="3.10997">
        <ele>69.3</ele>
        <time>2024-01-01T14:11:14Z</time>
      </trkpt>
      <trkpt lat="43.13547" lon="3.10962">
        <ele>70.2</ele>
        <time>2024-01-01T14:11:22Z</time>
      </trkpt>
      <trkpt lat="43.13542" lon="3.10933">
        <ele>71.9</ele>
      </trkpt>
      <trkpt lat="43.1354" lon="3.10894">
        <ele>72.2</ele>
        <time>2024-01-01T14:11:40Z</time>
      </trkpt>
      <trkpt lat="43.13538" lon="3.10891">
        <ele>71.7</ele>
      </trkpt>
      <trkpt lat="43.13534" lon="3.10898">
        <ele>70.8</ele>
        <time>2024-01-01T14:11:48Z</time>
      </trkpt>
      <trkpt lat="43.13524" lon="3.10909">
        <ele>68.2</ele>
      </trkpt>
      <trkpt lat="43.13495" lon="3.10927">
        <ele>56.7</ele>
        <time>2024-01-01T14:12:06Z</time>
      </trkpt>
      <trkpt lat="43.13488" lon="3.10927">
        <ele>55.1</ele>
      </trkpt>
      <trkpt lat="43.13454" lon="3.10915">
        <ele>43.2</ele>
        <time>2024-01-01T14:12:22Z</time>
      </trkpt>
      <trkpt lat="43.13448" lon="3.10924">
        <ele>44</ele>
        <time>2024-01-01T14:12:38Z</time>
      </trkpt>
      <trkpt lat="43.1344" lon="3.10922">
        <ele>43.7</ele>
        <time>2024-01-01T14:12:50Z</time>
      </trkpt>
      <trkpt lat="43.13435" lon="3.10925">
        <ele>41.7</ele>
        <time>2024-01-01T14:12:58Z</time>
      </trkpt>
      <trkpt lat="43.13426" lon="3.10908">
        <ele>41</ele>
        <time>2024-01-01T14:13:04Z</time>
      </trkpt>
      <trkpt lat="43.13403" lon="3.10902">
        <ele>44</ele>
        <time>2024-01-01T14:13:10Z</time>
      </trkpt>
      <trkpt lat="43.13394" lon="3.10902">
        <ele>43.6</ele>
      </trkpt>
      <trkpt lat="43.13385" lon="3.10904">
        <ele>43.8</ele>
        <time>2024-01-01T14:13:14Z</time>
      </trkpt>
      <trkpt lat="43.13381" lon="3.10906">
        <ele>39.2</ele>
        <time>2024-01-01T14:13:16Z</time>
      </trkpt>
      <trkpt lat="43.13378" lon="3.109">
        <ele>43.6</ele>
      </trkpt>
      <trkpt lat="43.1338" lon="3.10876">
        <ele>41.9</ele>
        <time>2024-01-01T14:13:24Z</time>
      </trkpt>
      <trkpt lat="43.13372" lon="3.10859">
        <ele>37.6</ele>
        <time>2024-01-01T14:13:28Z</time>
      </trkpt>
      <trkpt lat="43.13343" lon="3.10838">
        <ele>37.3</ele>
        <time>2024-01-01T14:13:36Z</time>
      </trkpt>
      <trkpt lat="43.13329" lon="3.10823">
        <ele>36.7</ele>
        <time>2024-01-01T14:13:40Z</time>
      </trkpt>
      <trkpt lat="43.1332" lon="3.10819">
        <ele>36.7</ele>
        <time>2024-01-01T14:13:42Z</time>
      </trkpt>
      <trkpt lat="43.13303" lon="3.10819">
        <ele>37</ele>
        <time>2024-01-01T14:13:46Z</time>
      </trkpt>
      <trkpt lat="43.13286" lon="3.10809">
        <ele>37.2</ele>
        <time>2024-01-01T14:13:50Z</time>
      </trkpt>
      <trkpt lat="43.13266" lon="3.10776">
        <ele>38.8</ele>
        <time>2024-01-01T14:13:56Z</time>
      </trkpt>
      <trkpt lat="43.13255" lon="3.10763">
        <ele>34.3</ele>
        <time>2024-01-01T14:14:00Z</time>
      </trkpt>
      <trkpt lat="43.13244" lon="3.10754">
        <ele>37.7</ele>
        <time>2024-01-01T14:14:02Z</time>
      </trkpt>
      <trkpt lat="43.13255" lon="3.10744">
        <ele>36.6</ele>
      </trkpt>
      <trkpt lat="43.13262" lon="3.10723">
        <ele>35.5</ele>
      </trkpt>
      <trkpt lat="43.13269" lon="3.10731">
        <ele>32.6</ele>
        <time>2024-01-01T14:14:12Z</time>
      </trkpt>
      <trkpt lat="43.13288" lon="3.10755">
        <ele>33.7</ele>
        <time>2024-01-01T14:14:20Z</time>
      </trkpt>
      <trkpt lat="43.13318" lon="3.10777">
        <ele>34.7</ele>
        <time>2024-01-01T14:14:28Z</time>
      </trkpt>
      <trkpt lat="43.13336" lon="3.10784">
        <ele>35</ele>
        <time>2024-01-01T14:14:32Z</time>
      </trkpt>
      <trkpt lat="43.13353" lon="3.10784">
        <ele>34.7</ele>
        <time>2024-01-01T14:14:36Z</time>
      </trkpt>
      <trkpt lat="43.13386" lon="3.10806">
        <ele>35.2</ele>
        <time>2024-01-01T14:14:44Z</time>
      </trkpt>
      <trkpt lat="43.13421" lon="3.10821">
        <ele>36.3</ele>
        <time>2024-01-01T14:14:52Z</time>
      </trkpt>
      <trkpt lat="43.13437" lon="3.10814">
        <ele>41.4</ele>
        <time>2024-01-01T14:14:56Z</time>
      </trkpt>
      <trkpt lat="43.13445" lon="3.10804">
        <ele>41.1</ele>
        <time>2024-01-01T14:15:00Z</time>
      </trkpt>
      <trkpt lat="43.13461" lon="3.10776">
        <ele>42.1</ele>
      </trkpt>
      <trkpt lat="43.13478" lon="3.10754">
        <ele>39</ele>
        <time>2024-01-01T14:15:12Z</time>
      </trkpt>
      <trkpt lat="43.13487" lon="3.10699">
        <ele>39</ele>
        <time>2024-01-01T14:15:22Z</time>
      </trkpt>
      <trkpt lat="43.13474" lon="3.10682">
        <ele>38.6</ele>
        <time>2024-01-01T14:15:26Z</time>
      </trkpt>
      <trkpt lat="43.13436" lon="3.10661">
        <ele>36.2</ele>
        <time>2024-01-01T14:15:34Z</time>
      </trkpt>
      <trkpt lat="43.13432" lon="3.10652">
        <ele>35.3</ele>
        <time>2024-01-01T14:15:38Z</time>
      </trkpt>
      <trkpt lat="43.13435" lon="3.10649">
        <ele>35.6</ele>
        <time>2024-01-01T14:15:40Z</time>
      </trkpt>
      <trkpt lat="43.13443" lon="3.10652">
        <ele>37</ele>
        <time>2024-01-01T14:15:44Z</time>
      </trkpt>
      <trkpt lat="43.13442" lon="3.10625">
        <ele>38.6</ele>
        <time>2024-01-01T14:15:52Z</time>
      </trkpt>
      <trkpt lat="43.13449" lon="3.10608">
        <ele>43.3</ele>
      </trkpt>
      <trkpt lat="43.1345" lon="3.10609">
        <ele>43.4</ele>
      </trkpt>
      <trkpt lat="43.13454" lon="3.10611">
        <ele>43.7</ele>
      </trkpt>
      <trkpt lat="43.13456" lon="3.10613">
        <ele>43.9</ele>
        <time>2024-01-01T14:15:58Z</time>
      </trkpt>
      <trkpt lat="43.13459" lon="3.10616">
        <ele>44</ele>
      </trkpt>
      <trkpt lat="43.13461" lon="3.10629">
        <ele>44.2</ele>
      </trkpt>
      <trkpt lat="43.13465" lon="3.10641">
        <ele>44.3</ele>
      </trkpt>
      <trkpt lat="43.13477" lon="3.10648">
        <ele>44.8</ele>
        <time>2024-01-01T14:16:02Z</time>
      </trkpt>
      <trkpt lat="43.13491" lon="3.10652">
        <ele>46</ele>
      </trkpt>
      <trkpt lat="43.13499" lon="3.10653">
        <ele>46.8</ele>
      </trkpt>
      <trkpt lat="43.13502" lon="3.10656">
        <ele>47.1</ele>
      </trkpt>
      <trkpt lat="43.13505" lon="3.10657">
        <ele>47.2</ele>
      </trkpt>
      <trkpt lat="43.13511" lon="3.10662">
        <ele>47.4</ele>
      </trkpt>
      <trkpt lat="43.13515" lon="3.10664">
        <ele>47.6</ele>
      </trkpt>
      <trkpt lat="43.13522" lon="3.10669">
        <ele>47.8</ele>
      </trkpt>
      <trkpt lat="43.13529" lon="3.10674">
        <ele>48.1</ele>
      </trkpt>
      <trkpt lat="43.13538" lon="3.10675">
        <ele>48.8</ele>
      </trkpt>
      <trkpt lat="43.13543" lon="3.10673">
        <ele>49.2</ele>
      </trkpt>
      <trkpt lat="43.13547" lon="3.10669">
        <ele>49.4</ele>
      </trkpt>
      <trkpt lat="43.13551" lon="3.10665">
        <ele>49.6</ele>
      </trkpt>
      <trkpt lat="43.13555" lon="3.10662">
        <ele>49.8</ele>
      </trkpt>
      <trkpt lat="43.13557" lon="3.10659">
        <ele>49.8</ele>
      </trkpt>
      <trkpt lat="43.13562" lon="3.10654">
        <ele>49.8</ele>
        <time>2024-01-01T14:16:06Z</time>
      </trkpt>
      <trkpt lat="43.13564" lon="3.10652">
        <ele>49.8</ele>
      </trkpt>
      <trkpt lat="43.13565" lon="3.10651">
        <ele>49.8</ele>
      </trkpt>
      <trkpt lat="43.13565" lon="3.10651">
        <ele>49.8</ele>
        <time>2024-01-01T14:16:18Z</time>
      </trkpt>
      <trkpt lat="43.13566" lon="3.1065">
        <ele>49.8</ele>
      </trkpt>
      <trkpt lat="43.13567" lon="3.10649">
        <ele>49.8</ele>
        <time>2024-01-01T14:16:22Z</time>
      </trkpt>
      <trkpt lat="43.13594" lon="3.10688">
        <ele>48.7</ele>
        <time>2024-01-01T14:16:46Z</time>
      </trkpt>
      <trkpt lat="43.13606" lon="3.10696">
        <ele>50.3</ele>
        <time>2024-01-01T14:16:50Z</time>
      </trkpt>
      <trkpt lat="43.13632" lon="3.10677">
        <ele>52</ele>
        <time>2024-01-01T14:16:58Z</time>
      </trkpt>
      <trkpt lat="43.13663" lon="3.10663">
        <ele>53.6</ele>
        <time>2024-01-01T14:17:06Z</time>
      </trkpt>
      <trkpt lat="43.13675" lon="3.10662">
        <ele>55</ele>
        <time>2024-01-01T14:17:10Z</time>
      </trkpt>
      <trkpt lat="43.13712" lon="3.10674">
        <ele>55.6</ele>
        <time>2024-01-01T14:17:22Z</time>
      </trkpt>
      <trkpt lat="43.13719" lon="3.10692">
        <ele>55.6</ele>
        <time>2024-01-01T14:17:26Z</time>
      </trkpt>
      <trkpt lat="43.13718" lon="3.10715">
        <ele>55.7</ele>
        <time>2024-01-01T14:17:30Z</time>
      </trkpt>
      <trkpt lat="43.13701" lon="3.10749">
        <ele>56.6</ele>
        <time>2024-01-01T14:17:38Z</time>
      </trkpt>
      <trkpt lat="43.13691" lon="3.1079">
        <ele>56.2</ele>
        <time>2024-01-01T14:17:50Z</time>
      </trkpt>
      <trkpt lat="43.1369" lon="3.10808">
        <ele>56.2</ele>
        <time>2024-01-01T14:17:56Z</time>
      </trkpt>
      <trkpt lat="43.13667" lon="3.10818">
        <ele>58</ele>
        <time>2024-01-01T14:18:04Z</time>
      </trkpt>
      <trkpt lat="43.13667" lon="3.10827">
        <ele>58.6</ele>
        <time>2024-01-01T14:18:08Z</time>
      </trkpt>
      <trkpt lat="43.13678" lon="3.10844">
        <ele>58.3</ele>
        <time>2024-01-01T14:18:12Z</time>
      </trkpt>
      <trkpt lat="43.13694" lon="3.10857">
        <ele>57.3</ele>
        <time>2024-01-01T14:18:16Z</time>
      </trkpt>
      <trkpt lat="43.13706" lon="3.10875">
        <ele>56</ele>
        <time>2024-01-01T14:18:20Z</time>
      </trkpt>
      <trkpt lat="43.13734" lon="3.10892">
        <ele>52.2</ele>
        <time>2024-01-01T14:18:26Z</time>
      </trkpt>
      <trkpt lat="43.1375" lon="3.10887">
        <ele>50.3</ele>
        <time>2024-01-01T14:18:30Z</time>
      </trkpt>
      <trkpt lat="43.13756" lon="3.10889">
        <ele>49.6</ele>
        <time>2024-01-01T14:18:32Z</time>
      </trkpt>
      <trkpt lat="43.1377" lon="3.10923">
        <ele>46.2</ele>
        <time>2024-01-01T14:18:38Z</time>
      </trkpt>
      <trkpt lat="43.13779" lon="3.10928">
        <ele>45.2</ele>
        <time>2024-01-01T14:18:40Z</time>
      </trkpt>
      <trkpt lat="43.13786" lon="3.10921">
        <ele>44.3</ele>
        <time>2024-01-01T14:18:42Z</time>
      </trkpt>
      <trkpt lat="43.13791" lon="3.10891">
        <ele>44.6</ele>
        <time>2024-01-01T14:18:48Z</time>
      </trkpt>
      <trkpt lat="43.13799" lon="3.1088">
        <ele>44.7</ele>
        <time>2024-01-01T14:18:52Z</time>
      </trkpt>
      <trkpt lat="43.13823" lon="3.10862">
        <ele>44.2</ele>
        <time>2024-01-01T14:19:00Z</time>
      </trkpt>
      <trkpt lat="43.13842" lon="3.10853">
        <ele>45.6</ele>
        <time>2024-01-01T14:19:08Z</time>
      </trkpt>
      <trkpt lat="43.13856" lon="3.10856">
        <ele>46</ele>
        <time>2024-01-01T14:19:12Z</time>
      </trkpt>
      <trkpt lat="43.13863" lon="3.10852">
        <ele>46.3</ele>
        <time>2024-01-01T14:19:14Z</time>
      </trkpt>
      <trkpt lat="43.13867" lon="3.10839">
        <ele>46.7</ele>
        <time>2024-01-01T14:19:18Z</time>
      </trkpt>
      <trkpt lat="43.13842" lon="3.10812">
        <ele>47.7</ele>
        <time>2024-01-01T14:19:26Z</time>
      </trkpt>
      <trkpt lat="43.13825" lon="3.10777">
        <ele>49.2</ele>
        <time>2024-01-01T14:19:34Z</time>
      </trkpt>
      <trkpt lat="43.13814" lon="3.10768">
        <ele>49.7</ele>
        <time>2024-01-01T14:19:38Z</time>
      </trkpt>
      <trkpt lat="43.13787" lon="3.10785">
        <ele>50.7</ele>
        <time>2024-01-01T14:19:48Z</time>
      </trkpt>
      <trkpt lat="43.1378" lon="3.10778">
        <ele>51</ele>
        <time>2024-01-01T14:19:52Z</time>
      </trkpt>
      <trkpt lat="43.13782" lon="3.10759">
        <ele>54.4</ele>
      </trkpt>
      <trkpt lat="43.13792" lon="3.10724">
        <ele>54</ele>
        <time>2024-01-01T14:20:04Z</time>
      </trkpt>
      <trkpt lat="43.13807" lon="3.10697">
        <ele>53</ele>
        <time>2024-01-01T14:20:08Z</time>
      </trkpt>
      <trkpt lat="43.13826" lon="3.10708">
        <ele>52.7</ele>
      </trkpt>
      <trkpt lat="43.1385" lon="3.10731">
        <ele>51.6</ele>
        <time>2024-01-01T14:20:36Z</time>
      </trkpt>
      <trkpt lat="43.13871" lon="3.10744">
        <ele>51.5</ele>
        <time>2024-01-01T14:20:40Z</time>
      </trkpt>
      <trkpt lat="43.13925" lon="3.10803">
        <ele>47.3</ele>
        <time>2024-01-01T14:20:56Z</time>
      </trkpt>
      <trkpt lat="43.13949" lon="3.10849">
        <ele>46</ele>
        <time>2024-01-01T14:21:04Z</time>
      </trkpt>
      <trkpt lat="43.1398" lon="3.10892">
        <ele>44.7</ele>
        <time>2024-01-01T14:21:12Z</time>
      </trkpt>
      <trkpt lat="43.14002" lon="3.10908">
        <ele>43.7</ele>
        <time>2024-01-01T14:21:16Z</time>
      </trkpt>
      <trkpt lat="43.14037" lon="3.1092">
        <ele>42.3</ele>
        <time>2024-01-01T14:21:22Z</time>
      </trkpt>
      <trkpt lat="43.14075" lon="3.10903">
        <ele>41</ele>
        <time>2024-01-01T14:21:30Z</time>
      </trkpt>
      <trkpt lat="43.14085" lon="3.10909">
        <ele>40.3</ele>
        <time>2024-01-01T14:21:32Z</time>
      </trkpt>
      <trkpt lat="43.14086" lon="3.10914">
        <ele>43.4</ele>
        <time>2024-01-01T14:21:36Z</time>
      </trkpt>
      <trkpt lat="43.14086" lon="3.10925">
        <ele>43.8</ele>
      </trkpt>
      <trkpt lat="43.14086" lon="3.10938">
        <ele>40.6</ele>
        <time>2024-01-01T14:22:00Z</time>
      </trkpt>
      <trkpt lat="43.14087" lon="3.10975">
        <ele>42.7</ele>
        <time>2024-01-01T14:22:08Z</time>
      </trkpt>
      <trkpt lat="43.14082" lon="3.11014">
        <ele>44.3</ele>
        <time>2024-01-01T14:22:16Z</time>
      </trkpt>
      <trkpt lat="43.14084" lon="3.11053">
        <ele>45.6</ele>
        <time>2024-01-01T14:22:24Z</time>
      </trkpt>
      <trkpt lat="43.14093" lon="3.11091">
        <ele>47</ele>
        <time>2024-01-01T14:22:32Z</time>
      </trkpt>
      <trkpt lat="43.14169" lon="3.11222">
        <ele>54.6</ele>
        <time>2024-01-01T14:23:04Z</time>
      </trkpt>
      <trkpt lat="43.14189" lon="3.1125">
        <ele>55.7</ele>
        <time>2024-01-01T14:23:12Z</time>
      </trkpt>
      <trkpt lat="43.14201" lon="3.11284">
        <ele>61.2</ele>
        <time>2024-01-01T14:23:24Z</time>
      </trkpt>
      <trkpt lat="43.1421" lon="3.11281">
        <ele>61.6</ele>
      </trkpt>
      <trkpt lat="43.14215" lon="3.11278">
        <ele>61.7</ele>
        <time>2024-01-01T14:23:28Z</time>
      </trkpt>
      <trkpt lat="43.14265" lon="3.11238">
        <ele>62.8</ele>
      </trkpt>
      <trkpt lat="43.14413" lon="3.11096">
        <ele>63.2</ele>
        <time>2024-01-01T14:24:32Z</time>
      </trkpt>
      <trkpt lat="43.14479" lon="3.11017">
        <ele>62.3</ele>
        <time>2024-01-01T14:24:52Z</time>
      </trkpt>
      <trkpt lat="43.14482" lon="3.10998">
        <ele>62.2</ele>
        <time>2024-01-01T14:24:56Z</time>
      </trkpt>
      <trkpt lat="43.1451" lon="3.10959">
        <ele>65.7</ele>
        <time>2024-01-01T14:25:08Z</time>
      </trkpt>
      <trkpt lat="43.14528" lon="3.10935">
        <ele>71.4</ele>
        <time>2024-01-01T14:25:16Z</time>
      </trkpt>
      <trkpt lat="43.14547" lon="3.10914">
        <ele>68.7</ele>
        <time>2024-01-01T14:25:24Z</time>
      </trkpt>
      <trkpt lat="43.14554" lon="3.10897">
        <ele>74.3</ele>
        <time>2024-01-01T14:25:28Z</time>
      </trkpt>
      <trkpt lat="43.14566" lon="3.1089">
        <ele>70.6</ele>
        <time>2024-01-01T14:25:32Z</time>
      </trkpt>
      <trkpt lat="43.146" lon="3.10846">
        <ele>77.9</ele>
      </trkpt>
      <trkpt lat="43.14632" lon="3.10825">
        <ele>73.7</ele>
        <time>2024-01-01T14:25:56Z</time>
      </trkpt>
      <trkpt lat="43.1465" lon="3.10813">
        <ele>74</ele>
        <time>2024-01-01T14:26:04Z</time>
      </trkpt>
      <trkpt lat="43.14656" lon="3.1081">
        <ele>80</ele>
        <time>2024-01-01T14:26:08Z</time>
      </trkpt>
      <trkpt lat="43.14668" lon="3.10795">
        <ele>80.7</ele>
        <time>2024-01-01T14:26:16Z</time>
      </trkpt>
      <trkpt lat="43.14685" lon="3.10772">
        <ele>82.5</ele>
        <time>2024-01-01T14:26:28Z</time>
      </trkpt>
      <trkpt lat="43.14704" lon="3.10746">
        <ele>85.5</ele>
      </trkpt>
      <trkpt lat="43.14708" lon="3.10739">
        <ele>86.2</ele>
      </trkpt>
      <trkpt lat="43.14711" lon="3.10737">
        <ele>83.2</ele>
        <time>2024-01-01T14:28:40Z</time>
      </trkpt>
      <trkpt lat="43.14714" lon="3.10738">
        <ele>87.3</ele>
      </trkpt>
      <trkpt lat="43.14721" lon="3.10743">
        <ele>89</ele>
      </trkpt>
      <trkpt lat="43.14725" lon="3.1075">
        <ele>91</ele>
        <time>2024-01-01T14:28:48Z</time>
      </trkpt>
      <trkpt lat="43.14732" lon="3.10748">
        <ele>90.3</ele>
        <time>2024-01-01T14:29:12Z</time>
      </trkpt>
      <trkpt lat="43.14747" lon="3.10762">
        <ele>96.6</ele>
        <time>2024-01-01T14:29:22Z</time>
      </trkpt>
      <trkpt lat="43.14761" lon="3.1075">
        <ele>100.3</ele>
        <time>2024-01-01T14:29:30Z</time>
      </trkpt>
      <trkpt lat="43.14763" lon="3.10757">
        <ele>102.6</ele>
      </trkpt>
      <trkpt lat="43.14764" lon="3.10763">
        <ele>102.9</ele>
        <time>2024-01-01T14:30:18Z</time>
      </trkpt>
      <trkpt lat="43.14761" lon="3.10772">
        <ele>102.8</ele>
        <time>2024-01-01T14:31:22Z</time>
      </trkpt>
      <trkpt lat="43.14756" lon="3.10783">
        <ele>101</ele>
        <time>2024-01-01T14:31:30Z</time>
      </trkpt>
      <trkpt lat="43.14755" lon="3.1081">
        <ele>100</ele>
        <time>2024-01-01T14:31:34Z</time>
      </trkpt>
      <trkpt lat="43.14754" lon="3.10824">
        <ele>99.3</ele>
      </trkpt>
      <trkpt lat="43.14747" lon="3.10842">
        <ele>97.9</ele>
        <time>2024-01-01T14:31:38Z</time>
      </trkpt>
      <trkpt lat="43.1474" lon="3.10859">
        <ele>97</ele>
        <time>2024-01-01T14:31:40Z</time>
      </trkpt>
      <trkpt lat="43.14689" lon="3.10904">
        <ele>92.6</ele>
        <time>2024-01-01T14:31:48Z</time>
      </trkpt>
      <trkpt lat="43.14677" lon="3.10919">
        <ele>91.2</ele>
        <time>2024-01-01T14:31:50Z</time>
      </trkpt>
      <trkpt lat="43.14666" lon="3.10945">
        <ele>88.7</ele>
        <time>2024-01-01T14:31:54Z</time>
      </trkpt>
      <trkpt lat="43.14646" lon="3.10968">
        <ele>84.2</ele>
        <time>2024-01-01T14:32:02Z</time>
      </trkpt>
      <trkpt lat="43.14643" lon="3.11013">
        <ele>81.2</ele>
        <time>2024-01-01T14:32:10Z</time>
      </trkpt>
      <trkpt lat="43.14651" lon="3.11026">
        <ele>80.7</ele>
        <time>2024-01-01T14:32:14Z</time>
      </trkpt>
      <trkpt lat="43.14689" lon="3.11005">
        <ele>85.1</ele>
        <time>2024-01-01T14:32:30Z</time>
      </trkpt>
      <trkpt lat="43.14712" lon="3.10999">
        <ele>84.4</ele>
        <time>2024-01-01T14:32:38Z</time>
      </trkpt>
      <trkpt lat="43.14738" lon="3.10975">
        <ele>85</ele>
        <time>2024-01-01T14:32:46Z</time>
      </trkpt>
      <trkpt lat="43.14752" lon="3.10977">
        <ele>85.7</ele>
        <time>2024-01-01T14:32:50Z</time>
      </trkpt>
      <trkpt lat="43.14758" lon="3.10976">
        <ele>87.6</ele>
      </trkpt>
      <trkpt lat="43.14787" lon="3.11001">
        <ele>88</ele>
        <time>2024-01-01T14:32:58Z</time>
      </trkpt>
      <trkpt lat="43.14787" lon="3.11018">
        <ele>86.3</ele>
        <time>2024-01-01T14:33:02Z</time>
      </trkpt>
      <trkpt lat="43.1479" lon="3.11038">
        <ele>87.3</ele>
        <time>2024-01-01T14:33:06Z</time>
      </trkpt>
      <trkpt lat="43.14805" lon="3.11046">
        <ele>90.9</ele>
        <time>2024-01-01T14:33:10Z</time>
      </trkpt>
      <trkpt lat="43.14825" lon="3.11063">
        <ele>91.4</ele>
        <time>2024-01-01T14:33:18Z</time>
      </trkpt>
      <trkpt lat="43.14856" lon="3.11062">
        <ele>93.1</ele>
      </trkpt>
      <trkpt lat="43.14873" lon="3.11061">
        <ele>94.6</ele>
      </trkpt>
      <trkpt lat="43.14888" lon="3.1107">
        <ele>93.3</ele>
        <time>2024-01-01T14:33:36Z</time>
      </trkpt>
      <trkpt lat="43.14915" lon="3.11088">
        <ele>96.3</ele>
        <time>2024-01-01T14:33:44Z</time>
      </trkpt>
      <trkpt lat="43.14927" lon="3.11093">
        <ele>97.5</ele>
        <time>2024-01-01T14:33:48Z</time>
      </trkpt>
      <trkpt lat="43.14949" lon="3.1109">
        <ele>98.7</ele>
        <time>2024-01-01T14:33:56Z</time>
      </trkpt>
      <trkpt lat="43.15001" lon="3.11093">
        <ele>104.1</ele>
        <time>2024-01-01T14:34:12Z</time>
      </trkpt>
      <trkpt lat="43.15024" lon="3.11089">
        <ele>107.8</ele>
        <time>2024-01-01T14:34:20Z</time>
      </trkpt>
      <trkpt lat="43.15056" lon="3.11083">
        <ele>111.1</ele>
        <time>2024-01-01T14:34:28Z</time>
      </trkpt>
      <trkpt lat="43.15082" lon="3.11118">
        <ele>113.2</ele>
        <time>2024-01-01T14:34:52Z</time>
      </trkpt>
      <trkpt lat="43.1512" lon="3.11145">
        <ele>115.6</ele>
        <time>2024-01-01T14:35:00Z</time>
      </trkpt>
      <trkpt lat="43.15129" lon="3.11151">
        <ele>116</ele>
        <time>2024-01-01T14:35:08Z</time>
      </trkpt>
      <trkpt lat="43.15177" lon="3.11133">
        <ele>115.3</ele>
        <time>2024-01-01T14:35:24Z</time>
      </trkpt>
      <trkpt lat="43.15201" lon="3.11128">
        <ele>117.4</ele>
        <time>2024-01-01T14:35:32Z</time>
      </trkpt>
      <trkpt lat="43.15257" lon="3.11116">
        <ele>111.6</ele>
        <time>2024-01-01T14:36:00Z</time>
      </trkpt>
      <trkpt lat="43.15303" lon="3.1107">
        <ele>109.7</ele>
        <time>2024-01-01T14:36:12Z</time>
      </trkpt>
      <trkpt lat="43.1531" lon="3.11046">
        <ele>112.7</ele>
        <time>2024-01-01T14:36:16Z</time>
      </trkpt>
      <trkpt lat="43.15329" lon="3.10975">
        <ele>114.9</ele>
      </trkpt>
      <trkpt lat="43.15352" lon="3.10906">
        <ele>118.3</ele>
        <time>2024-01-01T14:36:40Z</time>
      </trkpt>
      <trkpt lat="43.15382" lon="3.10847">
        <ele>124.7</ele>
        <time>2024-01-01T14:36:56Z</time>
      </trkpt>
      <trkpt lat="43.15407" lon="3.10833">
        <ele>128</ele>
        <time>2024-01-01T14:37:04Z</time>
      </trkpt>
      <trkpt lat="43.15424" lon="3.10831">
        <ele>130.6</ele>
        <time>2024-01-01T14:37:12Z</time>
      </trkpt>
      <trkpt lat="43.15446" lon="3.10839">
        <ele>132.9</ele>
      </trkpt>
      <trkpt lat="43.15481" lon="3.1086">
        <ele>138.3</ele>
      </trkpt>
      <trkpt lat="43.15499" lon="3.1087">
        <ele>140.5</ele>
      </trkpt>
      <trkpt lat="43.15515" lon="3.10885">
        <ele>139.6</ele>
        <time>2024-01-01T14:37:44Z</time>
      </trkpt>
      <trkpt lat="43.15534" lon="3.10901">
        <ele>145.4</ele>
        <time>2024-01-01T14:37:52Z</time>
      </trkpt>
      <trkpt lat="43.15557" lon="3.10916">
        <ele>145.7</ele>
        <time>2024-01-01T14:38:00Z</time>
      </trkpt>
      <trkpt lat="43.1557" lon="3.10918">
        <ele>148.1</ele>
      </trkpt>
      <trkpt lat="43.15573" lon="3.10914">
        <ele>149.2</ele>
        <time>2024-01-01T14:38:04Z</time>
      </trkpt>
      <trkpt lat="43.15582" lon="3.10892">
        <ele>154.3</ele>
      </trkpt>
      <trkpt lat="43.1559" lon="3.10867">
        <ele>157.9</ele>
        <time>2024-01-01T14:38:16Z</time>
      </trkpt>
      <trkpt lat="43.15593" lon="3.10878">
        <ele>153.3</ele>
        <time>2024-01-01T14:38:20Z</time>
      </trkpt>
      <trkpt lat="43.15595" lon="3.10897">
        <ele>155.8</ele>
      </trkpt>
      <trkpt lat="43.156" lon="3.10903">
        <ele>152.6</ele>
        <time>2024-01-01T14:38:28Z</time>
      </trkpt>
      <trkpt lat="43.15612" lon="3.10924">
        <ele>156.6</ele>
        <time>2024-01-01T14:38:36Z</time>
      </trkpt>
      <trkpt lat="43.15625" lon="3.10976">
        <ele>160</ele>
        <time>2024-01-01T14:38:52Z</time>
      </trkpt>
      <trkpt lat="43.15628" lon="3.11001">
        <ele>158.7</ele>
        <time>2024-01-01T14:39:00Z</time>
      </trkpt>
      <trkpt lat="43.15623" lon="3.11028">
        <ele>158.7</ele>
        <time>2024-01-01T14:39:08Z</time>
      </trkpt>
      <trkpt lat="43.15629" lon="3.11033">
        <ele>159.7</ele>
        <time>2024-01-01T14:39:12Z</time>
      </trkpt>
      <trkpt lat="43.15616" lon="3.11063">
        <ele>152</ele>
        <time>2024-01-01T14:39:32Z</time>
      </trkpt>
      <trkpt lat="43.15598" lon="3.11061">
        <ele>147.3</ele>
        <time>2024-01-01T14:39:40Z</time>
      </trkpt>
      <trkpt lat="43.15587" lon="3.11066">
        <ele>143.2</ele>
        <time>2024-01-01T14:39:48Z</time>
      </trkpt>
      <trkpt lat="43.15575" lon="3.11063">
        <ele>138.7</ele>
        <time>2024-01-01T14:39:56Z</time>
      </trkpt>
      <trkpt lat="43.1557" lon="3.11057">
        <ele>137</ele>
        <time>2024-01-01T14:40:00Z</time>
      </trkpt>
      <trkpt lat="43.15566" lon="3.1106">
        <ele>134.6</ele>
        <time>2024-01-01T14:40:04Z</time>
      </trkpt>
      <trkpt lat="43.1555" lon="3.11053">
        <ele>130</ele>
        <time>2024-01-01T14:40:12Z</time>
      </trkpt>
      <trkpt lat="43.15543" lon="3.11041">
        <ele>129.8</ele>
      </trkpt>
      <trkpt lat="43.15546" lon="3.11024">
        <ele>131.1</ele>
        <time>2024-01-01T14:40:20Z</time>
      </trkpt>
      <trkpt lat="43.15536" lon="3.11021">
        <ele>127.3</ele>
        <time>2024-01-01T14:40:24Z</time>
      </trkpt>
      <trkpt lat="43.15524" lon="3.11025">
        <ele>123.7</ele>
        <time>2024-01-01T14:40:28Z</time>
      </trkpt>
      <trkpt lat="43.1551" lon="3.11067">
        <ele>119.7</ele>
        <time>2024-01-01T14:40:40Z</time>
      </trkpt>
      <trkpt lat="43.15495" lon="3.11086">
        <ele>115.9</ele>
        <time>2024-01-01T14:40:48Z</time>
      </trkpt>
      <trkpt lat="43.15487" lon="3.11088">
        <ele>115.7</ele>
        <time>2024-01-01T14:40:52Z</time>
      </trkpt>
      <trkpt lat="43.15483" lon="3.11089">
        <ele>115.6</ele>
      </trkpt>
      <trkpt lat="43.15473" lon="3.11106">
        <ele>110.3</ele>
        <time>2024-01-01T14:40:58Z</time>
      </trkpt>
      <trkpt lat="43.15464" lon="3.11099">
        <ele>110</ele>
        <time>2024-01-01T14:41:02Z</time>
      </trkpt>
      <trkpt lat="43.15426" lon="3.11045">
        <ele>109.2</ele>
        <time>2024-01-01T14:41:18Z</time>
      </trkpt>
      <trkpt lat="43.1542" lon="3.11047">
        <ele>108.7</ele>
        <time>2024-01-01T14:41:20Z</time>
      </trkpt>
      <trkpt lat="43.15412" lon="3.11065">
        <ele>107.7</ele>
        <time>2024-01-01T14:41:28Z</time>
      </trkpt>
      <trkpt lat="43.15401" lon="3.11072">
        <ele>106.3</ele>
        <time>2024-01-01T14:41:36Z</time>
      </trkpt>
      <trkpt lat="43.15342" lon="3.11163">
        <ele>103.7</ele>
        <time>2024-01-01T14:42:00Z</time>
      </trkpt>
      <trkpt lat="43.15335" lon="3.11237">
        <ele>111.1</ele>
      </trkpt>
      <trkpt lat="43.15354" lon="3.1128">
        <ele>111.8</ele>
      </trkpt>
      <trkpt lat="43.15358" lon="3.1133">
        <ele>108.4</ele>
      </trkpt>
      <trkpt lat="43.15372" lon="3.11351">
        <ele>107.3</ele>
      </trkpt>
      <trkpt lat="43.15393" lon="3.11356">
        <ele>106.7</ele>
      </trkpt>
      <trkpt lat="43.15414" lon="3.11382">
        <ele>103.8</ele>
      </trkpt>
      <trkpt lat="43.15422" lon="3.11422">
        <ele>102.2</ele>
      </trkpt>
      <trkpt lat="43.15413" lon="3.11471">
        <ele>98.1</ele>
      </trkpt>
      <trkpt lat="43.15412" lon="3.11501">
        <ele>96</ele>
      </trkpt>
      <trkpt lat="43.15416" lon="3.11516">
        <ele>95.4</ele>
      </trkpt>
      <trkpt lat="43.15421" lon="3.11527">
        <ele>95.1</ele>
      </trkpt>
      <trkpt lat="43.15417" lon="3.11557">
        <ele>100</ele>
      </trkpt>
      <trkpt lat="43.15417" lon="3.11577">
        <ele>102.3</ele>
      </trkpt>
      <trkpt lat="43.15422" lon="3.11598">
        <ele>103.4</ele>
      </trkpt>
      <trkpt lat="43.15427" lon="3.11616">
        <ele>104.1</ele>
      </trkpt>
      <trkpt lat="43.15436" lon="3.11629">
        <ele>103.6</ele>
      </trkpt>
      <trkpt lat="43.15439" lon="3.11653">
        <ele>103.7</ele>
      </trkpt>
      <trkpt lat="43.15442" lon="3.11668">
        <ele>103.4</ele>
      </trkpt>
      <trkpt lat="43.15452" lon="3.11697">
        <ele>101.8</ele>
      </trkpt>
      <trkpt lat="43.15453" lon="3.11717">
        <ele>100.9</ele>
      </trkpt>
      <trkpt lat="43.1545" lon="3.1176">
        <ele>100.9</ele>
      </trkpt>
      <trkpt lat="43.15446" lon="3.11803">
        <ele>100.7</ele>
      </trkpt>
      <trkpt lat="43.15436" lon="3.11829">
        <ele>103.5</ele>
      </trkpt>
      <trkpt lat="43.15421" lon="3.11858">
        <ele>106.3</ele>
      </trkpt>
      <trkpt lat="43.15397" lon="3.11897">
        <ele>103.6</ele>
      </trkpt>
      <trkpt lat="43.15384" lon="3.11924">
        <ele>101.9</ele>
      </trkpt>
      <trkpt lat="43.15377" lon="3.11958">
        <ele>97.7</ele>
      </trkpt>
      <trkpt lat="43.15367" lon="3.1198">
        <ele>94.5</ele>
      </trkpt>
      <trkpt lat="43.15348" lon="3.11991">
        <ele>92.3</ele>
      </trkpt>
      <trkpt lat="43.15328" lon="3.12012">
        <ele>89.8</ele>
      </trkpt>
      <trkpt lat="43.15304" lon="3.12039">
        <ele>88.2</ele>
      </trkpt>
      <trkpt lat="43.1529" lon="3.12044">
        <ele>88.5</ele>
      </trkpt>
      <trkpt lat="43.15265" lon="3.12036">
        <ele>89.5</ele>
      </trkpt>
      <trkpt lat="43.15237" lon="3.12032">
        <ele>90.5</ele>
      </trkpt>
      <trkpt lat="43.15215" lon="3.12033">
        <ele>90.8</ele>
      </trkpt>
      <trkpt lat="43.15185" lon="3.12037">
        <ele>90.1</ele>
      </trkpt>
      <trkpt lat="43.15158" lon="3.12041">
        <ele>89.2</ele>
      </trkpt>
      <trkpt lat="43.15145" lon="3.12031">
        <ele>89.1</ele>
      </trkpt>
      <trkpt lat="43.15127" lon="3.12026">
        <ele>87.8</ele>
      </trkpt>
      <trkpt lat="43.15103" lon="3.12032">
        <ele>84.6</ele>
      </trkpt>
      <trkpt lat="43.15074" lon="3.12016">
        <ele>81.1</ele>
      </trkpt>
      <trkpt lat="43.15055" lon="3.12009">
        <ele>78.6</ele>
      </trkpt>
      <trkpt lat="43.15028" lon="3.11991">
        <ele>75.1</ele>
      </trkpt>
      <trkpt lat="43.15016" lon="3.11977">
        <ele>74.1</ele>
      </trkpt>
      <trkpt lat="43.15009" lon="3.11974">
        <ele>73.6</ele>
      </trkpt>
      <trkpt lat="43.15003" lon="3.11973">
        <ele>73.2</ele>
      </trkpt>
      <trkpt lat="43.14999" lon="3.11969">
        <ele>73.2</ele>
      </trkpt>
      <trkpt lat="43.14992" lon="3.11956">
        <ele>73.7</ele>
      </trkpt>
      <trkpt lat="43.14994" lon="3.11943">
        <ele>74</ele>
      </trkpt>
      <trkpt lat="43.14999" lon="3.11929">
        <ele>74.5</ele>
      </trkpt>
      <trkpt lat="43.15" lon="3.11902">
        <ele>75</ele>
      </trkpt>
      <trkpt lat="43.14998" lon="3.11883">
        <ele>75.2</ele>
      </trkpt>
      <trkpt lat="43.14994" lon="3.11859">
        <ele>75.8</ele>
      </trkpt>
      <trkpt lat="43.14998" lon="3.1184">
        <ele>75.9</ele>
      </trkpt>
      <trkpt lat="43.14993" lon="3.11799">
        <ele>74.5</ele>
      </trkpt>
      <trkpt lat="43.14985" lon="3.11791">
        <ele>73.9</ele>
      </trkpt>
      <trkpt lat="43.14979" lon="3.11782">
        <ele>73.5</ele>
      </trkpt>
      <trkpt lat="43.14986" lon="3.11755">
        <ele>76.1</ele>
      </trkpt>
      <trkpt lat="43.14988" lon="3.11742">
        <ele>77.3</ele>
      </trkpt>
      <trkpt lat="43.15" lon="3.11722">
        <ele>80</ele>
      </trkpt>
      <trkpt lat="43.14992" lon="3.11712">
        <ele>81.3</ele>
      </trkpt>
      <trkpt lat="43.14967" lon="3.11723">
        <ele>77.6</ele>
      </trkpt>
      <trkpt lat="43.1494" lon="3.11736">
        <ele>74.6</ele>
      </trkpt>
      <trkpt lat="43.14926" lon="3.11754">
        <ele>71.8</ele>
      </trkpt>
      <trkpt lat="43.14883" lon="3.11763">
        <ele>68</ele>
      </trkpt>
      <trkpt lat="43.14874" lon="3.11756">
        <ele>67.3</ele>
      </trkpt>
      <trkpt lat="43.14869" lon="3.11748">
        <ele>66.9</ele>
      </trkpt>
      <trkpt lat="43.1486" lon="3.11745">
        <ele>66.2</ele>
      </trkpt>
      <trkpt lat="43.14856" lon="3.11743">
        <ele>66.2</ele>
      </trkpt>
      <trkpt lat="43.14852" lon="3.11746">
        <ele>65.9</ele>
      </trkpt>
      <trkpt lat="43.14846" lon="3.11753">
        <ele>65.4</ele>
      </trkpt>
      <trkpt lat="43.1484" lon="3.11756">
        <ele>65.1</ele>
      </trkpt>
      <trkpt lat="43.14829" lon="3.11752">
        <ele>65.2</ele>
      </trkpt>
      <trkpt lat="43.1482" lon="3.11747">
        <ele>66.3</ele>
      </trkpt>
      <trkpt lat="43.14809" lon="3.11743">
        <ele>67.4</ele>
      </trkpt>
      <trkpt lat="43.14794" lon="3.1175">
        <ele>66.2</ele>
      </trkpt>
      <trkpt lat="43.14767" lon="3.1176">
        <ele>64</ele>
      </trkpt>
      <trkpt lat="43.14755" lon="3.11755">
        <ele>63.3</ele>
      </trkpt>
      <trkpt lat="43.14734" lon="3.11746">
        <ele>62</ele>
      </trkpt>
      <trkpt lat="43.14726" lon="3.1173">
        <ele>62</ele>
      </trkpt>
      <trkpt lat="43.14716" lon="3.11722">
        <ele>61.3</ele>
      </trkpt>
      <trkpt lat="43.14693" lon="3.11718">
        <ele>59.8</ele>
      </trkpt>
      <trkpt lat="43.14673" lon="3.11737">
        <ele>59</ele>
      </trkpt>
      <trkpt lat="43.14639" lon="3.11756">
        <ele>56.9</ele>
      </trkpt>
      <trkpt lat="43.14639" lon="3.11748">
        <ele>58.3</ele>
      </trkpt>
      <trkpt lat="43.14635" lon="3.11742">
        <ele>59.1</ele>
      </trkpt>
      <trkpt lat="43.14626" lon="3.11733">
        <ele>60.2</ele>
      </trkpt>
      <trkpt lat="43.14617" lon="3.11716">
        <ele>62.4</ele>
      </trkpt>
      <trkpt lat="43.14615" lon="3.11682">
        <ele>67.3</ele>
      </trkpt>
      <trkpt lat="43.14629" lon="3.11673">
        <ele>69.3</ele>
      </trkpt>
      <trkpt lat="43.14636" lon="3.11663">
        <ele>70.8</ele>
      </trkpt>
      <trkpt lat="43.14626" lon="3.11646">
        <ele>70.4</ele>
        <time>2024-01-01T14:42:02Z</time>
      </trkpt>
      <trkpt lat="43.14613" lon="3.11638">
        <ele>69.2</ele>
      </trkpt>
      <trkpt lat="43.14605" lon="3.11625">
        <ele>68.7</ele>
      </trkpt>
      <trkpt lat="43.14591" lon="3.11609">
        <ele>67.1</ele>
      </trkpt>
      <trkpt lat="43.14575" lon="3.11593">
        <ele>64.9</ele>
      </trkpt>
      <trkpt lat="43.14567" lon="3.11578">
        <ele>64.4</ele>
      </trkpt>
      <trkpt lat="43.14565" lon="3.11563">
        <ele>64.8</ele>
      </trkpt>
      <trkpt lat="43.14565" lon="3.11541">
        <ele>67</ele>
      </trkpt>
      <trkpt lat="43.14564" lon="3.11521">
        <ele>68.6</ele>
      </trkpt>
      <trkpt lat="43.14561" lon="3.11504">
        <ele>67.5</ele>
      </trkpt>
      <trkpt lat="43.14552" lon="3.11478">
        <ele>64.9</ele>
      </trkpt>
      <trkpt lat="43.14542" lon="3.1147">
        <ele>61.7</ele>
      </trkpt>
      <trkpt lat="43.1453" lon="3.11443">
        <ele>60.7</ele>
      </trkpt>
      <trkpt lat="43.14521" lon="3.11418">
        <ele>63.4</ele>
      </trkpt>
      <trkpt lat="43.14521" lon="3.11384">
        <ele>64.1</ele>
      </trkpt>
      <trkpt lat="43.14527" lon="3.11352">
        <ele>63</ele>
      </trkpt>
      <trkpt lat="43.14551" lon="3.11317">
        <ele>64.4</ele>
      </trkpt>
      <trkpt lat="43.14594" lon="3.11263">
        <ele>66.9</ele>
      </trkpt>
      <trkpt lat="43.14625" lon="3.11237">
        <ele>68.7</ele>
      </trkpt>
      <trkpt lat="43.14643" lon="3.11203">
        <ele>70.1</ele>
      </trkpt>
      <trkpt lat="43.14698" lon="3.11175">
        <ele>75.4</ele>
      </trkpt>
      <trkpt lat="43.14749" lon="3.11155">
        <ele>79.4</ele>
      </trkpt>
      <trkpt lat="43.14769" lon="3.11121">
        <ele>82</ele>
      </trkpt>
      <trkpt lat="43.14795" lon="3.11116">
        <ele>84.2</ele>
      </trkpt>
      <trkpt lat="43.14823" lon="3.11087">
        <ele>88</ele>
      </trkpt>
      <trkpt lat="43.14851" lon="3.11078">
        <ele>90.9</ele>
      </trkpt>
      <trkpt lat="43.14869" lon="3.11085">
        <ele>91.6</ele>
      </trkpt>
      <trkpt lat="43.14907" lon="3.11087">
        <ele>95.3</ele>
      </trkpt>
      <trkpt lat="43.1492" lon="3.11092">
        <ele>97.1</ele>
      </trkpt>
      <trkpt lat="43.14931" lon="3.11096">
        <ele>98</ele>
      </trkpt>
      <trkpt lat="43.14953" lon="3.11092">
        <ele>99.1</ele>
      </trkpt>
      <trkpt lat="43.14951" lon="3.11093">
        <ele>98.9</ele>
      </trkpt>
      <trkpt lat="43.14956" lon="3.11093">
        <ele>99.4</ele>
      </trkpt>
      <trkpt lat="43.14957" lon="3.11094">
        <ele>99.5</ele>
      </trkpt>
      <trkpt lat="43.14969" lon="3.11096">
        <ele>100.7</ele>
      </trkpt>
      <trkpt lat="43.14982" lon="3.11097">
        <ele>101.8</ele>
      </trkpt>
      <trkpt lat="43.14996" lon="3.11103">
        <ele>102.6</ele>
      </trkpt>
      <trkpt lat="43.15005" lon="3.11106">
        <ele>103.3</ele>
      </trkpt>
      <trkpt lat="43.15016" lon="3.11124">
        <ele>104.4</ele>
      </trkpt>
      <trkpt lat="43.15033" lon="3.11123">
        <ele>106.1</ele>
      </trkpt>
      <trkpt lat="43.15038" lon="3.11129">
        <ele>106.2</ele>
      </trkpt>
      <trkpt lat="43.15048" lon="3.11133">
        <ele>106.8</ele>
      </trkpt>
      <trkpt lat="43.15056" lon="3.11136">
        <ele>107.4</ele>
      </trkpt>
      <trkpt lat="43.15058" lon="3.11139">
        <ele>107.5</ele>
      </trkpt>
      <trkpt lat="43.15058" lon="3.11148">
        <ele>108.6</ele>
      </trkpt>
      <trkpt lat="43.15069" lon="3.1116">
        <ele>111.4</ele>
      </trkpt>
      <trkpt lat="43.15083" lon="3.11173">
        <ele>113.6</ele>
      </trkpt>
      <trkpt lat="43.15113" lon="3.11192">
        <ele>115.9</ele>
      </trkpt>
      <trkpt lat="43.15133" lon="3.11158">
        <ele>116</ele>
      </trkpt>
      <trkpt lat="43.15168" lon="3.11143">
        <ele>115.9</ele>
      </trkpt>
      <trkpt lat="43.15189" lon="3.11136">
        <ele>116.6</ele>
      </trkpt>
      <trkpt lat="43.15218" lon="3.11131">
        <ele>115.5</ele>
      </trkpt>
      <trkpt lat="43.1525" lon="3.11124">
        <ele>113.1</ele>
      </trkpt>
      <trkpt lat="43.15263" lon="3.11115">
        <ele>112.6</ele>
      </trkpt>
      <trkpt lat="43.15301" lon="3.1108">
        <ele>110.1</ele>
        <time>2024-01-01T14:42:22Z</time>
      </trkpt>
      <trkpt lat="43.15316" lon="3.11047">
        <ele>107.3</ele>
        <time>2024-01-01T14:42:30Z</time>
      </trkpt>
      <trkpt lat="43.15334" lon="3.10972">
        <ele>110</ele>
        <time>2024-01-01T14:42:46Z</time>
      </trkpt>
      <trkpt lat="43.15358" lon="3.10904">
        <ele>114</ele>
        <time>2024-01-01T14:43:02Z</time>
      </trkpt>
      <trkpt lat="43.15387" lon="3.10853">
        <ele>124.5</ele>
        <time>2024-01-01T14:43:18Z</time>
      </trkpt>
      <trkpt lat="43.15406" lon="3.10838">
        <ele>123</ele>
        <time>2024-01-01T14:43:26Z</time>
      </trkpt>
      <trkpt lat="43.15418" lon="3.10835">
        <ele>124.7</ele>
        <time>2024-01-01T14:43:30Z</time>
      </trkpt>
      <trkpt lat="43.15439" lon="3.10841">
        <ele>128.2</ele>
        <time>2024-01-01T14:43:38Z</time>
      </trkpt>
      <trkpt lat="43.15505" lon="3.10879">
        <ele>140.9</ele>
        <time>2024-01-01T14:44:02Z</time>
      </trkpt>
      <trkpt lat="43.15526" lon="3.109">
        <ele>140.2</ele>
        <time>2024-01-01T14:44:10Z</time>
      </trkpt>
      <trkpt lat="43.15558" lon="3.10919">
        <ele>147.5</ele>
        <time>2024-01-01T14:44:22Z</time>
      </trkpt>
      <trkpt lat="43.15572" lon="3.1092">
        <ele>147.6</ele>
        <time>2024-01-01T14:44:26Z</time>
      </trkpt>
      <trkpt lat="43.15577" lon="3.10914">
        <ele>149.3</ele>
      </trkpt>
      <trkpt lat="43.15593" lon="3.10872">
        <ele>152.2</ele>
        <time>2024-01-01T14:44:38Z</time>
      </trkpt>
      <trkpt lat="43.15597" lon="3.10841">
        <ele>153.7</ele>
        <time>2024-01-01T14:44:46Z</time>
      </trkpt>
      <trkpt lat="43.15591" lon="3.10779">
        <ele>158.7</ele>
        <time>2024-01-01T14:45:02Z</time>
      </trkpt>
      <trkpt lat="43.15562" lon="3.10658">
        <ele>166</ele>
        <time>2024-01-01T14:45:34Z</time>
      </trkpt>
      <trkpt lat="43.15559" lon="3.10638">
        <ele>171</ele>
      </trkpt>
      <trkpt lat="43.15567" lon="3.10598">
        <ele>169.9</ele>
        <time>2024-01-01T14:45:50Z</time>
      </trkpt>
      <trkpt lat="43.1556" lon="3.10593">
        <ele>170.1</ele>
      </trkpt>
      <trkpt lat="43.15549" lon="3.10596">
        <ele>171.6</ele>
      </trkpt>
      <trkpt lat="43.15539" lon="3.10599">
        <ele>173.7</ele>
      </trkpt>
      <trkpt lat="43.15533" lon="3.1061">
        <ele>175.8</ele>
      </trkpt>
      <trkpt lat="43.15527" lon="3.10629">
        <ele>178.2</ele>
      </trkpt>
      <trkpt lat="43.15525" lon="3.10649">
        <ele>179.9</ele>
      </trkpt>
      <trkpt lat="43.15521" lon="3.10662">
        <ele>182</ele>
      </trkpt>
      <trkpt lat="43.15515" lon="3.10683">
        <ele>184.1</ele>
      </trkpt>
      <trkpt lat="43.1551" lon="3.10696">
        <ele>185.1</ele>
      </trkpt>
      <trkpt lat="43.15505" lon="3.10707">
        <ele>183.1</ele>
      </trkpt>
      <trkpt lat="43.15494" lon="3.10707">
        <ele>180.4</ele>
      </trkpt>
      <trkpt lat="43.15482" lon="3.10679">
        <ele>186.9</ele>
      </trkpt>
      <trkpt lat="43.15473" lon="3.10659">
        <ele>195.9</ele>
      </trkpt>
      <trkpt lat="43.15469" lon="3.10637">
        <ele>197.4</ele>
      </trkpt>
      <trkpt lat="43.1546" lon="3.10613">
        <ele>199</ele>
      </trkpt>
      <trkpt lat="43.15446" lon="3.10587">
        <ele>199.9</ele>
      </trkpt>
      <trkpt lat="43.15436" lon="3.10567">
        <ele>199.6</ele>
      </trkpt>
      <trkpt lat="43.15429" lon="3.10561">
        <ele>200.2</ele>
        <time>2024-01-01T14:45:54Z</time>
      </trkpt>
      <trkpt lat="43.15417" lon="3.1056">
        <ele>201.2</ele>
        <time>2024-01-01T14:46:06Z</time>
      </trkpt>
      <trkpt lat="43.15399" lon="3.10562">
        <ele>200.3</ele>
        <time>2024-01-01T14:46:10Z</time>
      </trkpt>
      <trkpt lat="43.15385" lon="3.10562">
        <ele>200.1</ele>
        <time>2024-01-01T14:46:38Z</time>
      </trkpt>
      <trkpt lat="43.15377" lon="3.10562">
        <ele>200</ele>
        <time>2024-01-01T14:46:54Z</time>
      </trkpt>
      <trkpt lat="43.15364" lon="3.10553">
        <ele>200.2</ele>
        <time>2024-01-01T14:47:10Z</time>
      </trkpt>
      <trkpt lat="43.15354" lon="3.10547">
        <ele>199.7</ele>
      </trkpt>
      <trkpt lat="43.15339" lon="3.10545">
        <ele>199.2</ele>
        <time>2024-01-01T14:47:42Z</time>
      </trkpt>
      <trkpt lat="43.15328" lon="3.10543">
        <ele>198.9</ele>
        <time>2024-01-01T14:48:14Z</time>
      </trkpt>
      <trkpt lat="43.15313" lon="3.1054">
        <ele>198.6</ele>
        <time>2024-01-01T14:48:30Z</time>
      </trkpt>
      <trkpt lat="43.15299" lon="3.10539">
        <ele>198.3</ele>
        <time>2024-01-01T14:48:34Z</time>
      </trkpt>
      <trkpt lat="43.15268" lon="3.10556">
        <ele>197.9</ele>
        <time>2024-01-01T14:48:42Z</time>
      </trkpt>
      <trkpt lat="43.15246" lon="3.10573">
        <ele>194.6</ele>
        <time>2024-01-01T14:48:50Z</time>
      </trkpt>
      <trkpt lat="43.15226" lon="3.10579">
        <ele>195.8</ele>
        <time>2024-01-01T14:48:58Z</time>
      </trkpt>
      <trkpt lat="43.15209" lon="3.10574">
        <ele>196.8</ele>
        <time>2024-01-01T14:49:02Z</time>
      </trkpt>
      <trkpt lat="43.15189" lon="3.10568">
        <ele>196.8</ele>
        <time>2024-01-01T14:49:08Z</time>
      </trkpt>
      <trkpt lat="43.1517" lon="3.10575">
        <ele>196.1</ele>
        <time>2024-01-01T14:49:10Z</time>
      </trkpt>
      <trkpt lat="43.15149" lon="3.106">
        <ele>193.6</ele>
      </trkpt>
      <trkpt lat="43.15134" lon="3.10627">
        <ele>194.8</ele>
      </trkpt>
      <trkpt lat="43.15123" lon="3.10645">
        <ele>194</ele>
      </trkpt>
      <trkpt lat="43.15118" lon="3.10666">
        <ele>193.2</ele>
      </trkpt>
      <trkpt lat="43.15119" lon="3.10689">
        <ele>192.9</ele>
      </trkpt>
      <trkpt lat="43.15132" lon="3.10741">
        <ele>194.2</ele>
      </trkpt>
      <trkpt lat="43.15144" lon="3.10766">
        <ele>192</ele>
      </trkpt>
      <trkpt lat="43.15154" lon="3.10796">
        <ele>190.7</ele>
      </trkpt>
      <trkpt lat="43.15159" lon="3.10827">
        <ele>189.7</ele>
      </trkpt>
      <trkpt lat="43.15154" lon="3.10847">
        <ele>190.3</ele>
      </trkpt>
      <trkpt lat="43.15146" lon="3.10862">
        <ele>191.3</ele>
        <time>2024-01-01T14:49:26Z</time>
      </trkpt>
      <trkpt lat="43.15134" lon="3.10855">
        <ele>190.2</ele>
      </trkpt>
      <trkpt lat="43.15123" lon="3.10835">
        <ele>191.1</ele>
        <time>2024-01-01T14:49:34Z</time>
      </trkpt>
      <trkpt lat="43.15098" lon="3.10786">
        <ele>191.6</ele>
        <time>2024-01-01T14:50:38Z</time>
      </trkpt>
      <trkpt lat="43.1507" lon="3.10762">
        <ele>188.8</ele>
        <time>2024-01-01T14:51:18Z</time>
      </trkpt>
      <trkpt lat="43.15061" lon="3.10753">
        <ele>188.9</ele>
      </trkpt>
      <trkpt lat="43.15024" lon="3.10751">
        <ele>186.6</ele>
        <time>2024-01-01T14:51:22Z</time>
      </trkpt>
      <trkpt lat="43.15007" lon="3.10752">
        <ele>186.1</ele>
      </trkpt>
      <trkpt lat="43.14968" lon="3.10761">
        <ele>180.7</ele>
      </trkpt>
      <trkpt lat="43.14931" lon="3.10766">
        <ele>174.5</ele>
        <time>2024-01-01T14:51:30Z</time>
      </trkpt>
      <trkpt lat="43.14946" lon="3.10759">
        <ele>177.3</ele>
      </trkpt>
      <trkpt lat="43.14984" lon="3.10753">
        <ele>184.7</ele>
      </trkpt>
      <trkpt lat="43.15012" lon="3.10746">
        <ele>186.9</ele>
      </trkpt>
      <trkpt lat="43.15059" lon="3.10726">
        <ele>190.1</ele>
      </trkpt>
      <trkpt lat="43.15076" lon="3.10655">
        <ele>191.3</ele>
      </trkpt>
      <trkpt lat="43.15073" lon="3.10628">
        <ele>191.3</ele>
        <time>2024-01-01T14:51:48Z</time>
      </trkpt>
      <trkpt lat="43.1505" lon="3.10565">
        <ele>190.1</ele>
      </trkpt>
      <trkpt lat="43.15" lon="3.10497">
        <ele>188</ele>
        <time>2024-01-01T14:51:50Z</time>
      </trkpt>
      <trkpt lat="43.14949" lon="3.10441">
        <ele>185.3</ele>
        <time>2024-01-01T14:51:54Z</time>
      </trkpt>
      <trkpt lat="43.14931" lon="3.10412">
        <ele>184.2</ele>
      </trkpt>
      <trkpt lat="43.1493" lon="3.10378">
        <ele>184.6</ele>
      </trkpt>
      <trkpt lat="43.1494" lon="3.10356">
        <ele>184.5</ele>
      </trkpt>
      <trkpt lat="43.14963" lon="3.10356">
        <ele>185.3</ele>
      </trkpt>
      <trkpt lat="43.15032" lon="3.10398">
        <ele>188.8</ele>
      </trkpt>
      <trkpt lat="43.15057" lon="3.10399">
        <ele>189.4</ele>
      </trkpt>
      <trkpt lat="43.15081" lon="3.10387">
        <ele>189.7</ele>
      </trkpt>
      <trkpt lat="43.1513" lon="3.10366">
        <ele>190</ele>
      </trkpt>
      <trkpt lat="43.15172" lon="3.10363">
        <ele>191.1</ele>
        <time>2024-01-01T14:51:56Z</time>
      </trkpt>
      <trkpt lat="43.15179" lon="3.10352">
        <ele>189.9</ele>
      </trkpt>
      <trkpt lat="43.15183" lon="3.10349">
        <ele>189.9</ele>
      </trkpt>
      <trkpt lat="43.15186" lon="3.10337">
        <ele>189.3</ele>
      </trkpt>
      <trkpt lat="43.15188" lon="3.10328">
        <ele>189.8</ele>
      </trkpt>
      <trkpt lat="43.15176" lon="3.10308">
        <ele>189.1</ele>
      </trkpt>
      <trkpt lat="43.15152" lon="3.10265">
        <ele>186.2</ele>
      </trkpt>
      <trkpt lat="43.15137" lon="3.10244">
        <ele>185.8</ele>
      </trkpt>
      <trkpt lat="43.15099" lon="3.1022">
        <ele>181.8</ele>
      </trkpt>
      <trkpt lat="43.15079" lon="3.10207">
        <ele>179.6</ele>
      </trkpt>
      <trkpt lat="43.15062" lon="3.10198">
        <ele>177.9</ele>
      </trkpt>
      <trkpt lat="43.15056" lon="3.10188">
        <ele>177.6</ele>
      </trkpt>
      <trkpt lat="43.15059" lon="3.10176">
        <ele>176.7</ele>
      </trkpt>
      <trkpt lat="43.15097" lon="3.10161">
        <ele>174.6</ele>
      </trkpt>
      <trkpt lat="43.15104" lon="3.10155">
        <ele>173.8</ele>
      </trkpt>
      <trkpt lat="43.15114" lon="3.10145">
        <ele>173</ele>
      </trkpt>
      <trkpt lat="43.15119" lon="3.10131">
        <ele>172.6</ele>
      </trkpt>
      <trkpt lat="43.15114" lon="3.10111">
        <ele>171.6</ele>
      </trkpt>
      <trkpt lat="43.151" lon="3.10086">
        <ele>174.2</ele>
      </trkpt>
      <trkpt lat="43.15079" lon="3.10057">
        <ele>174.9</ele>
      </trkpt>
      <trkpt lat="43.15046" lon="3.10025">
        <ele>176.4</ele>
      </trkpt>
      <trkpt lat="43.1502" lon="3.09992">
        <ele>176</ele>
      </trkpt>
      <trkpt lat="43.15002" lon="3.09974">
        <ele>175.8</ele>
      </trkpt>
      <trkpt lat="43.14976" lon="3.09951">
        <ele>174.1</ele>
      </trkpt>
      <trkpt lat="43.14961" lon="3.0992">
        <ele>172.9</ele>
      </trkpt>
      <trkpt lat="43.14959" lon="3.0991">
        <ele>172.7</ele>
      </trkpt>
      <trkpt lat="43.14956" lon="3.09901">
        <ele>172.4</ele>
      </trkpt>
      <trkpt lat="43.14954" lon="3.09899">
        <ele>172.2</ele>
      </trkpt>
      <trkpt lat="43.14948" lon="3.09896">
        <ele>171.3</ele>
      </trkpt>
      <trkpt lat="43.14941" lon="3.09902">
        <ele>169.9</ele>
      </trkpt>
      <trkpt lat="43.14936" lon="3.09899">
        <ele>169.1</ele>
      </trkpt>
      <trkpt lat="43.14919" lon="3.09878">
        <ele>165.1</ele>
      </trkpt>
      <trkpt lat="43.14909" lon="3.09861">
        <ele>161.6</ele>
      </trkpt>
      <trkpt lat="43.14908" lon="3.09845">
        <ele>157</ele>
      </trkpt>
      <trkpt lat="43.14899" lon="3.09835">
        <ele>153.6</ele>
      </trkpt>
      <trkpt lat="43.14897" lon="3.09823">
        <ele>149.6</ele>
        <time>2024-01-01T14:52:00Z</time>
      </trkpt>
      <trkpt lat="43.14899" lon="3.09814">
        <ele>147.5</ele>
      </trkpt>
      <trkpt lat="43.14897" lon="3.09803">
        <ele>144.4</ele>
      </trkpt>
      <trkpt lat="43.14889" lon="3.09797">
        <ele>142.4</ele>
      </trkpt>
      <trkpt lat="43.14891" lon="3.09768">
        <ele>141.4</ele>
      </trkpt>
      <trkpt lat="43.14887" lon="3.09762">
        <ele>141.6</ele>
      </trkpt>
      <trkpt lat="43.14879" lon="3.09758">
        <ele>142.2</ele>
      </trkpt>
      <trkpt lat="43.14872" lon="3.09757">
        <ele>142.6</ele>
      </trkpt>
      <trkpt lat="43.14868" lon="3.09757">
        <ele>142.9</ele>
      </trkpt>
      <trkpt lat="43.14863" lon="3.09759">
        <ele>142.8</ele>
        <time>2024-01-01T14:52:12Z</time>
      </trkpt>
      <trkpt lat="43.14854" lon="3.09761">
        <ele>143.3</ele>
      </trkpt>
      <trkpt lat="43.14843" lon="3.09764">
        <ele>144.1</ele>
      </trkpt>
      <trkpt lat="43.14837" lon="3.09764">
        <ele>145</ele>
        <time>2024-01-01T14:52:14Z</time>
      </trkpt>
      <trkpt lat="43.14833" lon="3.09761">
        <ele>146.3</ele>
        <time>2024-01-01T14:52:30Z</time>
      </trkpt>
      <trkpt lat="43.14827" lon="3.0976">
        <ele>145.3</ele>
        <time>2024-01-01T14:52:46Z</time>
      </trkpt>
      <trkpt lat="43.14817" lon="3.09754">
        <ele>145.1</ele>
      </trkpt>
      <trkpt lat="43.14809" lon="3.09744">
        <ele>146.4</ele>
        <time>2024-01-01T14:53:02Z</time>
      </trkpt>
      <trkpt lat="43.14797" lon="3.09728">
        <ele>147.7</ele>
      </trkpt>
      <trkpt lat="43.1479" lon="3.09716">
        <ele>148.5</ele>
        <time>2024-01-01T14:53:18Z</time>
      </trkpt>
      <trkpt lat="43.14781" lon="3.097">
        <ele>149.7</ele>
        <time>2024-01-01T14:53:26Z</time>
      </trkpt>
      <trkpt lat="43.14769" lon="3.09681">
        <ele>150.9</ele>
      </trkpt>
      <trkpt lat="43.14761" lon="3.09662">
        <ele>152.4</ele>
      </trkpt>
      <trkpt lat="43.14763" lon="3.09631">
        <ele>153.5</ele>
      </trkpt>
      <trkpt lat="43.14765" lon="3.09598">
        <ele>154.7</ele>
      </trkpt>
      <trkpt lat="43.14775" lon="3.09572">
        <ele>156.6</ele>
      </trkpt>
      <trkpt lat="43.14784" lon="3.09543">
        <ele>156.7</ele>
      </trkpt>
      <trkpt lat="43.14789" lon="3.09529">
        <ele>156.9</ele>
        <time>2024-01-01T14:53:34Z</time>
      </trkpt>
      <trkpt lat="43.14791" lon="3.09512">
        <ele>159</ele>
      </trkpt>
      <trkpt lat="43.14786" lon="3.09504">
        <ele>158.7</ele>
      </trkpt>
      <trkpt lat="43.14778" lon="3.09503">
        <ele>157.4</ele>
        <time>2024-01-01T14:53:46Z</time>
      </trkpt>
      <trkpt lat="43.14766" lon="3.09504">
        <ele>156.8</ele>
        <time>2024-01-01T14:53:48Z</time>
      </trkpt>
      <trkpt lat="43.14761" lon="3.09501">
        <ele>157.1</ele>
        <time>2024-01-01T14:53:50Z</time>
      </trkpt>
      <trkpt lat="43.1475" lon="3.09501">
        <ele>156.9</ele>
      </trkpt>
      <trkpt lat="43.14752" lon="3.09468">
        <ele>163.1</ele>
      </trkpt>
      <trkpt lat="43.14764" lon="3.09413">
        <ele>177</ele>
        <time>2024-01-01T14:53:54Z</time>
      </trkpt>
      <trkpt lat="43.14777" lon="3.0935">
        <ele>184.1</ele>
      </trkpt>
      <trkpt lat="43.14791" lon="3.09311">
        <ele>188.1</ele>
      </trkpt>
      <trkpt lat="43.14823" lon="3.09271">
        <ele>191.1</ele>
      </trkpt>
      <trkpt lat="43.14839" lon="3.09238">
        <ele>193.1</ele>
      </trkpt>
      <trkpt lat="43.14872" lon="3.0913">
        <ele>193.9</ele>
        <time>2024-01-01T14:54:02Z</time>
      </trkpt>
      <trkpt lat="43.1489" lon="3.09065">
        <ele>192.2</ele>
      </trkpt>
      <trkpt lat="43.14911" lon="3.0898">
        <ele>185.7</ele>
        <time>2024-01-01T14:54:10Z</time>
      </trkpt>
      <trkpt lat="43.14922" lon="3.08926">
        <ele>180.4</ele>
        <time>2024-01-01T14:54:26Z</time>
      </trkpt>
      <trkpt lat="43.14934" lon="3.08871">
        <ele>174.2</ele>
      </trkpt>
      <trkpt lat="43.14948" lon="3.08797">
        <ele>169.1</ele>
        <time>2024-01-01T14:54:42Z</time>
      </trkpt>
      <trkpt lat="43.14977" lon="3.08715">
        <ele>173.4</ele>
        <time>2024-01-01T14:54:46Z</time>
      </trkpt>
      <trkpt lat="43.14996" lon="3.08643">
        <ele>179.6</ele>
        <time>2024-01-01T14:55:02Z</time>
      </trkpt>
      <trkpt lat="43.15" lon="3.08604">
        <ele>182.2</ele>
      </trkpt>
      <trkpt lat="43.15004" lon="3.08584">
        <ele>183.1</ele>
      </trkpt>
      <trkpt lat="43.15011" lon="3.08566">
        <ele>184.7</ele>
      </trkpt>
      <trkpt lat="43.15017" lon="3.08556">
        <ele>185.6</ele>
      </trkpt>
      <trkpt lat="43.15029" lon="3.08517">
        <ele>187.4</ele>
        <time>2024-01-01T14:55:34Z</time>
      </trkpt>
      <trkpt lat="43.15028" lon="3.08496">
        <ele>188</ele>
      </trkpt>
      <trkpt lat="43.15036" lon="3.08459">
        <ele>188.2</ele>
      </trkpt>
      <trkpt lat="43.15058" lon="3.08404">
        <ele>190.2</ele>
      </trkpt>
      <trkpt lat="43.15072" lon="3.08358">
        <ele>191</ele>
        <time>2024-01-01T14:56:06Z</time>
      </trkpt>
      <trkpt lat="43.15084" lon="3.08328">
        <ele>192.8</ele>
      </trkpt>
      <trkpt lat="43.15099" lon="3.08282">
        <ele>193.1</ele>
        <time>2024-01-01T14:56:14Z</time>
      </trkpt>
      <trkpt lat="43.15107" lon="3.08259">
        <ele>194.1</ele>
        <time>2024-01-01T14:56:22Z</time>
      </trkpt>
      <trkpt lat="43.15115" lon="3.08233">
        <ele>195.4</ele>
      </trkpt>
      <trkpt lat="43.15121" lon="3.08208">
        <ele>195.8</ele>
        <time>2024-01-01T14:56:30Z</time>
      </trkpt>
      <trkpt lat="43.15126" lon="3.08184">
        <ele>196.9</ele>
        <time>2024-01-01T14:57:02Z</time>
      </trkpt>
      <trkpt lat="43.15121" lon="3.08157">
        <ele>197.6</ele>
      </trkpt>
      <trkpt lat="43.15116" lon="3.08135">
        <ele>198.4</ele>
        <time>2024-01-01T14:57:10Z</time>
      </trkpt>
      <trkpt lat="43.15104" lon="3.08124">
        <ele>198.3</ele>
        <time>2024-01-01T14:57:18Z</time>
      </trkpt>
      <trkpt lat="43.15083" lon="3.08107">
        <ele>198.1</ele>
      </trkpt>
      <trkpt lat="43.15069" lon="3.08099">
        <ele>197.9</ele>
        <time>2024-01-01T14:57:34Z</time>
      </trkpt>
      <trkpt lat="43.15025" lon="3.08073">
        <ele>198.1</ele>
        <time>2024-01-01T14:57:50Z</time>
      </trkpt>
      <trkpt lat="43.15013" lon="3.08078">
        <ele>198.5</ele>
      </trkpt>
      <trkpt lat="43.14994" lon="3.08091">
        <ele>198.8</ele>
      </trkpt>
      <trkpt lat="43.14975" lon="3.081">
        <ele>198.9</ele>
      </trkpt>
      <trkpt lat="43.14957" lon="3.08095">
        <ele>198.1</ele>
      </trkpt>
      <trkpt lat="43.14942" lon="3.08094">
        <ele>197.4</ele>
      </trkpt>
      <trkpt lat="43.14933" lon="3.08079">
        <ele>196.7</ele>
      </trkpt>
      <trkpt lat="43.1493" lon="3.0806">
        <ele>195.3</ele>
      </trkpt>
      <trkpt lat="43.14925" lon="3.0804">
        <ele>191.3</ele>
      </trkpt>
      <trkpt lat="43.14917" lon="3.08023">
        <ele>186.1</ele>
      </trkpt>
      <trkpt lat="43.14915" lon="3.07998">
        <ele>180.9</ele>
      </trkpt>
      <trkpt lat="43.1492" lon="3.07966">
        <ele>174.2</ele>
      </trkpt>
      <trkpt lat="43.14927" lon="3.07945">
        <ele>172.3</ele>
      </trkpt>
      <trkpt lat="43.14937" lon="3.07931">
        <ele>169.3</ele>
      </trkpt>
      <trkpt lat="43.14939" lon="3.07916">
        <ele>166.1</ele>
      </trkpt>
      <trkpt lat="43.14944" lon="3.07884">
        <ele>160</ele>
      </trkpt>
      <trkpt lat="43.1495" lon="3.07866">
        <ele>157.9</ele>
      </trkpt>
      <trkpt lat="43.14959" lon="3.0784">
        <ele>155.9</ele>
      </trkpt>
      <trkpt lat="43.14968" lon="3.07814">
        <ele>153</ele>
      </trkpt>
      <trkpt lat="43.14982" lon="3.07804">
        <ele>153.2</ele>
      </trkpt>
      <trkpt lat="43.14996" lon="3.07781">
        <ele>151.5</ele>
      </trkpt>
      <trkpt lat="43.14999" lon="3.07751">
        <ele>148</ele>
      </trkpt>
      <trkpt lat="43.15003" lon="3.07732">
        <ele>146.2</ele>
      </trkpt>
      <trkpt lat="43.15024" lon="3.07707">
        <ele>144.8</ele>
      </trkpt>
      <trkpt lat="43.15067" lon="3.07666">
        <ele>142.4</ele>
      </trkpt>
      <trkpt lat="43.15115" lon="3.07591">
        <ele>139.7</ele>
      </trkpt>
      <trkpt lat="43.15137" lon="3.07549">
        <ele>139.6</ele>
      </trkpt>
      <trkpt lat="43.15153" lon="3.07551">
        <ele>140.1</ele>
      </trkpt>
      <trkpt lat="43.15227" lon="3.07564">
        <ele>141</ele>
      </trkpt>
      <trkpt lat="43.15264" lon="3.07545">
        <ele>141.2</ele>
      </trkpt>
      <trkpt lat="43.15279" lon="3.07538">
        <ele>141</ele>
      </trkpt>
      <trkpt lat="43.15335" lon="3.07516">
        <ele>143</ele>
      </trkpt>
      <trkpt lat="43.15388" lon="3.07512">
        <ele>144</ele>
      </trkpt>
      <trkpt lat="43.15396" lon="3.07301">
        <ele>142.2</ele>
        <time>2024-01-01T14:58:06Z</time>
      </trkpt>
      <trkpt lat="43.15398" lon="3.07277">
        <ele>142.3</ele>
        <time>2024-01-01T14:58:10Z</time>
      </trkpt>
      <trkpt lat="43.15385" lon="3.07174">
        <ele>135.3</ele>
        <time>2024-01-01T14:58:26Z</time>
      </trkpt>
      <trkpt lat="43.15388" lon="3.07142">
        <ele>135.2</ele>
        <time>2024-01-01T14:58:30Z</time>
      </trkpt>
      <trkpt lat="43.15397" lon="3.07115">
        <ele>135.2</ele>
        <time>2024-01-01T14:58:34Z</time>
      </trkpt>
      <trkpt lat="43.1541" lon="3.07094">
        <ele>135.3</ele>
        <time>2024-01-01T14:58:38Z</time>
      </trkpt>
      <trkpt lat="43.15419" lon="3.07046">
        <ele>136.7</ele>
        <time>2024-01-01T14:58:46Z</time>
      </trkpt>
      <trkpt lat="43.15427" lon="3.07025">
        <ele>137.3</ele>
        <time>2024-01-01T14:58:50Z</time>
      </trkpt>
      <trkpt lat="43.15431" lon="3.06932">
        <ele>138.6</ele>
        <time>2024-01-01T14:59:06Z</time>
      </trkpt>
      <trkpt lat="43.15384" lon="3.0681">
        <ele>142</ele>
        <time>2024-01-01T14:59:30Z</time>
      </trkpt>
      <trkpt lat="43.15374" lon="3.06766">
        <ele>143.2</ele>
        <time>2024-01-01T14:59:38Z</time>
      </trkpt>
      <trkpt lat="43.15375" lon="3.06718">
        <ele>144</ele>
        <time>2024-01-01T14:59:46Z</time>
      </trkpt>
      <trkpt lat="43.15387" lon="3.06618">
        <ele>143.3</ele>
        <time>2024-01-01T15:01:54Z</time>
      </trkpt>
      <trkpt lat="43.15384" lon="3.06586">
        <ele>142.6</ele>
        <time>2024-01-01T15:02:22Z</time>
      </trkpt>
      <trkpt lat="43.15369" lon="3.06554">
        <ele>140.3</ele>
        <time>2024-01-01T15:02:26Z</time>
      </trkpt>
      <trkpt lat="43.15354" lon="3.06494">
        <ele>134.6</ele>
        <time>2024-01-01T15:02:32Z</time>
      </trkpt>
      <trkpt lat="43.15327" lon="3.06465">
        <ele>130</ele>
        <time>2024-01-01T15:02:36Z</time>
      </trkpt>
      <trkpt lat="43.15318" lon="3.06449">
        <ele>127.6</ele>
        <time>2024-01-01T15:02:38Z</time>
      </trkpt>
      <trkpt lat="43.15315" lon="3.06431">
        <ele>125.6</ele>
        <time>2024-01-01T15:02:40Z</time>
      </trkpt>
      <trkpt lat="43.15332" lon="3.06385">
        <ele>119.6</ele>
        <time>2024-01-01T15:02:48Z</time>
      </trkpt>
      <trkpt lat="43.15352" lon="3.06381">
        <ele>118.2</ele>
        <time>2024-01-01T15:02:56Z</time>
      </trkpt>
      <trkpt lat="43.15403" lon="3.06394">
        <ele>116.3</ele>
        <time>2024-01-01T15:03:08Z</time>
      </trkpt>
      <trkpt lat="43.15423" lon="3.06385">
        <ele>112.7</ele>
        <time>2024-01-01T15:03:14Z</time>
      </trkpt>
      <trkpt lat="43.15435" lon="3.0636">
        <ele>110.6</ele>
        <time>2024-01-01T15:03:18Z</time>
      </trkpt>
      <trkpt lat="43.15469" lon="3.06341">
        <ele>108</ele>
        <time>2024-01-01T15:03:26Z</time>
      </trkpt>
      <trkpt lat="43.15492" lon="3.06314">
        <ele>105</ele>
        <time>2024-01-01T15:03:32Z</time>
      </trkpt>
      <trkpt lat="43.15499" lon="3.06311">
        <ele>104.2</ele>
        <time>2024-01-01T15:03:34Z</time>
      </trkpt>
      <trkpt lat="43.15511" lon="3.06325">
        <ele>103</ele>
        <time>2024-01-01T15:03:38Z</time>
      </trkpt>
      <trkpt lat="43.15512" lon="3.0635">
        <ele>103.3</ele>
        <time>2024-01-01T15:03:44Z</time>
      </trkpt>
      <trkpt lat="43.15526" lon="3.06367">
        <ele>102.7</ele>
        <time>2024-01-01T15:03:50Z</time>
      </trkpt>
      <trkpt lat="43.15549" lon="3.06351">
        <ele>100</ele>
        <time>2024-01-01T15:03:58Z</time>
      </trkpt>
      <trkpt lat="43.15562" lon="3.0636">
        <ele>99.6</ele>
        <time>2024-01-01T15:04:02Z</time>
      </trkpt>
      <trkpt lat="43.15574" lon="3.06352">
        <ele>98.3</ele>
        <time>2024-01-01T15:04:06Z</time>
      </trkpt>
      <trkpt lat="43.15602" lon="3.06297">
        <ele>93</ele>
        <time>2024-01-01T15:04:22Z</time>
      </trkpt>
      <trkpt lat="43.15612" lon="3.06252">
        <ele>83.7</ele>
        <time>2024-01-01T15:04:38Z</time>
      </trkpt>
      <trkpt lat="43.1562" lon="3.06248">
        <ele>81.6</ele>
        <time>2024-01-01T15:04:42Z</time>
      </trkpt>
      <trkpt lat="43.15629" lon="3.06228">
        <ele>75.7</ele>
        <time>2024-01-01T15:04:50Z</time>
      </trkpt>
      <trkpt lat="43.15649" lon="3.06216">
        <ele>67.6</ele>
        <time>2024-01-01T15:04:58Z</time>
      </trkpt>
      <trkpt lat="43.15714" lon="3.06146">
        <ele>56.2</ele>
        <time>2024-01-01T15:05:22Z</time>
      </trkpt>
      <trkpt lat="43.15719" lon="3.06153">
        <ele>54.7</ele>
        <time>2024-01-01T15:05:26Z</time>
      </trkpt>
      <trkpt lat="43.1572" lon="3.06168">
        <ele>52</ele>
        <time>2024-01-01T15:05:30Z</time>
      </trkpt>
      <trkpt lat="43.15733" lon="3.06178">
        <ele>44.7</ele>
        <time>2024-01-01T15:05:38Z</time>
      </trkpt>
      <trkpt lat="43.15745" lon="3.06194">
        <ele>36.3</ele>
        <time>2024-01-01T15:05:46Z</time>
      </trkpt>
      <trkpt lat="43.15754" lon="3.06198">
        <ele>32</ele>
        <time>2024-01-01T15:05:50Z</time>
      </trkpt>
      <trkpt lat="43.15767" lon="3.06218">
        <ele>26</ele>
        <time>2024-01-01T15:05:56Z</time>
      </trkpt>
      <trkpt lat="43.1578" lon="3.06225">
        <ele>24.6</ele>
        <time>2024-01-01T15:05:58Z</time>
      </trkpt>
      <trkpt lat="43.15796" lon="3.06228">
        <ele>23.2</ele>
        <time>2024-01-01T15:06:00Z</time>
      </trkpt>
      <trkpt lat="43.15806" lon="3.06223">
        <ele>21.7</ele>
        <time>2024-01-01T15:06:02Z</time>
      </trkpt>
      <trkpt lat="43.15826" lon="3.0618">
        <ele>18.6</ele>
        <time>2024-01-01T15:06:06Z</time>
      </trkpt>
      <trkpt lat="43.15848" lon="3.0615">
        <ele>16.3</ele>
        <time>2024-01-01T15:06:10Z</time>
      </trkpt>
      <trkpt lat="43.15868" lon="3.06134">
        <ele>15.2</ele>
        <time>2024-01-01T15:06:14Z</time>
      </trkpt>
      <trkpt lat="43.15911" lon="3.0613">
        <ele>14.7</ele>
        <time>2024-01-01T15:06:22Z</time>
      </trkpt>
      <trkpt lat="43.15981" lon="3.06058">
        <ele>15.6</ele>
        <time>2024-01-01T15:06:38Z</time>
      </trkpt>
      <trkpt lat="43.16037" lon="3.05973">
        <ele>14.2</ele>
        <time>2024-01-01T15:06:54Z</time>
      </trkpt>
      <trkpt lat="43.1605" lon="3.05962">
        <ele>13.2</ele>
        <time>2024-01-01T15:06:58Z</time>
      </trkpt>
      <trkpt lat="43.16056" lon="3.05974">
        <ele>13.7</ele>
        <time>2024-01-01T15:07:02Z</time>
      </trkpt>
      <trkpt lat="43.16029" lon="3.06026">
        <ele>18.7</ele>
        <time>2024-01-01T15:07:18Z</time>
      </trkpt>
      <trkpt lat="43.16014" lon="3.06082">
        <ele>23.6</ele>
        <time>2024-01-01T15:07:34Z</time>
      </trkpt>
      <trkpt lat="43.15996" lon="3.06132">
        <ele>28.3</ele>
        <time>2024-01-01T15:07:50Z</time>
      </trkpt>
      <trkpt lat="43.15959" lon="3.06201">
        <ele>35.7</ele>
        <time>2024-01-01T15:08:22Z</time>
      </trkpt>
      <trkpt lat="43.1595" lon="3.06241">
        <ele>39.3</ele>
        <time>2024-01-01T15:08:38Z</time>
      </trkpt>
      <trkpt lat="43.1594" lon="3.06347">
        <ele>47.6</ele>
        <time>2024-01-01T15:09:18Z</time>
      </trkpt>
      <trkpt lat="43.15931" lon="3.06367">
        <ele>49.2</ele>
        <time>2024-01-01T15:09:26Z</time>
      </trkpt>
      <trkpt lat="43.15931" lon="3.06387">
        <ele>50.7</ele>
        <time>2024-01-01T15:09:34Z</time>
      </trkpt>
      <trkpt lat="43.15942" lon="3.06426">
        <ele>53.7</ele>
        <time>2024-01-01T15:09:50Z</time>
      </trkpt>
      <trkpt lat="43.15931" lon="3.06469">
        <ele>56.7</ele>
        <time>2024-01-01T15:10:06Z</time>
      </trkpt>
      <trkpt lat="43.15918" lon="3.06485">
        <ele>58.3</ele>
        <time>2024-01-01T15:10:14Z</time>
      </trkpt>
      <trkpt lat="43.15902" lon="3.06488">
        <ele>60</ele>
        <time>2024-01-01T15:10:22Z</time>
      </trkpt>
      <trkpt lat="43.15888" lon="3.06485">
        <ele>61.3</ele>
        <time>2024-01-01T15:10:30Z</time>
      </trkpt>
      <trkpt lat="43.15871" lon="3.06489">
        <ele>63</ele>
        <time>2024-01-01T15:10:38Z</time>
      </trkpt>
      <trkpt lat="43.15818" lon="3.06537">
        <ele>69</ele>
        <time>2024-01-01T15:11:10Z</time>
      </trkpt>
      <trkpt lat="43.15802" lon="3.06546">
        <ele>70.6</ele>
        <time>2024-01-01T15:11:18Z</time>
      </trkpt>
      <trkpt lat="43.1577" lon="3.06549">
        <ele>73.6</ele>
        <time>2024-01-01T15:11:34Z</time>
      </trkpt>
      <trkpt lat="43.15755" lon="3.06545">
        <ele>75.3</ele>
        <time>2024-01-01T15:11:42Z</time>
      </trkpt>
      <trkpt lat="43.1574" lon="3.06549">
        <ele>76.3</ele>
        <time>2024-01-01T15:11:50Z</time>
      </trkpt>
      <trkpt lat="43.15735" lon="3.06559">
        <ele>76.7</ele>
        <time>2024-01-01T15:11:54Z</time>
      </trkpt>
      <trkpt lat="43.15736" lon="3.0657">
        <ele>77.3</ele>
        <time>2024-01-01T15:11:58Z</time>
      </trkpt>
      <trkpt lat="43.1576" lon="3.066">
        <ele>80.6</ele>
        <time>2024-01-01T15:12:14Z</time>
      </trkpt>
      <trkpt lat="43.15786" lon="3.06622">
        <ele>84.2</ele>
        <time>2024-01-01T15:12:30Z</time>
      </trkpt>
      <trkpt lat="43.15793" lon="3.06638">
        <ele>85.6</ele>
        <time>2024-01-01T15:12:38Z</time>
      </trkpt>
      <trkpt lat="43.15796" lon="3.06679">
        <ele>88.7</ele>
        <time>2024-01-01T15:12:54Z</time>
      </trkpt>
      <trkpt lat="43.15785" lon="3.06715">
        <ele>93.2</ele>
        <time>2024-01-01T15:13:10Z</time>
      </trkpt>
      <trkpt lat="43.15795" lon="3.06731">
        <ele>95</ele>
        <time>2024-01-01T15:13:18Z</time>
      </trkpt>
      <trkpt lat="43.15808" lon="3.06737">
        <ele>96.6</ele>
        <time>2024-01-01T15:13:26Z</time>
      </trkpt>
      <trkpt lat="43.15819" lon="3.0675">
        <ele>98</ele>
        <time>2024-01-01T15:13:34Z</time>
      </trkpt>
      <trkpt lat="43.15818" lon="3.0676">
        <ele>98.7</ele>
        <time>2024-01-01T15:13:38Z</time>
      </trkpt>
      <trkpt lat="43.15812" lon="3.0676">
        <ele>99.3</ele>
        <time>2024-01-01T15:13:42Z</time>
      </trkpt>
      <trkpt lat="43.15798" lon="3.06749">
        <ele>101.2</ele>
        <time>2024-01-01T15:13:50Z</time>
      </trkpt>
      <trkpt lat="43.15768" lon="3.0674">
        <ele>104.7</ele>
        <time>2024-01-01T15:14:06Z</time>
      </trkpt>
      <trkpt lat="43.15744" lon="3.06725">
        <ele>108</ele>
        <time>2024-01-01T15:14:22Z</time>
      </trkpt>
      <trkpt lat="43.15731" lon="3.06727">
        <ele>109.3</ele>
        <time>2024-01-01T15:14:30Z</time>
      </trkpt>
      <trkpt lat="43.15712" lon="3.06754">
        <ele>112.2</ele>
        <time>2024-01-01T15:14:46Z</time>
      </trkpt>
      <trkpt lat="43.15698" lon="3.06759">
        <ele>113.7</ele>
        <time>2024-01-01T15:14:54Z</time>
      </trkpt>
      <trkpt lat="43.15669" lon="3.06756">
        <ele>117</ele>
        <time>2024-01-01T15:15:10Z</time>
      </trkpt>
      <trkpt lat="43.15655" lon="3.0676">
        <ele>118.3</ele>
        <time>2024-01-01T15:15:18Z</time>
      </trkpt>
      <trkpt lat="43.15621" lon="3.06836">
        <ele>123.6</ele>
        <time>2024-01-01T15:15:50Z</time>
      </trkpt>
      <trkpt lat="43.15607" lon="3.06905">
        <ele>127.2</ele>
        <time>2024-01-01T15:16:14Z</time>
      </trkpt>
      <trkpt lat="43.15599" lon="3.06927">
        <ele>128.6</ele>
        <time>2024-01-01T15:16:22Z</time>
      </trkpt>
      <trkpt lat="43.15574" lon="3.06964">
        <ele>131.2</ele>
        <time>2024-01-01T15:16:38Z</time>
      </trkpt>
      <trkpt lat="43.15544" lon="3.06988">
        <ele>134</ele>
        <time>2024-01-01T15:16:54Z</time>
      </trkpt>
      <trkpt lat="43.15514" lon="3.07041">
        <ele>138</ele>
        <time>2024-01-01T15:33:58Z</time>
      </trkpt>
      <trkpt lat="43.15433" lon="3.07206">
        <ele>138</ele>
        <time>2024-01-01T15:36:22Z</time>
      </trkpt>
      <trkpt lat="43.15408" lon="3.07268">
        <ele>142.7</ele>
        <time>2024-01-01T15:36:38Z</time>
      </trkpt>
      <trkpt lat="43.15399" lon="3.07292">
        <ele>142.3</ele>
      </trkpt>
      <trkpt lat="43.15399" lon="3.07317">
        <ele>142.4</ele>
        <time>2024-01-01T15:36:42Z</time>
      </trkpt>
      <trkpt lat="43.15398" lon="3.07348">
        <ele>142.9</ele>
      </trkpt>
      <trkpt lat="43.15397" lon="3.07415">
        <ele>144.9</ele>
        <time>2024-01-01T15:36:58Z</time>
      </trkpt>
      <trkpt lat="43.15397" lon="3.07436">
        <ele>145.2</ele>
      </trkpt>
      <trkpt lat="43.15396" lon="3.07452">
        <ele>145.2</ele>
      </trkpt>
      <trkpt lat="43.15393" lon="3.07493">
        <ele>138.7</ele>
        <time>2024-01-01T15:37:14Z</time>
      </trkpt>
      <trkpt lat="43.15389" lon="3.07502">
        <ele>138.6</ele>
        <time>2024-01-01T15:37:16Z</time>
      </trkpt>
      <trkpt lat="43.15382" lon="3.07507">
        <ele>138.6</ele>
        <time>2024-01-01T15:37:18Z</time>
      </trkpt>
      <trkpt lat="43.1535" lon="3.07506">
        <ele>138</ele>
        <time>2024-01-01T15:37:26Z</time>
      </trkpt>
      <trkpt lat="43.15276" lon="3.07532">
        <ele>135.6</ele>
        <time>2024-01-01T15:37:42Z</time>
      </trkpt>
      <trkpt lat="43.15234" lon="3.07556">
        <ele>136</ele>
        <time>2024-01-01T15:37:54Z</time>
      </trkpt>
      <trkpt lat="43.15217" lon="3.07558">
        <ele>136</ele>
        <time>2024-01-01T15:37:58Z</time>
      </trkpt>
      <trkpt lat="43.15142" lon="3.0754">
        <ele>134.3</ele>
        <time>2024-01-01T15:38:16Z</time>
      </trkpt>
      <trkpt lat="43.15136" lon="3.07543">
        <ele>139.3</ele>
      </trkpt>
      <trkpt lat="43.15129" lon="3.07555">
        <ele>134</ele>
        <time>2024-01-01T15:38:20Z</time>
      </trkpt>
      <trkpt lat="43.15089" lon="3.07624">
        <ele>140.2</ele>
        <time>2024-01-01T15:38:36Z</time>
      </trkpt>
      <trkpt lat="43.15063" lon="3.07663">
        <ele>142.1</ele>
      </trkpt>
      <trkpt lat="43.15046" lon="3.0768">
        <ele>143.5</ele>
        <time>2024-01-01T15:39:00Z</time>
      </trkpt>
      <trkpt lat="43.15034" lon="3.07691">
        <ele>144</ele>
      </trkpt>
      <trkpt lat="43.15012" lon="3.07708">
        <ele>144.7</ele>
        <time>2024-01-01T15:39:16Z</time>
      </trkpt>
      <trkpt lat="43.15" lon="3.07731">
        <ele>139.6</ele>
        <time>2024-01-01T15:39:24Z</time>
      </trkpt>
      <trkpt lat="43.14995" lon="3.07746">
        <ele>147.4</ele>
      </trkpt>
      <trkpt lat="43.14995" lon="3.07758">
        <ele>148.7</ele>
        <time>2024-01-01T15:39:40Z</time>
      </trkpt>
      <trkpt lat="43.14995" lon="3.07768">
        <ele>149.8</ele>
      </trkpt>
      <trkpt lat="43.14993" lon="3.07776">
        <ele>150.8</ele>
        <time>2024-01-01T15:39:52Z</time>
      </trkpt>
      <trkpt lat="43.14991" lon="3.07783">
        <ele>151.7</ele>
      </trkpt>
      <trkpt lat="43.14989" lon="3.07788">
        <ele>152.2</ele>
        <time>2024-01-01T15:40:00Z</time>
      </trkpt>
      <trkpt lat="43.14987" lon="3.0779">
        <ele>152.4</ele>
        <time>2024-01-01T15:41:04Z</time>
      </trkpt>
      <trkpt lat="43.14981" lon="3.07798">
        <ele>152.6</ele>
      </trkpt>
      <trkpt lat="43.14971" lon="3.07808">
        <ele>152.3</ele>
      </trkpt>
      <trkpt lat="43.14957" lon="3.07818">
        <ele>152.7</ele>
      </trkpt>
      <trkpt lat="43.14944" lon="3.0782">
        <ele>152.1</ele>
      </trkpt>
      <trkpt lat="43.14937" lon="3.07826">
        <ele>152.9</ele>
        <time>2024-01-01T15:58:56Z</time>
      </trkpt>
      <trkpt lat="43.14936" lon="3.07828">
        <ele>153.2</ele>
        <time>2024-01-01T16:03:16Z</time>
      </trkpt>
      <trkpt lat="43.14929" lon="3.07836">
        <ele>146.2</ele>
        <time>2024-01-01T16:03:20Z</time>
      </trkpt>
      <trkpt lat="43.14923" lon="3.07834">
        <ele>146.3</ele>
        <time>2024-01-01T16:03:22Z</time>
      </trkpt>
      <trkpt lat="43.14918" lon="3.07822">
        <ele>146.6</ele>
        <time>2024-01-01T16:03:26Z</time>
      </trkpt>
      <trkpt lat="43.14896" lon="3.0781">
        <ele>148.6</ele>
        <time>2024-01-01T16:03:34Z</time>
      </trkpt>
      <trkpt lat="43.14861" lon="3.07764">
        <ele>151.7</ele>
        <time>2024-01-01T16:03:50Z</time>
      </trkpt>
      <trkpt lat="43.14826" lon="3.07728">
        <ele>154</ele>
        <time>2024-01-01T16:04:06Z</time>
      </trkpt>
      <trkpt lat="43.14788" lon="3.07681">
        <ele>153</ele>
        <time>2024-01-01T16:04:22Z</time>
      </trkpt>
      <trkpt lat="43.14748" lon="3.07641">
        <ele>158.3</ele>
        <time>2024-01-01T16:04:38Z</time>
      </trkpt>
      <trkpt lat="43.14668" lon="3.07604">
        <ele>155.2</ele>
        <time>2024-01-01T16:05:34Z</time>
      </trkpt>
      <trkpt lat="43.1455" lon="3.07569">
        <ele>144.3</ele>
        <time>2024-01-01T16:06:02Z</time>
      </trkpt>
      <trkpt lat="43.14501" lon="3.07562">
        <ele>135.7</ele>
        <time>2024-01-01T16:06:16Z</time>
      </trkpt>
      <trkpt lat="43.14429" lon="3.07467">
        <ele>137.7</ele>
        <time>2024-01-01T16:06:40Z</time>
      </trkpt>
      <trkpt lat="43.14418" lon="3.07376">
        <ele>142.8</ele>
        <time>2024-01-01T16:06:56Z</time>
      </trkpt>
      <trkpt lat="43.14423" lon="3.07346">
        <ele>139.5</ele>
      </trkpt>
      <trkpt lat="43.14394" lon="3.07326">
        <ele>146.4</ele>
        <time>2024-01-01T16:07:12Z</time>
      </trkpt>
      <trkpt lat="43.14357" lon="3.07256">
        <ele>138.2</ele>
        <time>2024-01-01T16:07:28Z</time>
      </trkpt>
      <trkpt lat="43.14332" lon="3.0718">
        <ele>136.8</ele>
      </trkpt>
      <trkpt lat="43.14299" lon="3.07115">
        <ele>129.4</ele>
        <time>2024-01-01T16:08:00Z</time>
      </trkpt>
      <trkpt lat="43.14271" lon="3.07087">
        <ele>124.7</ele>
        <time>2024-01-01T16:08:08Z</time>
      </trkpt>
      <trkpt lat="43.14245" lon="3.07071">
        <ele>116.7</ele>
        <time>2024-01-01T16:08:16Z</time>
      </trkpt>
      <trkpt lat="43.14194" lon="3.07049">
        <ele>111.2</ele>
        <time>2024-01-01T16:08:32Z</time>
      </trkpt>
      <trkpt lat="43.14039" lon="3.07008">
        <ele>96</ele>
        <time>2024-01-01T16:09:04Z</time>
      </trkpt>
      <trkpt lat="43.14012" lon="3.06997">
        <ele>94.6</ele>
        <time>2024-01-01T16:09:08Z</time>
      </trkpt>
      <trkpt lat="43.13972" lon="3.06962">
        <ele>92.2</ele>
        <time>2024-01-01T16:09:18Z</time>
      </trkpt>
      <trkpt lat="43.1395" lon="3.06942">
        <ele>97.5</ele>
        <time>2024-01-01T16:09:26Z</time>
      </trkpt>
      <trkpt lat="43.13934" lon="3.06958">
        <ele>97.4</ele>
        <time>2024-01-01T16:09:30Z</time>
      </trkpt>
      <trkpt lat="43.13939" lon="3.06986">
        <ele>100.2</ele>
      </trkpt>
      <trkpt lat="43.13927" lon="3.06993">
        <ele>90.3</ele>
        <time>2024-01-01T16:09:34Z</time>
      </trkpt>
      <trkpt lat="43.13904" lon="3.07016">
        <ele>93</ele>
      </trkpt>
      <trkpt lat="43.13891" lon="3.07056">
        <ele>82.6</ele>
        <time>2024-01-01T16:09:50Z</time>
      </trkpt>
      <trkpt lat="43.13882" lon="3.07083">
        <ele>80.2</ele>
        <time>2024-01-01T16:09:54Z</time>
      </trkpt>
      <trkpt lat="43.13881" lon="3.07122">
        <ele>76.6</ele>
        <time>2024-01-01T16:10:00Z</time>
      </trkpt>
      <trkpt lat="43.13878" lon="3.07123">
        <ele>75.7</ele>
        <time>2024-01-01T16:10:02Z</time>
      </trkpt>
      <trkpt lat="43.13859" lon="3.07096">
        <ele>73.6</ele>
        <time>2024-01-01T16:10:10Z</time>
      </trkpt>
      <trkpt lat="43.13837" lon="3.07081">
        <ele>71</ele>
        <time>2024-01-01T16:10:18Z</time>
      </trkpt>
      <trkpt lat="43.13831" lon="3.07073">
        <ele>70.2</ele>
        <time>2024-01-01T16:10:22Z</time>
      </trkpt>
      <trkpt lat="43.13821" lon="3.07071">
        <ele>69.2</ele>
        <time>2024-01-01T16:10:26Z</time>
      </trkpt>
      <trkpt lat="43.13737" lon="3.06989">
        <ele>63.3</ele>
        <time>2024-01-01T16:10:58Z</time>
      </trkpt>
      <trkpt lat="43.1373" lon="3.06988">
        <ele>62.7</ele>
        <time>2024-01-01T16:11:06Z</time>
      </trkpt>
      <trkpt lat="43.13731" lon="3.07012">
        <ele>62.6</ele>
        <time>2024-01-01T16:11:14Z</time>
      </trkpt>
      <trkpt lat="43.13726" lon="3.07025">
        <ele>63.3</ele>
        <time>2024-01-01T16:11:18Z</time>
      </trkpt>
      <trkpt lat="43.13704" lon="3.07027">
        <ele>64.2</ele>
        <time>2024-01-01T16:11:26Z</time>
      </trkpt>
      <trkpt lat="43.1366" lon="3.06997">
        <ele>62</ele>
        <time>2024-01-01T16:11:36Z</time>
      </trkpt>
      <trkpt lat="43.1364" lon="3.07015">
        <ele>61.7</ele>
        <time>2024-01-01T16:11:44Z</time>
      </trkpt>
      <trkpt lat="43.1362" lon="3.07013">
        <ele>61.6</ele>
        <time>2024-01-01T16:11:48Z</time>
      </trkpt>
      <trkpt lat="43.13601" lon="3.07018">
        <ele>61</ele>
        <time>2024-01-01T16:11:52Z</time>
      </trkpt>
      <trkpt lat="43.13553" lon="3.07013">
        <ele>58.2</ele>
        <time>2024-01-01T16:12:00Z</time>
      </trkpt>
      <trkpt lat="43.13537" lon="3.0702">
        <ele>57</ele>
        <time>2024-01-01T16:12:04Z</time>
      </trkpt>
      <trkpt lat="43.13533" lon="3.07039">
        <ele>57.2</ele>
        <time>2024-01-01T16:12:08Z</time>
      </trkpt>
      <trkpt lat="43.13524" lon="3.07175">
        <ele>63.7</ele>
        <time>2024-01-01T16:12:32Z</time>
      </trkpt>
      <trkpt lat="43.13504" lon="3.07196">
        <ele>63.7</ele>
        <time>2024-01-01T16:12:38Z</time>
      </trkpt>
      <trkpt lat="43.13502" lon="3.07214">
        <ele>64.2</ele>
        <time>2024-01-01T16:12:42Z</time>
      </trkpt>
      <trkpt lat="43.1351" lon="3.0725">
        <ele>65.7</ele>
        <time>2024-01-01T16:12:50Z</time>
      </trkpt>
      <trkpt lat="43.13496" lon="3.07277">
        <ele>66.6</ele>
        <time>2024-01-01T16:12:58Z</time>
      </trkpt>
      <trkpt lat="43.13509" lon="3.07312">
        <ele>68</ele>
        <time>2024-01-01T16:13:06Z</time>
      </trkpt>
      <trkpt lat="43.1351" lon="3.07327">
        <ele>69</ele>
        <time>2024-01-01T16:13:10Z</time>
      </trkpt>
      <trkpt lat="43.13465" lon="3.07315">
        <ele>74.3</ele>
        <time>2024-01-01T16:13:26Z</time>
      </trkpt>
      <trkpt lat="43.13441" lon="3.07318">
        <ele>76</ele>
        <time>2024-01-01T16:13:34Z</time>
      </trkpt>
      <trkpt lat="43.13421" lon="3.07329">
        <ele>77</ele>
        <time>2024-01-01T16:13:42Z</time>
      </trkpt>
      <trkpt lat="43.13406" lon="3.07351">
        <ele>79.6</ele>
        <time>2024-01-01T16:13:50Z</time>
      </trkpt>
      <trkpt lat="43.1337" lon="3.07488">
        <ele>99.7</ele>
        <time>2024-01-01T16:14:38Z</time>
      </trkpt>
      <trkpt lat="43.13364" lon="3.07494">
        <ele>101</ele>
        <time>2024-01-01T16:14:42Z</time>
      </trkpt>
      <trkpt lat="43.13294" lon="3.07481">
        <ele>109.2</ele>
        <time>2024-01-01T16:15:14Z</time>
      </trkpt>
      <trkpt lat="43.13251" lon="3.07471">
        <ele>122.9</ele>
        <time>2024-01-01T16:15:34Z</time>
      </trkpt>
      <trkpt lat="43.13236" lon="3.07488">
        <ele>121.3</ele>
        <time>2024-01-01T16:15:42Z</time>
      </trkpt>
      <trkpt lat="43.13219" lon="3.07511">
        <ele>106.3</ele>
        <time>2024-01-01T16:15:50Z</time>
      </trkpt>
      <trkpt lat="43.13212" lon="3.07513">
        <ele>103.7</ele>
        <time>2024-01-01T16:15:54Z</time>
      </trkpt>
      <trkpt lat="43.1319" lon="3.07477">
        <ele>98.2</ele>
        <time>2024-01-01T16:16:06Z</time>
      </trkpt>
      <trkpt lat="43.1319" lon="3.07466">
        <ele>97.7</ele>
        <time>2024-01-01T16:16:10Z</time>
      </trkpt>
      <trkpt lat="43.13184" lon="3.07454">
        <ele>97.2</ele>
        <time>2024-01-01T16:16:14Z</time>
      </trkpt>
      <trkpt lat="43.13178" lon="3.0742">
        <ele>98</ele>
        <time>2024-01-01T16:16:22Z</time>
      </trkpt>
      <trkpt lat="43.13168" lon="3.07398">
        <ele>98.2</ele>
        <time>2024-01-01T16:16:26Z</time>
      </trkpt>
      <trkpt lat="43.13146" lon="3.073">
        <ele>98.3</ele>
        <time>2024-01-01T16:16:42Z</time>
      </trkpt>
      <trkpt lat="43.13152" lon="3.07241">
        <ele>96.7</ele>
        <time>2024-01-01T16:16:54Z</time>
      </trkpt>
      <trkpt lat="43.13146" lon="3.07223">
        <ele>94.2</ele>
        <time>2024-01-01T16:16:58Z</time>
      </trkpt>
      <trkpt lat="43.13144" lon="3.07193">
        <ele>92</ele>
        <time>2024-01-01T16:17:02Z</time>
      </trkpt>
      <trkpt lat="43.13136" lon="3.07167">
        <ele>89</ele>
        <time>2024-01-01T16:17:06Z</time>
      </trkpt>
      <trkpt lat="43.13132" lon="3.07165">
        <ele>87.7</ele>
        <time>2024-01-01T16:17:08Z</time>
      </trkpt>
      <trkpt lat="43.13127" lon="3.07126">
        <ele>83.7</ele>
        <time>2024-01-01T16:17:16Z</time>
      </trkpt>
      <trkpt lat="43.13118" lon="3.07108">
        <ele>81.3</ele>
        <time>2024-01-01T16:17:20Z</time>
      </trkpt>
      <trkpt lat="43.13104" lon="3.07091">
        <ele>78.6</ele>
        <time>2024-01-01T16:17:24Z</time>
      </trkpt>
      <trkpt lat="43.13091" lon="3.07063">
        <ele>76.2</ele>
        <time>2024-01-01T16:17:28Z</time>
      </trkpt>
      <trkpt lat="43.13082" lon="3.07054">
        <ele>74.7</ele>
        <time>2024-01-01T16:17:30Z</time>
      </trkpt>
      <trkpt lat="43.13085" lon="3.07042">
        <ele>79.5</ele>
        <time>2024-01-01T16:17:32Z</time>
      </trkpt>
      <trkpt lat="43.13081" lon="3.07019">
        <ele>72.6</ele>
        <time>2024-01-01T16:17:36Z</time>
      </trkpt>
      <trkpt lat="43.1307" lon="3.06968">
        <ele>71.2</ele>
        <time>2024-01-01T16:17:44Z</time>
      </trkpt>
      <trkpt lat="43.13068" lon="3.06938">
        <ele>77.4</ele>
        <time>2024-01-01T16:17:48Z</time>
      </trkpt>
      <trkpt lat="43.13058" lon="3.06901">
        <ele>76.8</ele>
        <time>2024-01-01T16:17:56Z</time>
      </trkpt>
      <trkpt lat="43.13048" lon="3.06883">
        <ele>70.2</ele>
        <time>2024-01-01T16:18:00Z</time>
      </trkpt>
      <trkpt lat="43.13012" lon="3.06866">
        <ele>66.2</ele>
        <time>2024-01-01T16:18:08Z</time>
      </trkpt>
      <trkpt lat="43.12992" lon="3.06844">
        <ele>64.6</ele>
        <time>2024-01-01T16:18:12Z</time>
      </trkpt>
      <trkpt lat="43.12975" lon="3.06799">
        <ele>63</ele>
        <time>2024-01-01T16:18:22Z</time>
      </trkpt>
      <trkpt lat="43.1297" lon="3.06809">
        <ele>62.2</ele>
        <time>2024-01-01T16:18:26Z</time>
      </trkpt>
      <trkpt lat="43.12967" lon="3.0683">
        <ele>60.7</ele>
        <time>2024-01-01T16:18:30Z</time>
      </trkpt>
      <trkpt lat="43.12957" lon="3.06855">
        <ele>58.7</ele>
        <time>2024-01-01T16:18:34Z</time>
      </trkpt>
      <trkpt lat="43.12961" lon="3.06878">
        <ele>57.3</ele>
        <time>2024-01-01T16:18:38Z</time>
      </trkpt>
      <trkpt lat="43.13029" lon="3.0696">
        <ele>60.3</ele>
        <time>2024-01-01T16:18:58Z</time>
      </trkpt>
      <trkpt lat="43.13046" lon="3.07008">
        <ele>62</ele>
        <time>2024-01-01T16:19:06Z</time>
      </trkpt>
      <trkpt lat="43.13055" lon="3.07057">
        <ele>64.6</ele>
        <time>2024-01-01T16:19:14Z</time>
      </trkpt>
      <trkpt lat="43.13048" lon="3.07255">
        <ele>76.2</ele>
        <time>2024-01-01T16:19:46Z</time>
      </trkpt>
      <trkpt lat="43.13041" lon="3.0734">
        <ele>80.3</ele>
        <time>2024-01-01T16:20:02Z</time>
      </trkpt>
      <trkpt lat="43.13047" lon="3.07392">
        <ele>78.6</ele>
        <time>2024-01-01T16:20:10Z</time>
      </trkpt>
      <trkpt lat="43.13044" lon="3.07486">
        <ele>74.6</ele>
        <time>2024-01-01T16:20:22Z</time>
      </trkpt>
      <trkpt lat="43.13036" lon="3.07502">
        <ele>73.6</ele>
        <time>2024-01-01T16:20:26Z</time>
      </trkpt>
      <trkpt lat="43.1303" lon="3.07506">
        <ele>73.2</ele>
        <time>2024-01-01T16:20:28Z</time>
      </trkpt>
      <trkpt lat="43.13009" lon="3.07504">
        <ele>71.7</ele>
        <time>2024-01-01T16:20:32Z</time>
      </trkpt>
      <trkpt lat="43.12975" lon="3.07521">
        <ele>68.7</ele>
        <time>2024-01-01T16:20:40Z</time>
      </trkpt>
      <trkpt lat="43.12957" lon="3.0752">
        <ele>66.6</ele>
        <time>2024-01-01T16:20:46Z</time>
      </trkpt>
      <trkpt lat="43.12951" lon="3.07634">
        <ele>66.6</ele>
        <time>2024-01-01T16:21:10Z</time>
      </trkpt>
      <trkpt lat="43.12946" lon="3.07656">
        <ele>66.3</ele>
        <time>2024-01-01T16:21:14Z</time>
      </trkpt>
      <trkpt lat="43.1295" lon="3.07716">
        <ele>69.7</ele>
        <time>2024-01-01T16:21:30Z</time>
      </trkpt>
      <trkpt lat="43.12838" lon="3.07661">
        <ele>58.6</ele>
        <time>2024-01-01T16:22:06Z</time>
      </trkpt>
      <trkpt lat="43.12814" lon="3.07636">
        <ele>52.7</ele>
        <time>2024-01-01T16:22:12Z</time>
      </trkpt>
      <trkpt lat="43.12816" lon="3.07603">
        <ele>49.6</ele>
        <time>2024-01-01T16:22:16Z</time>
      </trkpt>
      <trkpt lat="43.12812" lon="3.07588">
        <ele>48.3</ele>
        <time>2024-01-01T16:22:18Z</time>
      </trkpt>
      <trkpt lat="43.12788" lon="3.07576">
        <ele>46.6</ele>
        <time>2024-01-01T16:22:22Z</time>
      </trkpt>
      <trkpt lat="43.12652" lon="3.07466">
        <ele>35.3</ele>
        <time>2024-01-01T16:22:46Z</time>
      </trkpt>
      <trkpt lat="43.12543" lon="3.0743">
        <ele>32.2</ele>
        <time>2024-01-01T16:23:06Z</time>
      </trkpt>
      <trkpt lat="43.12496" lon="3.07445">
        <ele>32.5</ele>
        <time>2024-01-01T16:23:14Z</time>
      </trkpt>
      <trkpt lat="43.12483" lon="3.0745">
        <ele>28.3</ele>
        <time>2024-01-01T16:23:16Z</time>
      </trkpt>
      <trkpt lat="43.12473" lon="3.07463">
        <ele>27.2</ele>
        <time>2024-01-01T16:23:18Z</time>
      </trkpt>
      <trkpt lat="43.1246" lon="3.07501">
        <ele>24.6</ele>
        <time>2024-01-01T16:23:22Z</time>
      </trkpt>
      <trkpt lat="43.12438" lon="3.07523">
        <ele>22.7</ele>
        <time>2024-01-01T16:23:26Z</time>
      </trkpt>
      <trkpt lat="43.12398" lon="3.07531">
        <ele>26.8</ele>
        <time>2024-01-01T16:23:32Z</time>
      </trkpt>
      <trkpt lat="43.12374" lon="3.07564">
        <ele>29.4</ele>
      </trkpt>
      <trkpt lat="43.12346" lon="3.07589">
        <ele>28.8</ele>
        <time>2024-01-01T16:23:56Z</time>
      </trkpt>
      <trkpt lat="43.12323" lon="3.07624">
        <ele>29.5</ele>
      </trkpt>
      <trkpt lat="43.12323" lon="3.07661">
        <ele>26.6</ele>
        <time>2024-01-01T16:24:04Z</time>
      </trkpt>
      <trkpt lat="43.123" lon="3.07721">
        <ele>28.3</ele>
        <time>2024-01-01T16:24:16Z</time>
      </trkpt>
      <trkpt lat="43.12293" lon="3.07743">
        <ele>33.4</ele>
        <time>2024-01-01T16:24:20Z</time>
      </trkpt>
      <trkpt lat="43.12297" lon="3.07779">
        <ele>36.1</ele>
        <time>2024-01-01T16:24:32Z</time>
      </trkpt>
      <trkpt lat="43.12298" lon="3.07798">
        <ele>36</ele>
      </trkpt>
      <trkpt lat="43.12294" lon="3.07805">
        <ele>35.3</ele>
      </trkpt>
      <trkpt lat="43.12284" lon="3.07777">
        <ele>27.2</ele>
        <time>2024-01-01T16:24:42Z</time>
      </trkpt>
      <trkpt lat="43.12279" lon="3.07774">
        <ele>31.9</ele>
      </trkpt>
      <trkpt lat="43.12266" lon="3.07777">
        <ele>31.9</ele>
        <time>2024-01-01T16:24:46Z</time>
      </trkpt>
      <trkpt lat="43.12248" lon="3.07774">
        <ele>31.7</ele>
      </trkpt>
      <trkpt lat="43.12217" lon="3.0776">
        <ele>27.3</ele>
        <time>2024-01-01T16:24:58Z</time>
      </trkpt>
      <trkpt lat="43.12203" lon="3.07745">
        <ele>28.2</ele>
        <time>2024-01-01T16:25:02Z</time>
      </trkpt>
      <trkpt lat="43.12188" lon="3.07739">
        <ele>29.3</ele>
        <time>2024-01-01T16:25:06Z</time>
      </trkpt>
      <trkpt lat="43.12159" lon="3.07746">
        <ele>30.3</ele>
        <time>2024-01-01T16:25:14Z</time>
      </trkpt>
      <trkpt lat="43.12148" lon="3.07763">
        <ele>30.3</ele>
        <time>2024-01-01T16:25:18Z</time>
      </trkpt>
      <trkpt lat="43.12143" lon="3.07779">
        <ele>30.7</ele>
        <time>2024-01-01T16:25:22Z</time>
      </trkpt>
      <trkpt lat="43.12139" lon="3.07854">
        <ele>33.6</ele>
        <time>2024-01-01T16:25:38Z</time>
      </trkpt>
      <trkpt lat="43.12134" lon="3.07886">
        <ele>33</ele>
        <time>2024-01-01T16:25:46Z</time>
      </trkpt>
      <trkpt lat="43.12135" lon="3.07904">
        <ele>32</ele>
        <time>2024-01-01T16:25:50Z</time>
      </trkpt>
      <trkpt lat="43.12131" lon="3.07915">
        <ele>30.6</ele>
        <time>2024-01-01T16:25:54Z</time>
      </trkpt>
      <trkpt lat="43.12138" lon="3.07926">
        <ele>30</ele>
        <time>2024-01-01T16:25:58Z</time>
      </trkpt>
      <trkpt lat="43.1214" lon="3.07956">
        <ele>29.7</ele>
        <time>2024-01-01T16:26:06Z</time>
      </trkpt>
      <trkpt lat="43.12147" lon="3.07973">
        <ele>31.3</ele>
        <time>2024-01-01T16:26:10Z</time>
      </trkpt>
      <trkpt lat="43.12151" lon="3.08034">
        <ele>34</ele>
        <time>2024-01-01T16:26:22Z</time>
      </trkpt>
      <trkpt lat="43.1216" lon="3.08055">
        <ele>34.3</ele>
        <time>2024-01-01T16:26:26Z</time>
      </trkpt>
      <trkpt lat="43.12187" lon="3.08075">
        <ele>35.7</ele>
        <time>2024-01-01T16:26:34Z</time>
      </trkpt>
      <trkpt lat="43.12203" lon="3.0807">
        <ele>36.7</ele>
        <time>2024-01-01T16:26:38Z</time>
      </trkpt>
      <trkpt lat="43.12209" lon="3.08072">
        <ele>37.2</ele>
        <time>2024-01-01T16:26:40Z</time>
      </trkpt>
      <trkpt lat="43.12216" lon="3.08113">
        <ele>35.3</ele>
        <time>2024-01-01T16:26:48Z</time>
      </trkpt>
      <trkpt lat="43.12198" lon="3.08143">
        <ele>32.3</ele>
        <time>2024-01-01T16:26:54Z</time>
      </trkpt>
      <trkpt lat="43.12199" lon="3.08161">
        <ele>29.6</ele>
      </trkpt>
      <trkpt lat="43.12205" lon="3.08164">
        <ele>27</ele>
        <time>2024-01-01T16:26:58Z</time>
      </trkpt>
      <trkpt lat="43.12251" lon="3.08144">
        <ele>26.4</ele>
        <time>2024-01-01T16:27:10Z</time>
      </trkpt>
      <trkpt lat="43.12258" lon="3.08152">
        <ele>25.1</ele>
        <time>2024-01-01T16:27:12Z</time>
      </trkpt>
      <trkpt lat="43.12238" lon="3.08317">
        <ele>14.2</ele>
        <time>2024-01-01T16:27:36Z</time>
      </trkpt>
      <trkpt lat="43.12227" lon="3.0836">
        <ele>13</ele>
        <time>2024-01-01T16:27:42Z</time>
      </trkpt>
      <trkpt lat="43.12232" lon="3.08386">
        <ele>15.7</ele>
        <time>2024-01-01T16:27:50Z</time>
      </trkpt>
      <trkpt lat="43.12227" lon="3.08398">
        <ele>16.3</ele>
        <time>2024-01-01T16:27:54Z</time>
      </trkpt>
      <trkpt lat="43.12215" lon="3.08409">
        <ele>16.3</ele>
        <time>2024-01-01T16:27:58Z</time>
      </trkpt>
      <trkpt lat="43.12164" lon="3.08424">
        <ele>16.3</ele>
        <time>2024-01-01T16:28:10Z</time>
      </trkpt>
      <trkpt lat="43.12133" lon="3.08427">
        <ele>15.6</ele>
        <time>2024-01-01T16:28:16Z</time>
      </trkpt>
      <trkpt lat="43.12113" lon="3.0842">
        <ele>13.7</ele>
        <time>2024-01-01T16:28:20Z</time>
      </trkpt>
      <trkpt lat="43.12105" lon="3.08429">
        <ele>13.3</ele>
        <time>2024-01-01T16:28:24Z</time>
      </trkpt>
      <trkpt lat="43.12075" lon="3.08439">
        <ele>14.2</ele>
        <time>2024-01-01T16:28:32Z</time>
      </trkpt>
      <trkpt lat="43.12044" lon="3.08429">
        <ele>11.3</ele>
        <time>2024-01-01T16:28:40Z</time>
      </trkpt>
      <trkpt lat="43.1203" lon="3.08434">
        <ele>9.1</ele>
        <time>2024-01-01T16:28:44Z</time>
      </trkpt>
      <trkpt lat="43.12021" lon="3.08446">
        <ele>9</ele>
        <time>2024-01-01T16:28:48Z</time>
      </trkpt>
      <trkpt lat="43.12017" lon="3.08452">
        <ele>15.1</ele>
        <time>2024-01-01T16:28:56Z</time>
      </trkpt>
      <trkpt lat="43.12016" lon="3.08454">
        <ele>15.3</ele>
        <time>2024-01-01T16:29:04Z</time>
      </trkpt>
      <trkpt lat="43.12015" lon="3.08456">
        <ele>15.4</ele>
        <time>2024-01-01T16:29:06Z</time>
      </trkpt>
      <trkpt lat="43.12015" lon="3.08455">
        <ele>15.2</ele>
        <time>2024-01-01T16:29:14Z</time>
      </trkpt>
      <trkpt lat="43.12017" lon="3.08454">
        <ele>15.5</ele>
        <time>2024-01-01T16:29:16Z</time>
      </trkpt>
      <trkpt lat="43.12017" lon="3.08451">
        <ele>8.1</ele>
        <time>2024-01-01T16:29:24Z</time>
      </trkpt>
      <trkpt lat="43.11996" lon="3.08491">
        <ele>11</ele>
        <time>2024-01-01T16:29:52Z</time>
      </trkpt>
      <trkpt lat="43.11974" lon="3.08575">
        <ele>13.6</ele>
        <time>2024-01-01T16:30:18Z</time>
      </trkpt>
      <trkpt lat="43.11982" lon="3.08608">
        <ele>17.3</ele>
        <time>2024-01-01T16:30:26Z</time>
      </trkpt>
      <trkpt lat="43.11983" lon="3.08643">
        <ele>19.3</ele>
        <time>2024-01-01T16:30:34Z</time>
      </trkpt>
      <trkpt lat="43.11991" lon="3.08664">
        <ele>21.2</ele>
        <time>2024-01-01T16:30:42Z</time>
      </trkpt>
      <trkpt lat="43.11993" lon="3.08701">
        <ele>22</ele>
        <time>2024-01-01T16:30:50Z</time>
      </trkpt>
      <trkpt lat="43.12014" lon="3.08751">
        <ele>27</ele>
        <time>2024-01-01T16:31:06Z</time>
      </trkpt>
      <trkpt lat="43.12018" lon="3.08828">
        <ele>26</ele>
        <time>2024-01-01T16:31:22Z</time>
      </trkpt>
      <trkpt lat="43.12033" lon="3.08831">
        <ele>29</ele>
        <time>2024-01-01T16:31:30Z</time>
      </trkpt>
      <trkpt lat="43.12038" lon="3.08838">
        <ele>30.6</ele>
        <time>2024-01-01T16:31:34Z</time>
      </trkpt>
      <trkpt lat="43.12073" lon="3.08822">
        <ele>37.6</ele>
        <time>2024-01-01T16:31:50Z</time>
      </trkpt>
      <trkpt lat="43.12089" lon="3.08807">
        <ele>41.6</ele>
        <time>2024-01-01T16:31:58Z</time>
      </trkpt>
      <trkpt lat="43.12098" lon="3.08783">
        <ele>46.2</ele>
        <time>2024-01-01T16:32:06Z</time>
      </trkpt>
      <trkpt lat="43.1211" lon="3.08776">
        <ele>49</ele>
        <time>2024-01-01T16:32:12Z</time>
      </trkpt>
      <trkpt lat="43.12117" lon="3.08786">
        <ele>49.7</ele>
        <time>2024-01-01T16:32:16Z</time>
      </trkpt>
      <trkpt lat="43.12153" lon="3.08768">
        <ele>53.2</ele>
        <time>2024-01-01T16:32:32Z</time>
      </trkpt>
      <trkpt lat="43.12159" lon="3.08748">
        <ele>55.7</ele>
        <time>2024-01-01T16:32:40Z</time>
      </trkpt>
      <trkpt lat="43.12172" lon="3.08727">
        <ele>58.6</ele>
        <time>2024-01-01T16:32:48Z</time>
      </trkpt>
      <trkpt lat="43.12191" lon="3.0871">
        <ele>60.2</ele>
        <time>2024-01-01T16:32:56Z</time>
      </trkpt>
      <trkpt lat="43.12201" lon="3.08708">
        <ele>60.7</ele>
        <time>2024-01-01T16:33:00Z</time>
      </trkpt>
      <trkpt lat="43.12206" lon="3.08711">
        <ele>60.7</ele>
        <time>2024-01-01T16:33:02Z</time>
      </trkpt>
      <trkpt lat="43.12227" lon="3.08701">
        <ele>62.2</ele>
        <time>2024-01-01T16:33:10Z</time>
      </trkpt>
      <trkpt lat="43.12238" lon="3.08701">
        <ele>62.3</ele>
        <time>2024-01-01T16:33:14Z</time>
      </trkpt>
      <trkpt lat="43.12249" lon="3.08706">
        <ele>62</ele>
        <time>2024-01-01T16:33:18Z</time>
      </trkpt>
      <trkpt lat="43.12252" lon="3.08718">
        <ele>61.2</ele>
        <time>2024-01-01T16:33:22Z</time>
      </trkpt>
      <trkpt lat="43.12249" lon="3.08736">
        <ele>60</ele>
        <time>2024-01-01T16:33:26Z</time>
      </trkpt>
      <trkpt lat="43.12272" lon="3.08783">
        <ele>59.7</ele>
        <time>2024-01-01T16:33:38Z</time>
      </trkpt>
      <trkpt lat="43.12281" lon="3.08816">
        <ele>60.7</ele>
        <time>2024-01-01T16:33:46Z</time>
      </trkpt>
      <trkpt lat="43.12285" lon="3.08852">
        <ele>61</ele>
        <time>2024-01-01T16:33:54Z</time>
      </trkpt>
      <trkpt lat="43.12295" lon="3.08879">
        <ele>60.6</ele>
        <time>2024-01-01T16:34:00Z</time>
      </trkpt>
      <trkpt lat="43.12293" lon="3.089">
        <ele>63.1</ele>
        <time>2024-01-01T16:34:04Z</time>
      </trkpt>
      <trkpt lat="43.12276" lon="3.08905">
        <ele>61.1</ele>
        <time>2024-01-01T16:34:08Z</time>
      </trkpt>
      <trkpt lat="43.1226" lon="3.08899">
        <ele>59.9</ele>
        <time>2024-01-01T16:34:12Z</time>
      </trkpt>
      <trkpt lat="43.12261" lon="3.08913">
        <ele>59</ele>
        <time>2024-01-01T16:34:16Z</time>
      </trkpt>
      <trkpt lat="43.12265" lon="3.08924">
        <ele>58</ele>
        <time>2024-01-01T16:34:20Z</time>
      </trkpt>
      <trkpt lat="43.12275" lon="3.08932">
        <ele>57.6</ele>
        <time>2024-01-01T16:34:24Z</time>
      </trkpt>
      <trkpt lat="43.12281" lon="3.08951">
        <ele>55.4</ele>
      </trkpt>
      <trkpt lat="43.1228" lon="3.08967">
        <ele>52.9</ele>
        <time>2024-01-01T16:34:32Z</time>
      </trkpt>
      <trkpt lat="43.12268" lon="3.08972">
        <ele>47.7</ele>
        <time>2024-01-01T16:34:38Z</time>
      </trkpt>
      <trkpt lat="43.12262" lon="3.08978">
        <ele>49.1</ele>
      </trkpt>
      <trkpt lat="43.12257" lon="3.08989">
        <ele>46</ele>
        <time>2024-01-01T16:34:42Z</time>
      </trkpt>
      <trkpt lat="43.12241" lon="3.08999">
        <ele>42.7</ele>
        <time>2024-01-01T16:34:46Z</time>
      </trkpt>
      <trkpt lat="43.12197" lon="3.09022">
        <ele>38.8</ele>
        <time>2024-01-01T16:34:58Z</time>
      </trkpt>
      <trkpt lat="43.12194" lon="3.0903">
        <ele>37.6</ele>
        <time>2024-01-01T16:35:00Z</time>
      </trkpt>
      <trkpt lat="43.12197" lon="3.09044">
        <ele>35</ele>
        <time>2024-01-01T16:35:04Z</time>
      </trkpt>
      <trkpt lat="43.12207" lon="3.09076">
        <ele>32</ele>
      </trkpt>
      <trkpt lat="43.12216" lon="3.09149">
        <ele>28.9</ele>
      </trkpt>
      <trkpt lat="43.12219" lon="3.09165">
        <ele>28.6</ele>
        <time>2024-01-01T16:35:20Z</time>
      </trkpt>
      <trkpt lat="43.12227" lon="3.09215">
        <ele>21.7</ele>
        <time>2024-01-01T16:35:32Z</time>
      </trkpt>
      <trkpt lat="43.12223" lon="3.09224">
        <ele>20.7</ele>
        <time>2024-01-01T16:35:34Z</time>
      </trkpt>
      <trkpt lat="43.12191" lon="3.09234">
        <ele>17.2</ele>
        <time>2024-01-01T16:35:50Z</time>
      </trkpt>
      <trkpt lat="43.12149" lon="3.09205">
        <ele>16.7</ele>
        <time>2024-01-01T16:36:04Z</time>
      </trkpt>
      <trkpt lat="43.12141" lon="3.09206">
        <ele>16.3</ele>
        <time>2024-01-01T16:36:06Z</time>
      </trkpt>
      <trkpt lat="43.12114" lon="3.09247">
        <ele>13.3</ele>
        <time>2024-01-01T16:36:14Z</time>
      </trkpt>
      <trkpt lat="43.12114" lon="3.09256">
        <ele>12.6</ele>
        <time>2024-01-01T16:36:16Z</time>
      </trkpt>
      <trkpt lat="43.12156" lon="3.09298">
        <ele>11.8</ele>
        <time>2024-01-01T16:36:30Z</time>
      </trkpt>
      <trkpt lat="43.12139" lon="3.09342">
        <ele>10</ele>
        <time>2024-01-01T16:36:38Z</time>
      </trkpt>
      <trkpt lat="43.12094" lon="3.09342">
        <ele>7.6</ele>
        <time>2024-01-01T16:36:46Z</time>
      </trkpt>
      <trkpt lat="43.12075" lon="3.09357">
        <ele>7</ele>
        <time>2024-01-01T16:36:50Z</time>
      </trkpt>
      <trkpt lat="43.12071" lon="3.09369">
        <ele>6.6</ele>
        <time>2024-01-01T16:36:52Z</time>
      </trkpt>
      <trkpt lat="43.1208" lon="3.09392">
        <ele>6.3</ele>
        <time>2024-01-01T16:36:56Z</time>
      </trkpt>
      <trkpt lat="43.1208" lon="3.09419">
        <ele>6.3</ele>
        <time>2024-01-01T16:37:00Z</time>
      </trkpt>
      <trkpt lat="43.12071" lon="3.09453">
        <ele>6</ele>
        <time>2024-01-01T16:37:06Z</time>
      </trkpt>
      <trkpt lat="43.12064" lon="3.09457">
        <ele>6</ele>
        <time>2024-01-01T16:37:08Z</time>
      </trkpt>
      <trkpt lat="43.12031" lon="3.09453">
        <ele>5.3</ele>
        <time>2024-01-01T16:37:16Z</time>
      </trkpt>
      <trkpt lat="43.12012" lon="3.0946">
        <ele>5.1</ele>
        <time>2024-01-01T16:37:24Z</time>
      </trkpt>
      <trkpt lat="43.11995" lon="3.09459">
        <ele>5.1</ele>
        <time>2024-01-01T16:37:28Z</time>
      </trkpt>
      <trkpt lat="43.11976" lon="3.09449">
        <ele>5</ele>
        <time>2024-01-01T16:37:32Z</time>
      </trkpt>
      <trkpt lat="43.11959" lon="3.09432">
        <ele>4.8</ele>
        <time>2024-01-01T16:37:36Z</time>
      </trkpt>
      <trkpt lat="43.11938" lon="3.09422">
        <ele>4.3</ele>
        <time>2024-01-01T16:37:40Z</time>
      </trkpt>
      <trkpt lat="43.11839" lon="3.09399">
        <ele>2.1</ele>
        <time>2024-01-01T16:37:56Z</time>
      </trkpt>
      <trkpt lat="43.11741" lon="3.0937">
        <ele>0.1</ele>
        <time>2024-01-01T16:38:12Z</time>
      </trkpt>
      <trkpt lat="43.11649" lon="3.09325">
        <ele>-1.1</ele>
        <time>2024-01-01T16:38:28Z</time>
      </trkpt>
      <trkpt lat="43.11558" lon="3.09289">
        <ele>-2.1</ele>
        <time>2024-01-01T16:38:44Z</time>
      </trkpt>
      <trkpt lat="43.11513" lon="3.09277">
        <ele>-2.3</ele>
        <time>2024-01-01T16:38:52Z</time>
      </trkpt>
      <trkpt lat="43.11491" lon="3.09283">
        <ele>-2.6</ele>
        <time>2024-01-01T16:38:56Z</time>
      </trkpt>
      <trkpt lat="43.11472" lon="3.09293">
        <ele>-2.8</ele>
        <time>2024-01-01T16:39:00Z</time>
      </trkpt>
      <trkpt lat="43.11457" lon="3.0931">
        <ele>-2.8</ele>
        <time>2024-01-01T16:39:04Z</time>
      </trkpt>
      <trkpt lat="43.11462" lon="3.0933">
        <ele>-2.8</ele>
        <time>2024-01-01T16:39:08Z</time>
      </trkpt>
      <trkpt lat="43.11553" lon="3.0945">
        <ele>-2</ele>
        <time>2024-01-01T16:39:32Z</time>
      </trkpt>
      <trkpt lat="43.11565" lon="3.09475">
        <ele>-1.8</ele>
        <time>2024-01-01T16:39:36Z</time>
      </trkpt>
      <trkpt lat="43.11567" lon="3.09506">
        <ele>-2</ele>
        <time>2024-01-01T16:39:40Z</time>
      </trkpt>
      <trkpt lat="43.11548" lon="3.09563">
        <ele>-2.1</ele>
        <time>2024-01-01T16:39:48Z</time>
      </trkpt>
      <trkpt lat="43.11499" lon="3.09671">
        <ele>-2.6</ele>
        <time>2024-01-01T16:40:04Z</time>
      </trkpt>
      <trkpt lat="43.11466" lon="3.09717">
        <ele>-2.6</ele>
        <time>2024-01-01T16:40:12Z</time>
      </trkpt>
      <trkpt lat="43.11425" lon="3.09819">
        <ele>-2.3</ele>
        <time>2024-01-01T16:40:28Z</time>
      </trkpt>
      <trkpt lat="43.11417" lon="3.09822">
        <ele>-2.1</ele>
        <time>2024-01-01T16:40:30Z</time>
      </trkpt>
      <trkpt lat="43.11398" lon="3.09819">
        <ele>-1.8</ele>
        <time>2024-01-01T16:40:36Z</time>
      </trkpt>
      <trkpt lat="43.11391" lon="3.09825">
        <ele>-1.3</ele>
        <time>2024-01-01T16:40:38Z</time>
      </trkpt>
      <trkpt lat="43.1138" lon="3.09861">
        <ele>2</ele>
        <time>2024-01-01T16:40:46Z</time>
      </trkpt>
      <trkpt lat="43.11364" lon="3.09887">
        <ele>5.8</ele>
        <time>2024-01-01T16:40:54Z</time>
      </trkpt>
      <trkpt lat="43.11361" lon="3.09901">
        <ele>7.1</ele>
        <time>2024-01-01T16:40:58Z</time>
      </trkpt>
      <trkpt lat="43.11373" lon="3.09934">
        <ele>9.3</ele>
        <time>2024-01-01T16:41:06Z</time>
      </trkpt>
      <trkpt lat="43.11374" lon="3.09982">
        <ele>10.3</ele>
        <time>2024-01-01T16:41:18Z</time>
      </trkpt>
      <trkpt lat="43.11364" lon="3.09996">
        <ele>9.6</ele>
        <time>2024-01-01T16:41:26Z</time>
      </trkpt>
      <trkpt lat="43.11365" lon="3.10002">
        <ele>9.3</ele>
        <time>2024-01-01T16:41:58Z</time>
      </trkpt>
    </trkseg>
  </trk>
</gpx>